<?xml version="1.0" encoding="UTF-8" standalone="no" ?><gpx xmlns="http://www.topografix.com/GPX/1/1" xmlns:gpxx="http://www.garmin.com/xmlschemas/GpxExtensions/v3" xmlns:wptx1="http://www.garmin.com/xmlschemas/WaypointExtension/v1" xmlns:gpxtpx="http://www.garmin.com/xmlschemas/TrackPointExtension/v1" creator="GuideVTT.com" version="1.1" xmlns:xsi="http://www.w3.org/2001/XMLSchema-instance" xsi:schemaLocation="http://www.topografix.com/GPX/1/1 http://www.topografix.com/GPX/1/1/gpx.xsd http://www.garmin.com/xmlschemas/GpxExtensions/v3 http://www8.garmin.com/xmlschemas/GpxExtensionsv3.xsd http://www.garmin.com/xmlschemas/WaypointExtension/v1 http://www8.garmin.com/xmlschemas/WaypointExtensionv1.xsd http://www.garmin.com/xmlschemas/TrackPointExtension/v1 http://www.garmin.com/xmlschemas/TrackPointExtensionv1.xsd">
<metadata><link href="http://www.garmin.com"><text>Garmin International</text></link><time>2013-06-22T15:13:50Z</time></metadata>
<trk><name>07_23_ne_chass.gpx</name><extensions><gpxx:TrackExtension><gpxx:DisplayColor>Cyan</gpxx:DisplayColor></gpxx:TrackExtension></extensions><trkseg>
<trkpt lat="46.99505200" lon="6.94031000"><ele></ele><time>2014-8-17T8:23:13Z</time></trkpt>
<trkpt lat="46.99511700" lon="6.94039100"><ele></ele><time>2014-8-17T8:23:16Z</time></trkpt>
<trkpt lat="46.99530000" lon="6.94060800"><ele></ele><time>2014-8-17T8:23:19Z</time></trkpt>
<trkpt lat="46.99553700" lon="6.94090700"><ele></ele><time>2014-8-17T8:23:22Z</time></trkpt>
<trkpt lat="46.99572400" lon="6.94135900"><ele></ele><time>2014-8-17T8:23:25Z</time></trkpt>
<trkpt lat="46.99583100" lon="6.94192800"><ele></ele><time>2014-8-17T8:23:28Z</time></trkpt>
<trkpt lat="46.99597900" lon="6.94281100"><ele></ele><time>2014-8-17T8:23:31Z</time></trkpt>
<trkpt lat="46.99611700" lon="6.94316800"><ele></ele><time>2014-8-17T8:23:34Z</time></trkpt>
<trkpt lat="46.99639500" lon="6.94357700"><ele></ele><time>2014-8-17T8:23:37Z</time></trkpt>
<trkpt lat="46.99673100" lon="6.94406600"><ele></ele><time>2014-8-17T8:23:40Z</time></trkpt>
<trkpt lat="46.99684500" lon="6.94424000"><ele></ele><time>2014-8-17T8:23:43Z</time></trkpt>
<trkpt lat="46.99684500" lon="6.94424000"><ele></ele><time>2014-8-17T8:23:46Z</time></trkpt>
<trkpt lat="46.99684500" lon="6.94424100"><ele></ele><time>2014-8-17T8:23:49Z</time></trkpt>
<trkpt lat="46.99684500" lon="6.94424100"><ele></ele><time>2014-8-17T8:23:52Z</time></trkpt>
<trkpt lat="46.99685300" lon="6.94426700"><ele></ele><time>2014-8-17T8:23:55Z</time></trkpt>
<trkpt lat="46.99694800" lon="6.94440100"><ele></ele><time>2014-8-17T8:23:58Z</time></trkpt>
<trkpt lat="46.99703600" lon="6.94457500"><ele></ele><time>2014-8-17T8:24:1Z</time></trkpt>
<trkpt lat="46.99729200" lon="6.94524600"><ele></ele><time>2014-8-17T8:24:4Z</time></trkpt>
<trkpt lat="46.99731400" lon="6.94531400"><ele></ele><time>2014-8-17T8:24:7Z</time></trkpt>
<trkpt lat="46.99740600" lon="6.94609500"><ele></ele><time>2014-8-17T8:24:10Z</time></trkpt>
<trkpt lat="46.99736000" lon="6.94680700"><ele></ele><time>2014-8-17T8:24:13Z</time></trkpt>
<trkpt lat="46.99729500" lon="6.94745800"><ele></ele><time>2014-8-17T8:24:16Z</time></trkpt>
<trkpt lat="46.99726900" lon="6.94809000"><ele></ele><time>2014-8-17T8:24:19Z</time></trkpt>
<trkpt lat="46.99729900" lon="6.94897500"><ele></ele><time>2014-8-17T8:24:22Z</time></trkpt>
<trkpt lat="46.99737200" lon="6.95006600"><ele></ele><time>2014-8-17T8:24:25Z</time></trkpt>
<trkpt lat="46.99744400" lon="6.95115800"><ele></ele><time>2014-8-17T8:24:28Z</time></trkpt>
<trkpt lat="46.99766200" lon="6.95196600"><ele></ele><time>2014-8-17T8:24:31Z</time></trkpt>
<trkpt lat="46.99793600" lon="6.95282500"><ele></ele><time>2014-8-17T8:24:34Z</time></trkpt>
<trkpt lat="46.99831000" lon="6.95363000"><ele></ele><time>2014-8-17T8:24:37Z</time></trkpt>
<trkpt lat="46.99894000" lon="6.95489900"><ele></ele><time>2014-8-17T8:24:40Z</time></trkpt>
<trkpt lat="46.99933600" lon="6.95558500"><ele></ele><time>2014-8-17T8:24:43Z</time></trkpt>
<trkpt lat="46.99984400" lon="6.95609400"><ele></ele><time>2014-8-17T8:24:46Z</time></trkpt>
<trkpt lat="47.00045400" lon="6.95634900"><ele></ele><time>2014-8-17T8:24:49Z</time></trkpt>
<trkpt lat="47.00117100" lon="6.95655900"><ele></ele><time>2014-8-17T8:24:52Z</time></trkpt>
<trkpt lat="47.00220100" lon="6.95688100"><ele></ele><time>2014-8-17T8:24:55Z</time></trkpt>
<trkpt lat="47.00265100" lon="6.95710700"><ele></ele><time>2014-8-17T8:24:58Z</time></trkpt>
<trkpt lat="47.00306700" lon="6.95762600"><ele></ele><time>2014-8-17T8:25:1Z</time></trkpt>
<trkpt lat="47.00350200" lon="6.95857500"><ele></ele><time>2014-8-17T8:25:4Z</time></trkpt>
<trkpt lat="47.00382200" lon="6.95935300"><ele></ele><time>2014-8-17T8:25:7Z</time></trkpt>
<trkpt lat="47.00414300" lon="6.96013100"><ele></ele><time>2014-8-17T8:25:10Z</time></trkpt>
<trkpt lat="47.00457400" lon="6.96112900"><ele></ele><time>2014-8-17T8:25:13Z</time></trkpt>
<trkpt lat="47.00484100" lon="6.96174100"><ele></ele><time>2014-8-17T8:25:16Z</time></trkpt>
<trkpt lat="47.00488700" lon="6.96182800"><ele></ele><time>2014-8-17T8:25:19Z</time></trkpt>
<trkpt lat="47.00492100" lon="6.96189100"><ele></ele><time>2014-8-17T8:25:22Z</time></trkpt>
<trkpt lat="47.00502400" lon="6.96193500"><ele></ele><time>2014-8-17T8:25:25Z</time></trkpt>
<trkpt lat="47.00526000" lon="6.96207000"><ele></ele><time>2014-8-17T8:25:28Z</time></trkpt>
<trkpt lat="47.00548900" lon="6.96230900"><ele></ele><time>2014-8-17T8:25:31Z</time></trkpt>
<trkpt lat="47.00566500" lon="6.96247100"><ele></ele><time>2014-8-17T8:25:34Z</time></trkpt>
<trkpt lat="47.00569500" lon="6.96250500"><ele></ele><time>2014-8-17T8:25:37Z</time></trkpt>
<trkpt lat="47.00578700" lon="6.96260300"><ele></ele><time>2014-8-17T8:25:40Z</time></trkpt>
<trkpt lat="47.00611100" lon="6.96306700"><ele></ele><time>2014-8-17T8:25:43Z</time></trkpt>
<trkpt lat="47.00624100" lon="6.96326300"><ele></ele><time>2014-8-17T8:25:46Z</time></trkpt>
<trkpt lat="47.00655700" lon="6.96384100"><ele></ele><time>2014-8-17T8:25:49Z</time></trkpt>
<trkpt lat="47.00681700" lon="6.96421200"><ele></ele><time>2014-8-17T8:25:52Z</time></trkpt>
<trkpt lat="47.00707600" lon="6.96450300"><ele></ele><time>2014-8-17T8:25:55Z</time></trkpt>
<trkpt lat="47.00729000" lon="6.96471300"><ele></ele><time>2014-8-17T8:25:58Z</time></trkpt>
<trkpt lat="47.00745400" lon="6.96494000"><ele></ele><time>2014-8-17T8:26:1Z</time></trkpt>
<trkpt lat="47.00748400" lon="6.96498500"><ele></ele><time>2014-8-17T8:26:4Z</time></trkpt>
<trkpt lat="47.00771300" lon="6.96545200"><ele></ele><time>2014-8-17T8:26:7Z</time></trkpt>
<trkpt lat="47.00803000" lon="6.96606500"><ele></ele><time>2014-8-17T8:26:10Z</time></trkpt>
<trkpt lat="47.00822100" lon="6.96656900"><ele></ele><time>2014-8-17T8:26:13Z</time></trkpt>
<trkpt lat="47.00840400" lon="6.96716800"><ele></ele><time>2014-8-17T8:26:16Z</time></trkpt>
<trkpt lat="47.00856800" lon="6.96765800"><ele></ele><time>2014-8-17T8:26:19Z</time></trkpt>
<trkpt lat="47.00876600" lon="6.96832900"><ele></ele><time>2014-8-17T8:26:22Z</time></trkpt>
<trkpt lat="47.00886500" lon="6.96866000"><ele></ele><time>2014-8-17T8:26:25Z</time></trkpt>
<trkpt lat="47.00914000" lon="6.96927500"><ele></ele><time>2014-8-17T8:26:28Z</time></trkpt>
<trkpt lat="47.00946800" lon="6.97004000"><ele></ele><time>2014-8-17T8:26:31Z</time></trkpt>
<trkpt lat="47.00968200" lon="6.97053800"><ele></ele><time>2014-8-17T8:26:34Z</time></trkpt>
<trkpt lat="47.00997200" lon="6.97126400"><ele></ele><time>2014-8-17T8:26:37Z</time></trkpt>
<trkpt lat="47.01022700" lon="6.97191000"><ele></ele><time>2014-8-17T8:26:40Z</time></trkpt>
<trkpt lat="47.01047900" lon="6.97258200"><ele></ele><time>2014-8-17T8:26:43Z</time></trkpt>
<trkpt lat="47.01060500" lon="6.97281800"><ele></ele><time>2014-8-17T8:26:46Z</time></trkpt>
<trkpt lat="47.01089500" lon="6.97329900"><ele></ele><time>2014-8-17T8:26:49Z</time></trkpt>
<trkpt lat="47.01131400" lon="6.97393300"><ele></ele><time>2014-8-17T8:26:52Z</time></trkpt>
<trkpt lat="47.01142100" lon="6.97409700"><ele></ele><time>2014-8-17T8:26:55Z</time></trkpt>
<trkpt lat="47.01147500" lon="6.97419500"><ele></ele><time>2014-8-17T8:26:58Z</time></trkpt>
<trkpt lat="47.01149700" lon="6.97424400"><ele></ele><time>2014-8-17T8:27:1Z</time></trkpt>
<trkpt lat="47.01157400" lon="6.97436500"><ele></ele><time>2014-8-17T8:27:4Z</time></trkpt>
<trkpt lat="47.01165000" lon="6.97450900"><ele></ele><time>2014-8-17T8:27:7Z</time></trkpt>
<trkpt lat="47.01173400" lon="6.97462000"><ele></ele><time>2014-8-17T8:27:10Z</time></trkpt>
<trkpt lat="47.01183700" lon="6.97480500"><ele></ele><time>2014-8-17T8:27:13Z</time></trkpt>
<trkpt lat="47.01200900" lon="6.97506200"><ele></ele><time>2014-8-17T8:27:16Z</time></trkpt>
<trkpt lat="47.01223400" lon="6.97549500"><ele></ele><time>2014-8-17T8:27:19Z</time></trkpt>
<trkpt lat="47.01241300" lon="6.97601500"><ele></ele><time>2014-8-17T8:27:22Z</time></trkpt>
<trkpt lat="47.01271400" lon="6.97675700"><ele></ele><time>2014-8-17T8:27:25Z</time></trkpt>
<trkpt lat="47.01287100" lon="6.97724800"><ele></ele><time>2014-8-17T8:27:28Z</time></trkpt>
<trkpt lat="47.01303100" lon="6.97758000"><ele></ele><time>2014-8-17T8:27:31Z</time></trkpt>
<trkpt lat="47.01309200" lon="6.97784400"><ele></ele><time>2014-8-17T8:27:34Z</time></trkpt>
<trkpt lat="47.01311500" lon="6.97794100"><ele></ele><time>2014-8-17T8:27:37Z</time></trkpt>
<trkpt lat="47.01331300" lon="6.97858600"><ele></ele><time>2014-8-17T8:27:40Z</time></trkpt>
<trkpt lat="47.01361800" lon="6.97943300"><ele></ele><time>2014-8-17T8:27:43Z</time></trkpt>
<trkpt lat="47.01374800" lon="6.97993000"><ele></ele><time>2014-8-17T8:27:46Z</time></trkpt>
<trkpt lat="47.01379400" lon="6.98020600"><ele></ele><time>2014-8-17T8:27:49Z</time></trkpt>
<trkpt lat="47.01389700" lon="6.98089000"><ele></ele><time>2014-8-17T8:27:52Z</time></trkpt>
<trkpt lat="47.01403800" lon="6.98161000"><ele></ele><time>2014-8-17T8:27:55Z</time></trkpt>
<trkpt lat="47.01406500" lon="6.98198700"><ele></ele><time>2014-8-17T8:27:58Z</time></trkpt>
<trkpt lat="47.01411100" lon="6.98219900"><ele></ele><time>2014-8-17T8:28:1Z</time></trkpt>
<trkpt lat="47.01427100" lon="6.98262100"><ele></ele><time>2014-8-17T8:28:4Z</time></trkpt>
<trkpt lat="47.01448400" lon="6.98320200"><ele></ele><time>2014-8-17T8:28:7Z</time></trkpt>
<trkpt lat="47.01482400" lon="6.98391600"><ele></ele><time>2014-8-17T8:28:10Z</time></trkpt>
<trkpt lat="47.01498400" lon="6.98431200"><ele></ele><time>2014-8-17T8:28:13Z</time></trkpt>
<trkpt lat="47.01527000" lon="6.98472700"><ele></ele><time>2014-8-17T8:28:16Z</time></trkpt>
<trkpt lat="47.01550700" lon="6.98497100"><ele></ele><time>2014-8-17T8:28:19Z</time></trkpt>
<trkpt lat="47.01577800" lon="6.98543500"><ele></ele><time>2014-8-17T8:28:22Z</time></trkpt>
<trkpt lat="47.01598700" lon="6.98589700"><ele></ele><time>2014-8-17T8:28:25Z</time></trkpt>
<trkpt lat="47.01612100" lon="6.98619100"><ele></ele><time>2014-8-17T8:28:28Z</time></trkpt>
<trkpt lat="47.01626200" lon="6.98666100"><ele></ele><time>2014-8-17T8:28:31Z</time></trkpt>
<trkpt lat="47.01633800" lon="6.98712300"><ele></ele><time>2014-8-17T8:28:34Z</time></trkpt>
<trkpt lat="47.01644900" lon="6.98759700"><ele></ele><time>2014-8-17T8:28:37Z</time></trkpt>
<trkpt lat="47.01657100" lon="6.98796900"><ele></ele><time>2014-8-17T8:28:40Z</time></trkpt>
<trkpt lat="47.01659400" lon="6.98809000"><ele></ele><time>2014-8-17T8:28:43Z</time></trkpt>
<trkpt lat="47.01661700" lon="6.98852800"><ele></ele><time>2014-8-17T8:28:46Z</time></trkpt>
<trkpt lat="47.01662800" lon="6.98858700"><ele></ele><time>2014-8-17T8:28:49Z</time></trkpt>
<trkpt lat="47.01666600" lon="6.98870000"><ele></ele><time>2014-8-17T8:28:52Z</time></trkpt>
<trkpt lat="47.01672400" lon="6.98879700"><ele></ele><time>2014-8-17T8:28:55Z</time></trkpt>
<trkpt lat="47.01693000" lon="6.98900300"><ele></ele><time>2014-8-17T8:28:58Z</time></trkpt>
<trkpt lat="47.01732600" lon="6.98897300"><ele></ele><time>2014-8-17T8:29:1Z</time></trkpt>
<trkpt lat="47.01760500" lon="6.98898000"><ele></ele><time>2014-8-17T8:29:4Z</time></trkpt>
<trkpt lat="47.01783400" lon="6.98904800"><ele></ele><time>2014-8-17T8:29:7Z</time></trkpt>
<trkpt lat="47.01813100" lon="6.98917000"><ele></ele><time>2014-8-17T8:29:10Z</time></trkpt>
<trkpt lat="47.01841400" lon="6.98930500"><ele></ele><time>2014-8-17T8:29:13Z</time></trkpt>
<trkpt lat="47.01871100" lon="6.98945200"><ele></ele><time>2014-8-17T8:29:16Z</time></trkpt>
<trkpt lat="47.01901600" lon="6.98960800"><ele></ele><time>2014-8-17T8:29:19Z</time></trkpt>
<trkpt lat="47.01930600" lon="6.98973400"><ele></ele><time>2014-8-17T8:29:22Z</time></trkpt>
<trkpt lat="47.01962300" lon="6.98990100"><ele></ele><time>2014-8-17T8:29:25Z</time></trkpt>
<trkpt lat="47.01988600" lon="6.99011700"><ele></ele><time>2014-8-17T8:29:28Z</time></trkpt>
<trkpt lat="47.02016800" lon="6.99038600"><ele></ele><time>2014-8-17T8:29:31Z</time></trkpt>
<trkpt lat="47.02042400" lon="6.99068100"><ele></ele><time>2014-8-17T8:29:34Z</time></trkpt>
<trkpt lat="47.02078600" lon="6.99098100"><ele></ele><time>2014-8-17T8:29:37Z</time></trkpt>
<trkpt lat="47.02111100" lon="6.99108100"><ele></ele><time>2014-8-17T8:29:40Z</time></trkpt>
<trkpt lat="47.02135500" lon="6.99113200"><ele></ele><time>2014-8-17T8:29:43Z</time></trkpt>
<trkpt lat="47.02176300" lon="6.99132000"><ele></ele><time>2014-8-17T8:29:46Z</time></trkpt>
<trkpt lat="47.02214100" lon="6.99150600"><ele></ele><time>2014-8-17T8:29:49Z</time></trkpt>
<trkpt lat="47.02259800" lon="6.99171700"><ele></ele><time>2014-8-17T8:29:52Z</time></trkpt>
<trkpt lat="47.02295700" lon="6.99189100"><ele></ele><time>2014-8-17T8:29:55Z</time></trkpt>
<trkpt lat="47.02349100" lon="6.99200400"><ele></ele><time>2014-8-17T8:29:58Z</time></trkpt>
<trkpt lat="47.02395600" lon="6.99207500"><ele></ele><time>2014-8-17T8:30:1Z</time></trkpt>
<trkpt lat="47.02438700" lon="6.99213400"><ele></ele><time>2014-8-17T8:30:4Z</time></trkpt>
<trkpt lat="47.02502100" lon="6.99219100"><ele></ele><time>2014-8-17T8:30:7Z</time></trkpt>
<trkpt lat="47.02538700" lon="6.99213700"><ele></ele><time>2014-8-17T8:30:10Z</time></trkpt>
<trkpt lat="47.02549600" lon="6.99204100"><ele></ele><time>2014-8-17T8:30:13Z</time></trkpt>
<trkpt lat="47.02560600" lon="6.99194500"><ele></ele><time>2014-8-17T8:30:16Z</time></trkpt>
<trkpt lat="47.02571500" lon="6.99184900"><ele></ele><time>2014-8-17T8:30:19Z</time></trkpt>
<trkpt lat="47.02567700" lon="6.99191500"><ele></ele><time>2014-8-17T8:30:22Z</time></trkpt>
<trkpt lat="47.02564200" lon="6.99202100"><ele></ele><time>2014-8-17T8:30:25Z</time></trkpt>
<trkpt lat="47.02566100" lon="6.99219700"><ele></ele><time>2014-8-17T8:30:28Z</time></trkpt>
<trkpt lat="47.02578000" lon="6.99235500"><ele></ele><time>2014-8-17T8:30:31Z</time></trkpt>
<trkpt lat="47.02590600" lon="6.99247100"><ele></ele><time>2014-8-17T8:30:34Z</time></trkpt>
<trkpt lat="47.02602800" lon="6.99259100"><ele></ele><time>2014-8-17T8:30:37Z</time></trkpt>
<trkpt lat="47.02616900" lon="6.99269500"><ele></ele><time>2014-8-17T8:30:40Z</time></trkpt>
<trkpt lat="47.02639800" lon="6.99285400"><ele></ele><time>2014-8-17T8:30:43Z</time></trkpt>
<trkpt lat="47.02660400" lon="6.99300200"><ele></ele><time>2014-8-17T8:30:46Z</time></trkpt>
<trkpt lat="47.02690100" lon="6.99317500"><ele></ele><time>2014-8-17T8:30:49Z</time></trkpt>
<trkpt lat="47.02712600" lon="6.99327500"><ele></ele><time>2014-8-17T8:30:52Z</time></trkpt>
<trkpt lat="47.02742000" lon="6.99333600"><ele></ele><time>2014-8-17T8:30:55Z</time></trkpt>
<trkpt lat="47.02763400" lon="6.99334100"><ele></ele><time>2014-8-17T8:30:58Z</time></trkpt>
<trkpt lat="47.02788200" lon="6.99333000"><ele></ele><time>2014-8-17T8:31:1Z</time></trkpt>
<trkpt lat="47.02816400" lon="6.99328200"><ele></ele><time>2014-8-17T8:31:4Z</time></trkpt>
<trkpt lat="47.02847300" lon="6.99322400"><ele></ele><time>2014-8-17T8:31:7Z</time></trkpt>
<trkpt lat="47.02884700" lon="6.99315600"><ele></ele><time>2014-8-17T8:31:10Z</time></trkpt>
<trkpt lat="47.02930500" lon="6.99309600"><ele></ele><time>2014-8-17T8:31:13Z</time></trkpt>
<trkpt lat="47.02975100" lon="6.99305700"><ele></ele><time>2014-8-17T8:31:16Z</time></trkpt>
<trkpt lat="47.03003700" lon="6.99304800"><ele></ele><time>2014-8-17T8:31:19Z</time></trkpt>
<trkpt lat="47.03032700" lon="6.99304900"><ele></ele><time>2014-8-17T8:31:22Z</time></trkpt>
<trkpt lat="47.03065900" lon="6.99304900"><ele></ele><time>2014-8-17T8:31:25Z</time></trkpt>
<trkpt lat="47.03101300" lon="6.99309000"><ele></ele><time>2014-8-17T8:31:28Z</time></trkpt>
<trkpt lat="47.03122700" lon="6.99314700"><ele></ele><time>2014-8-17T8:31:31Z</time></trkpt>
<trkpt lat="47.03168900" lon="6.99328900"><ele></ele><time>2014-8-17T8:31:34Z</time></trkpt>
<trkpt lat="47.03213900" lon="6.99340400"><ele></ele><time>2014-8-17T8:31:37Z</time></trkpt>
<trkpt lat="47.03246700" lon="6.99346000"><ele></ele><time>2014-8-17T8:31:40Z</time></trkpt>
<trkpt lat="47.03281000" lon="6.99353600"><ele></ele><time>2014-8-17T8:31:43Z</time></trkpt>
<trkpt lat="47.03315400" lon="6.99362700"><ele></ele><time>2014-8-17T8:31:46Z</time></trkpt>
<trkpt lat="47.03345100" lon="6.99371000"><ele></ele><time>2014-8-17T8:31:49Z</time></trkpt>
<trkpt lat="47.03387800" lon="6.99389100"><ele></ele><time>2014-8-17T8:31:52Z</time></trkpt>
<trkpt lat="47.03431700" lon="6.99409500"><ele></ele><time>2014-8-17T8:31:55Z</time></trkpt>
<trkpt lat="47.03469500" lon="6.99425500"><ele></ele><time>2014-8-17T8:31:58Z</time></trkpt>
<trkpt lat="47.03520600" lon="6.99446900"><ele></ele><time>2014-8-17T8:32:1Z</time></trkpt>
<trkpt lat="47.03568300" lon="6.99469100"><ele></ele><time>2014-8-17T8:32:4Z</time></trkpt>
<trkpt lat="47.03616000" lon="6.99491300"><ele></ele><time>2014-8-17T8:32:7Z</time></trkpt>
<trkpt lat="47.03660600" lon="6.99522500"><ele></ele><time>2014-8-17T8:32:10Z</time></trkpt>
<trkpt lat="47.03694900" lon="6.99553900"><ele></ele><time>2014-8-17T8:32:13Z</time></trkpt>
<trkpt lat="47.03744900" lon="6.99603300"><ele></ele><time>2014-8-17T8:32:16Z</time></trkpt>
<trkpt lat="47.03791800" lon="6.99650100"><ele></ele><time>2014-8-17T8:32:19Z</time></trkpt>
<trkpt lat="47.03819300" lon="6.99677500"><ele></ele><time>2014-8-17T8:32:22Z</time></trkpt>
<trkpt lat="47.03852100" lon="6.99710800"><ele></ele><time>2014-8-17T8:32:25Z</time></trkpt>
<trkpt lat="47.03873400" lon="6.99731400"><ele></ele><time>2014-8-17T8:32:28Z</time></trkpt>
<trkpt lat="47.03897900" lon="6.99755100"><ele></ele><time>2014-8-17T8:32:31Z</time></trkpt>
<trkpt lat="47.03930300" lon="6.99790000"><ele></ele><time>2014-8-17T8:32:34Z</time></trkpt>
<trkpt lat="47.03965800" lon="6.99831100"><ele></ele><time>2014-8-17T8:32:37Z</time></trkpt>
<trkpt lat="47.03993200" lon="6.99866400"><ele></ele><time>2014-8-17T8:32:40Z</time></trkpt>
<trkpt lat="47.04023400" lon="6.99904900"><ele></ele><time>2014-8-17T8:32:43Z</time></trkpt>
<trkpt lat="47.04045100" lon="6.99947100"><ele></ele><time>2014-8-17T8:32:46Z</time></trkpt>
<trkpt lat="47.04069900" lon="7.00000900"><ele></ele><time>2014-8-17T8:32:49Z</time></trkpt>
<trkpt lat="47.04095800" lon="7.00047900"><ele></ele><time>2014-8-17T8:32:52Z</time></trkpt>
<trkpt lat="47.04141600" lon="7.00133800"><ele></ele><time>2014-8-17T8:32:55Z</time></trkpt>
<trkpt lat="47.04200000" lon="7.00239300"><ele></ele><time>2014-8-17T8:32:58Z</time></trkpt>
<trkpt lat="47.04245000" lon="7.00299100"><ele></ele><time>2014-8-17T8:33:1Z</time></trkpt>
<trkpt lat="47.04296100" lon="7.00350000"><ele></ele><time>2014-8-17T8:33:4Z</time></trkpt>
<trkpt lat="47.04319000" lon="7.00366000"><ele></ele><time>2014-8-17T8:33:7Z</time></trkpt>
<trkpt lat="47.04366300" lon="7.00399400"><ele></ele><time>2014-8-17T8:33:10Z</time></trkpt>
<trkpt lat="47.04404800" lon="7.00432700"><ele></ele><time>2014-8-17T8:33:13Z</time></trkpt>
<trkpt lat="47.04446800" lon="7.00489100"><ele></ele><time>2014-8-17T8:33:16Z</time></trkpt>
<trkpt lat="47.04467400" lon="7.00525600"><ele></ele><time>2014-8-17T8:33:19Z</time></trkpt>
<trkpt lat="47.04487600" lon="7.00564300"><ele></ele><time>2014-8-17T8:33:22Z</time></trkpt>
<trkpt lat="47.04506300" lon="7.00599900"><ele></ele><time>2014-8-17T8:33:25Z</time></trkpt>
<trkpt lat="47.04520400" lon="7.00632700"><ele></ele><time>2014-8-17T8:33:28Z</time></trkpt>
<trkpt lat="47.04530300" lon="7.00670400"><ele></ele><time>2014-8-17T8:33:31Z</time></trkpt>
<trkpt lat="47.04541000" lon="7.00707800"><ele></ele><time>2014-8-17T8:33:34Z</time></trkpt>
<trkpt lat="47.04555900" lon="7.00747400"><ele></ele><time>2014-8-17T8:33:37Z</time></trkpt>
<trkpt lat="47.04568500" lon="7.00782300"><ele></ele><time>2014-8-17T8:33:40Z</time></trkpt>
<trkpt lat="47.04583000" lon="7.00816400"><ele></ele><time>2014-8-17T8:33:43Z</time></trkpt>
<trkpt lat="47.04597900" lon="7.00858000"><ele></ele><time>2014-8-17T8:33:46Z</time></trkpt>
<trkpt lat="47.04609300" lon="7.00897900"><ele></ele><time>2014-8-17T8:33:49Z</time></trkpt>
<trkpt lat="47.04619200" lon="7.00937100"><ele></ele><time>2014-8-17T8:33:52Z</time></trkpt>
<trkpt lat="47.04631000" lon="7.00978800"><ele></ele><time>2014-8-17T8:33:55Z</time></trkpt>
<trkpt lat="47.04650500" lon="7.01040400"><ele></ele><time>2014-8-17T8:33:58Z</time></trkpt>
<trkpt lat="47.04661200" lon="7.01073600"><ele></ele><time>2014-8-17T8:34:1Z</time></trkpt>
<trkpt lat="47.04696300" lon="7.01187300"><ele></ele><time>2014-8-17T8:34:4Z</time></trkpt>
<trkpt lat="47.04731400" lon="7.01301100"><ele></ele><time>2014-8-17T8:34:7Z</time></trkpt>
<trkpt lat="47.04761100" lon="7.01365100"><ele></ele><time>2014-8-17T8:34:10Z</time></trkpt>
<trkpt lat="47.04814500" lon="7.01458600"><ele></ele><time>2014-8-17T8:34:13Z</time></trkpt>
<trkpt lat="47.04871000" lon="7.01530600"><ele></ele><time>2014-8-17T8:34:16Z</time></trkpt>
<trkpt lat="47.04924600" lon="7.01612100"><ele></ele><time>2014-8-17T8:34:19Z</time></trkpt>
<trkpt lat="47.04978200" lon="7.01693700"><ele></ele><time>2014-8-17T8:34:22Z</time></trkpt>
<trkpt lat="47.05028500" lon="7.01794200"><ele></ele><time>2014-8-17T8:34:25Z</time></trkpt>
<trkpt lat="47.05040700" lon="7.01864700"><ele></ele><time>2014-8-17T8:34:28Z</time></trkpt>
<trkpt lat="47.05041100" lon="7.01913900"><ele></ele><time>2014-8-17T8:34:31Z</time></trkpt>
<trkpt lat="47.05040700" lon="7.01952600"><ele></ele><time>2014-8-17T8:34:34Z</time></trkpt>
<trkpt lat="47.05069900" lon="7.02012200"><ele></ele><time>2014-8-17T8:34:37Z</time></trkpt>
<trkpt lat="47.05099100" lon="7.02071900"><ele></ele><time>2014-8-17T8:34:40Z</time></trkpt>
<trkpt lat="47.05156300" lon="7.02157200"><ele></ele><time>2014-8-17T8:34:43Z</time></trkpt>
<trkpt lat="47.05207400" lon="7.02231900"><ele></ele><time>2014-8-17T8:34:46Z</time></trkpt>
<trkpt lat="47.05260800" lon="7.02294500"><ele></ele><time>2014-8-17T8:34:49Z</time></trkpt>
<trkpt lat="47.05298600" lon="7.02333200"><ele></ele><time>2014-8-17T8:34:52Z</time></trkpt>
<trkpt lat="47.05345200" lon="7.02379800"><ele></ele><time>2014-8-17T8:34:55Z</time></trkpt>
<trkpt lat="47.05390900" lon="7.02413900"><ele></ele><time>2014-8-17T8:34:58Z</time></trkpt>
<trkpt lat="47.05441300" lon="7.02460800"><ele></ele><time>2014-8-17T8:35:1Z</time></trkpt>
<trkpt lat="47.05498500" lon="7.02536900"><ele></ele><time>2014-8-17T8:35:4Z</time></trkpt>
<trkpt lat="47.05569800" lon="7.02617800"><ele></ele><time>2014-8-17T8:35:7Z</time></trkpt>
<trkpt lat="47.05641200" lon="7.02698800"><ele></ele><time>2014-8-17T8:35:10Z</time></trkpt>
<trkpt lat="47.05716300" lon="7.02753100"><ele></ele><time>2014-8-17T8:35:13Z</time></trkpt>
<trkpt lat="47.05750900" lon="7.02738800"><ele></ele><time>2014-8-17T8:35:16Z</time></trkpt>
<trkpt lat="47.05785500" lon="7.02724500"><ele></ele><time>2014-8-17T8:35:19Z</time></trkpt>
<trkpt lat="47.05820100" lon="7.02710200"><ele></ele><time>2014-8-17T8:35:22Z</time></trkpt>
<trkpt lat="47.05810200" lon="7.02745200"><ele></ele><time>2014-8-17T8:35:25Z</time></trkpt>
<trkpt lat="47.05792800" lon="7.02769200"><ele></ele><time>2014-8-17T8:35:28Z</time></trkpt>
<trkpt lat="47.05775500" lon="7.02793300"><ele></ele><time>2014-8-17T8:35:31Z</time></trkpt>
<trkpt lat="47.05782700" lon="7.02827900"><ele></ele><time>2014-8-17T8:35:34Z</time></trkpt>
<trkpt lat="47.05803700" lon="7.02849700"><ele></ele><time>2014-8-17T8:35:37Z</time></trkpt>
<trkpt lat="47.05849800" lon="7.02861600"><ele></ele><time>2014-8-17T8:35:40Z</time></trkpt>
<trkpt lat="47.05895600" lon="7.02910400"><ele></ele><time>2014-8-17T8:35:43Z</time></trkpt>
<trkpt lat="47.05941400" lon="7.02959300"><ele></ele><time>2014-8-17T8:35:46Z</time></trkpt>
<trkpt lat="47.05978000" lon="7.03010300"><ele></ele><time>2014-8-17T8:35:49Z</time></trkpt>
<trkpt lat="47.06008100" lon="7.03052500"><ele></ele><time>2014-8-17T8:35:52Z</time></trkpt>
<trkpt lat="47.06052800" lon="7.03109900"><ele></ele><time>2014-8-17T8:35:55Z</time></trkpt>
<trkpt lat="47.06135700" lon="7.03199900"><ele></ele><time>2014-8-17T8:35:58Z</time></trkpt>
<trkpt lat="47.06218700" lon="7.03289800"><ele></ele><time>2014-8-17T8:36:1Z</time></trkpt>
<trkpt lat="47.06267500" lon="7.03354700"><ele></ele><time>2014-8-17T8:36:4Z</time></trkpt>
<trkpt lat="47.06351100" lon="7.03453700"><ele></ele><time>2014-8-17T8:36:7Z</time></trkpt>
<trkpt lat="47.06433500" lon="7.03529800"><ele></ele><time>2014-8-17T8:36:10Z</time></trkpt>
<trkpt lat="47.06515900" lon="7.03605900"><ele></ele><time>2014-8-17T8:36:13Z</time></trkpt>
<trkpt lat="47.06557800" lon="7.03668300"><ele></ele><time>2014-8-17T8:36:16Z</time></trkpt>
<trkpt lat="47.06555900" lon="7.03748700"><ele></ele><time>2014-8-17T8:36:19Z</time></trkpt>
<trkpt lat="47.06565900" lon="7.03821300"><ele></ele><time>2014-8-17T8:36:22Z</time></trkpt>
<trkpt lat="47.06586500" lon="7.03868500"><ele></ele><time>2014-8-17T8:36:25Z</time></trkpt>
<trkpt lat="47.06629200" lon="7.03936100"><ele></ele><time>2014-8-17T8:36:28Z</time></trkpt>
<trkpt lat="47.06636000" lon="7.03951300"><ele></ele><time>2014-8-17T8:36:31Z</time></trkpt>
<trkpt lat="47.06639900" lon="7.03962200"><ele></ele><time>2014-8-17T8:36:34Z</time></trkpt>
<trkpt lat="47.06642900" lon="7.03974200"><ele></ele><time>2014-8-17T8:36:37Z</time></trkpt>
<trkpt lat="47.06672300" lon="7.04102800"><ele></ele><time>2014-8-17T8:36:40Z</time></trkpt>
<trkpt lat="47.06721100" lon="7.04181000"><ele></ele><time>2014-8-17T8:36:43Z</time></trkpt>
<trkpt lat="47.06769900" lon="7.04259100"><ele></ele><time>2014-8-17T8:36:46Z</time></trkpt>
<trkpt lat="47.06790500" lon="7.04289500"><ele></ele><time>2014-8-17T8:36:49Z</time></trkpt>
<trkpt lat="47.06879000" lon="7.04370600"><ele></ele><time>2014-8-17T8:36:52Z</time></trkpt>
<trkpt lat="47.06922500" lon="7.04428100"><ele></ele><time>2014-8-17T8:36:55Z</time></trkpt>
<trkpt lat="47.07014500" lon="7.04532900"><ele></ele><time>2014-8-17T8:36:58Z</time></trkpt>
<trkpt lat="47.07041500" lon="7.04600900"><ele></ele><time>2014-8-17T8:37:1Z</time></trkpt>
<trkpt lat="47.07060200" lon="7.04659700"><ele></ele><time>2014-8-17T8:37:4Z</time></trkpt>
<trkpt lat="47.07078900" lon="7.04718500"><ele></ele><time>2014-8-17T8:37:7Z</time></trkpt>
<trkpt lat="47.07097600" lon="7.04777200"><ele></ele><time>2014-8-17T8:37:10Z</time></trkpt>
<trkpt lat="47.07134600" lon="7.04880700"><ele></ele><time>2014-8-17T8:37:13Z</time></trkpt>
<trkpt lat="47.07176600" lon="7.04983500"><ele></ele><time>2014-8-17T8:37:16Z</time></trkpt>
<trkpt lat="47.07211300" lon="7.05066700"><ele></ele><time>2014-8-17T8:37:19Z</time></trkpt>
<trkpt lat="47.07225800" lon="7.05100300"><ele></ele><time>2014-8-17T8:37:22Z</time></trkpt>
<trkpt lat="47.07255900" lon="7.05169100"><ele></ele><time>2014-8-17T8:37:25Z</time></trkpt>
<trkpt lat="47.07282600" lon="7.05228400"><ele></ele><time>2014-8-17T8:37:28Z</time></trkpt>
<trkpt lat="47.07308200" lon="7.05287200"><ele></ele><time>2014-8-17T8:37:31Z</time></trkpt>
<trkpt lat="47.07324200" lon="7.05321000"><ele></ele><time>2014-8-17T8:37:34Z</time></trkpt>
<trkpt lat="47.07357800" lon="7.05387300"><ele></ele><time>2014-8-17T8:37:37Z</time></trkpt>
<trkpt lat="47.07395600" lon="7.05466600"><ele></ele><time>2014-8-17T8:37:40Z</time></trkpt>
<trkpt lat="47.07419400" lon="7.05520800"><ele></ele><time>2014-8-17T8:37:43Z</time></trkpt>
<trkpt lat="47.07443200" lon="7.05574900"><ele></ele><time>2014-8-17T8:37:46Z</time></trkpt>
<trkpt lat="47.07473000" lon="7.05639800"><ele></ele><time>2014-8-17T8:37:49Z</time></trkpt>
<trkpt lat="47.07480200" lon="7.05657700"><ele></ele><time>2014-8-17T8:37:52Z</time></trkpt>
<trkpt lat="47.07482500" lon="7.05678400"><ele></ele><time>2014-8-17T8:37:55Z</time></trkpt>
<trkpt lat="47.07480600" lon="7.05699000"><ele></ele><time>2014-8-17T8:37:58Z</time></trkpt>
<trkpt lat="47.07483300" lon="7.05718200"><ele></ele><time>2014-8-17T8:38:1Z</time></trkpt>
<trkpt lat="47.07489000" lon="7.05733500"><ele></ele><time>2014-8-17T8:38:4Z</time></trkpt>
<trkpt lat="47.07515300" lon="7.05777700"><ele></ele><time>2014-8-17T8:38:7Z</time></trkpt>
<trkpt lat="47.07539700" lon="7.05819300"><ele></ele><time>2014-8-17T8:38:10Z</time></trkpt>
<trkpt lat="47.07556900" lon="7.05851300"><ele></ele><time>2014-8-17T8:38:13Z</time></trkpt>
<trkpt lat="47.07580200" lon="7.05893000"><ele></ele><time>2014-8-17T8:38:16Z</time></trkpt>
<trkpt lat="47.07600800" lon="7.05931000"><ele></ele><time>2014-8-17T8:38:19Z</time></trkpt>
<trkpt lat="47.07629000" lon="7.05980700"><ele></ele><time>2014-8-17T8:38:22Z</time></trkpt>
<trkpt lat="47.07652700" lon="7.06023700"><ele></ele><time>2014-8-17T8:38:25Z</time></trkpt>
<trkpt lat="47.07677800" lon="7.06070400"><ele></ele><time>2014-8-17T8:38:28Z</time></trkpt>
<trkpt lat="47.07708700" lon="7.06127100"><ele></ele><time>2014-8-17T8:38:31Z</time></trkpt>
<trkpt lat="47.07733900" lon="7.06149600"><ele></ele><time>2014-8-17T8:38:34Z</time></trkpt>
<trkpt lat="47.07752200" lon="7.06135300"><ele></ele><time>2014-8-17T8:38:37Z</time></trkpt>
<trkpt lat="47.07776300" lon="7.06125100"><ele></ele><time>2014-8-17T8:38:40Z</time></trkpt>
<trkpt lat="47.07793000" lon="7.06135500"><ele></ele><time>2014-8-17T8:38:43Z</time></trkpt>
<trkpt lat="47.07810600" lon="7.06160900"><ele></ele><time>2014-8-17T8:38:46Z</time></trkpt>
<trkpt lat="47.07823200" lon="7.06189700"><ele></ele><time>2014-8-17T8:38:49Z</time></trkpt>
<trkpt lat="47.07842600" lon="7.06228600"><ele></ele><time>2014-8-17T8:38:52Z</time></trkpt>
<trkpt lat="47.07863600" lon="7.06272100"><ele></ele><time>2014-8-17T8:38:55Z</time></trkpt>
<trkpt lat="47.07881500" lon="7.06305100"><ele></ele><time>2014-8-17T8:38:58Z</time></trkpt>
<trkpt lat="47.07910500" lon="7.06353300"><ele></ele><time>2014-8-17T8:39:1Z</time></trkpt>
<trkpt lat="47.07944100" lon="7.06408400"><ele></ele><time>2014-8-17T8:39:4Z</time></trkpt>
<trkpt lat="47.07986500" lon="7.06477500"><ele></ele><time>2014-8-17T8:39:7Z</time></trkpt>
<trkpt lat="47.08015400" lon="7.06521900"><ele></ele><time>2014-8-17T8:39:10Z</time></trkpt>
<trkpt lat="47.08052400" lon="7.06570800"><ele></ele><time>2014-8-17T8:39:13Z</time></trkpt>
<trkpt lat="47.08090600" lon="7.06602300"><ele></ele><time>2014-8-17T8:39:16Z</time></trkpt>
<trkpt lat="47.08112300" lon="7.06600100"><ele></ele><time>2014-8-17T8:39:19Z</time></trkpt>
<trkpt lat="47.08124900" lon="7.06599500"><ele></ele><time>2014-8-17T8:39:22Z</time></trkpt>
<trkpt lat="47.08161900" lon="7.06618400"><ele></ele><time>2014-8-17T8:39:25Z</time></trkpt>
<trkpt lat="47.08171500" lon="7.06624500"><ele></ele><time>2014-8-17T8:39:28Z</time></trkpt>
<trkpt lat="47.08176400" lon="7.06625300"><ele></ele><time>2014-8-17T8:39:31Z</time></trkpt>
<trkpt lat="47.08209200" lon="7.06613300"><ele></ele><time>2014-8-17T8:39:34Z</time></trkpt>
<trkpt lat="47.08231700" lon="7.06590000"><ele></ele><time>2014-8-17T8:39:37Z</time></trkpt>
<trkpt lat="47.08234700" lon="7.06586400"><ele></ele><time>2014-8-17T8:39:40Z</time></trkpt>
<trkpt lat="47.08237600" lon="7.06582900"><ele></ele><time>2014-8-17T8:39:43Z</time></trkpt>
<trkpt lat="47.08240500" lon="7.06579400"><ele></ele><time>2014-8-17T8:39:46Z</time></trkpt>
<trkpt lat="47.08239700" lon="7.06577300"><ele></ele><time>2014-8-17T8:39:49Z</time></trkpt>
<trkpt lat="47.08252300" lon="7.06553400"><ele></ele><time>2014-8-17T8:39:52Z</time></trkpt>
<trkpt lat="47.08264900" lon="7.06529600"><ele></ele><time>2014-8-17T8:39:55Z</time></trkpt>
<trkpt lat="47.08271000" lon="7.06520400"><ele></ele><time>2014-8-17T8:39:58Z</time></trkpt>
<trkpt lat="47.08286300" lon="7.06490700"><ele></ele><time>2014-8-17T8:40:1Z</time></trkpt>
<trkpt lat="47.08289000" lon="7.06485600"><ele></ele><time>2014-8-17T8:40:4Z</time></trkpt>
<trkpt lat="47.08304600" lon="7.06444600"><ele></ele><time>2014-8-17T8:40:7Z</time></trkpt>
<trkpt lat="47.08311800" lon="7.06436300"><ele></ele><time>2014-8-17T8:40:10Z</time></trkpt>
<trkpt lat="47.08322500" lon="7.06418100"><ele></ele><time>2014-8-17T8:40:13Z</time></trkpt>
<trkpt lat="47.08361400" lon="7.06381200"><ele></ele><time>2014-8-17T8:40:16Z</time></trkpt>
<trkpt lat="47.08404900" lon="7.06341300"><ele></ele><time>2014-8-17T8:40:19Z</time></trkpt>
<trkpt lat="47.08446500" lon="7.06298000"><ele></ele><time>2014-8-17T8:40:22Z</time></trkpt>
<trkpt lat="47.08459900" lon="7.06281500"><ele></ele><time>2014-8-17T8:40:25Z</time></trkpt>
<trkpt lat="47.08498000" lon="7.06239600"><ele></ele><time>2014-8-17T8:40:28Z</time></trkpt>
<trkpt lat="47.08503000" lon="7.06235200"><ele></ele><time>2014-8-17T8:40:31Z</time></trkpt>
<trkpt lat="47.08562500" lon="7.06210400"><ele></ele><time>2014-8-17T8:40:34Z</time></trkpt>
<trkpt lat="47.08592600" lon="7.06200000"><ele></ele><time>2014-8-17T8:40:37Z</time></trkpt>
<trkpt lat="47.08597600" lon="7.06198000"><ele></ele><time>2014-8-17T8:40:40Z</time></trkpt>
<trkpt lat="47.08613600" lon="7.06188200"><ele></ele><time>2014-8-17T8:40:43Z</time></trkpt>
<trkpt lat="47.08649400" lon="7.06190300"><ele></ele><time>2014-8-17T8:40:46Z</time></trkpt>
<trkpt lat="47.08672700" lon="7.06200600"><ele></ele><time>2014-8-17T8:40:49Z</time></trkpt>
<trkpt lat="47.08699800" lon="7.06208600"><ele></ele><time>2014-8-17T8:40:52Z</time></trkpt>
<trkpt lat="47.08757800" lon="7.06212800"><ele></ele><time>2014-8-17T8:40:55Z</time></trkpt>
<trkpt lat="47.08822600" lon="7.06198600"><ele></ele><time>2014-8-17T8:40:58Z</time></trkpt>
<trkpt lat="47.08854300" lon="7.06187300"><ele></ele><time>2014-8-17T8:41:1Z</time></trkpt>
<trkpt lat="47.08897000" lon="7.06167900"><ele></ele><time>2014-8-17T8:41:4Z</time></trkpt>
<trkpt lat="47.08933600" lon="7.06151100"><ele></ele><time>2014-8-17T8:41:7Z</time></trkpt>
<trkpt lat="47.08965300" lon="7.06125200"><ele></ele><time>2014-8-17T8:41:10Z</time></trkpt>
<trkpt lat="47.08989000" lon="7.06102200"><ele></ele><time>2014-8-17T8:41:13Z</time></trkpt>
<trkpt lat="47.09002700" lon="7.06095600"><ele></ele><time>2014-8-17T8:41:16Z</time></trkpt>
<trkpt lat="47.09007600" lon="7.06094600"><ele></ele><time>2014-8-17T8:41:19Z</time></trkpt>
<trkpt lat="47.09031300" lon="7.06098400"><ele></ele><time>2014-8-17T8:41:22Z</time></trkpt>
<trkpt lat="47.09035500" lon="7.06100600"><ele></ele><time>2014-8-17T8:41:25Z</time></trkpt>
<trkpt lat="47.09055300" lon="7.06118400"><ele></ele><time>2014-8-17T8:41:28Z</time></trkpt>
<trkpt lat="47.09058400" lon="7.06123700"><ele></ele><time>2014-8-17T8:41:31Z</time></trkpt>
<trkpt lat="47.09064500" lon="7.06143100"><ele></ele><time>2014-8-17T8:41:34Z</time></trkpt>
<trkpt lat="47.09073600" lon="7.06204000"><ele></ele><time>2014-8-17T8:41:37Z</time></trkpt>
<trkpt lat="47.09082000" lon="7.06269200"><ele></ele><time>2014-8-17T8:41:40Z</time></trkpt>
<trkpt lat="47.09091200" lon="7.06342500"><ele></ele><time>2014-8-17T8:41:43Z</time></trkpt>
<trkpt lat="47.09103800" lon="7.06441100"><ele></ele><time>2014-8-17T8:41:46Z</time></trkpt>
<trkpt lat="47.09106800" lon="7.06463000"><ele></ele><time>2014-8-17T8:41:49Z</time></trkpt>
<trkpt lat="47.09112200" lon="7.06477300"><ele></ele><time>2014-8-17T8:41:52Z</time></trkpt>
<trkpt lat="47.09120600" lon="7.06483400"><ele></ele><time>2014-8-17T8:41:55Z</time></trkpt>
<trkpt lat="47.09129300" lon="7.06483100"><ele></ele><time>2014-8-17T8:41:58Z</time></trkpt>
<trkpt lat="47.09147600" lon="7.06474900"><ele></ele><time>2014-8-17T8:42:1Z</time></trkpt>
<trkpt lat="47.09156800" lon="7.06469800"><ele></ele><time>2014-8-17T8:42:4Z</time></trkpt>
<trkpt lat="47.09161400" lon="7.06467400"><ele></ele><time>2014-8-17T8:42:7Z</time></trkpt>
<trkpt lat="47.09174300" lon="7.06460100"><ele></ele><time>2014-8-17T8:42:10Z</time></trkpt>
<trkpt lat="47.09199100" lon="7.06446800"><ele></ele><time>2014-8-17T8:42:13Z</time></trkpt>
<trkpt lat="47.09222400" lon="7.06433800"><ele></ele><time>2014-8-17T8:42:16Z</time></trkpt>
<trkpt lat="47.09258700" lon="7.06413500"><ele></ele><time>2014-8-17T8:42:19Z</time></trkpt>
<trkpt lat="47.09308600" lon="7.06386100"><ele></ele><time>2014-8-17T8:42:22Z</time></trkpt>
<trkpt lat="47.09349100" lon="7.06363500"><ele></ele><time>2014-8-17T8:42:25Z</time></trkpt>
<trkpt lat="47.09397500" lon="7.06336500"><ele></ele><time>2014-8-17T8:42:28Z</time></trkpt>
<trkpt lat="47.09445600" lon="7.06310700"><ele></ele><time>2014-8-17T8:42:31Z</time></trkpt>
<trkpt lat="47.09509300" lon="7.06276300"><ele></ele><time>2014-8-17T8:42:34Z</time></trkpt>
<trkpt lat="47.09569500" lon="7.06242800"><ele></ele><time>2014-8-17T8:42:37Z</time></trkpt>
<trkpt lat="47.09626000" lon="7.06213000"><ele></ele><time>2014-8-17T8:42:40Z</time></trkpt>
<trkpt lat="47.09676700" lon="7.06190800"><ele></ele><time>2014-8-17T8:42:43Z</time></trkpt>
<trkpt lat="47.09727500" lon="7.06175300"><ele></ele><time>2014-8-17T8:42:46Z</time></trkpt>
<trkpt lat="47.09778200" lon="7.06168400"><ele></ele><time>2014-8-17T8:42:49Z</time></trkpt>
<trkpt lat="47.09834300" lon="7.06171700"><ele></ele><time>2014-8-17T8:42:52Z</time></trkpt>
<trkpt lat="47.09880100" lon="7.06182100"><ele></ele><time>2014-8-17T8:42:55Z</time></trkpt>
<trkpt lat="47.09943800" lon="7.06208000"><ele></ele><time>2014-8-17T8:42:58Z</time></trkpt>
<trkpt lat="47.10007100" lon="7.06245000"><ele></ele><time>2014-8-17T8:43:1Z</time></trkpt>
<trkpt lat="47.10070000" lon="7.06285000"><ele></ele><time>2014-8-17T8:43:4Z</time></trkpt>
<trkpt lat="47.10128000" lon="7.06323700"><ele></ele><time>2014-8-17T8:43:7Z</time></trkpt>
<trkpt lat="47.10187500" lon="7.06364900"><ele></ele><time>2014-8-17T8:43:10Z</time></trkpt>
<trkpt lat="47.10217700" lon="7.06391100"><ele></ele><time>2014-8-17T8:43:13Z</time></trkpt>
<trkpt lat="47.10255100" lon="7.06428700"><ele></ele><time>2014-8-17T8:43:16Z</time></trkpt>
<trkpt lat="47.10305000" lon="7.06482500"><ele></ele><time>2014-8-17T8:43:19Z</time></trkpt>
<trkpt lat="47.10359200" lon="7.06541000"><ele></ele><time>2014-8-17T8:43:22Z</time></trkpt>
<trkpt lat="47.10400000" lon="7.06584700"><ele></ele><time>2014-8-17T8:43:25Z</time></trkpt>
<trkpt lat="47.10434000" lon="7.06620100"><ele></ele><time>2014-8-17T8:43:28Z</time></trkpt>
<trkpt lat="47.10471300" lon="7.06660900"><ele></ele><time>2014-8-17T8:43:31Z</time></trkpt>
<trkpt lat="47.10505700" lon="7.06698000"><ele></ele><time>2014-8-17T8:43:34Z</time></trkpt>
<trkpt lat="47.10534300" lon="7.06728200"><ele></ele><time>2014-8-17T8:43:37Z</time></trkpt>
<trkpt lat="47.10573200" lon="7.06770600"><ele></ele><time>2014-8-17T8:43:40Z</time></trkpt>
<trkpt lat="47.10602200" lon="7.06802800"><ele></ele><time>2014-8-17T8:43:43Z</time></trkpt>
<trkpt lat="47.10632700" lon="7.06835400"><ele></ele><time>2014-8-17T8:43:46Z</time></trkpt>
<trkpt lat="47.10670500" lon="7.06872900"><ele></ele><time>2014-8-17T8:43:49Z</time></trkpt>
<trkpt lat="47.10710100" lon="7.06911200"><ele></ele><time>2014-8-17T8:43:52Z</time></trkpt>
<trkpt lat="47.10749100" lon="7.06950200"><ele></ele><time>2014-8-17T8:43:55Z</time></trkpt>
<trkpt lat="47.10780000" lon="7.06979400"><ele></ele><time>2014-8-17T8:43:58Z</time></trkpt>
<trkpt lat="47.10816600" lon="7.07023800"><ele></ele><time>2014-8-17T8:44:1Z</time></trkpt>
<trkpt lat="47.10852100" lon="7.07079600"><ele></ele><time>2014-8-17T8:44:4Z</time></trkpt>
<trkpt lat="47.10877200" lon="7.07134000"><ele></ele><time>2014-8-17T8:44:7Z</time></trkpt>
<trkpt lat="47.10898200" lon="7.07193500"><ele></ele><time>2014-8-17T8:44:10Z</time></trkpt>
<trkpt lat="47.10919600" lon="7.07259100"><ele></ele><time>2014-8-17T8:44:13Z</time></trkpt>
<trkpt lat="47.10920700" lon="7.07264400"><ele></ele><time>2014-8-17T8:44:16Z</time></trkpt>
<trkpt lat="47.10950100" lon="7.07345100"><ele></ele><time>2014-8-17T8:44:19Z</time></trkpt>
<trkpt lat="47.10969900" lon="7.07385000"><ele></ele><time>2014-8-17T8:44:22Z</time></trkpt>
<trkpt lat="47.11000100" lon="7.07428100"><ele></ele><time>2014-8-17T8:44:25Z</time></trkpt>
<trkpt lat="47.11037100" lon="7.07466900"><ele></ele><time>2014-8-17T8:44:28Z</time></trkpt>
<trkpt lat="47.11071800" lon="7.07511200"><ele></ele><time>2014-8-17T8:44:31Z</time></trkpt>
<trkpt lat="47.11076400" lon="7.07522200"><ele></ele><time>2014-8-17T8:44:34Z</time></trkpt>
<trkpt lat="47.11084400" lon="7.07567200"><ele></ele><time>2014-8-17T8:44:37Z</time></trkpt>
<trkpt lat="47.11086700" lon="7.07619500"><ele></ele><time>2014-8-17T8:44:40Z</time></trkpt>
<trkpt lat="47.11094300" lon="7.07669000"><ele></ele><time>2014-8-17T8:44:43Z</time></trkpt>
<trkpt lat="47.11109200" lon="7.07711600"><ele></ele><time>2014-8-17T8:44:46Z</time></trkpt>
<trkpt lat="47.11127900" lon="7.07758600"><ele></ele><time>2014-8-17T8:44:49Z</time></trkpt>
<trkpt lat="47.11144600" lon="7.07798800"><ele></ele><time>2014-8-17T8:44:52Z</time></trkpt>
<trkpt lat="47.11158400" lon="7.07834900"><ele></ele><time>2014-8-17T8:44:55Z</time></trkpt>
<trkpt lat="47.11174000" lon="7.07872900"><ele></ele><time>2014-8-17T8:44:58Z</time></trkpt>
<trkpt lat="47.11187000" lon="7.07906800"><ele></ele><time>2014-8-17T8:45:1Z</time></trkpt>
<trkpt lat="47.11204500" lon="7.07952500"><ele></ele><time>2014-8-17T8:45:4Z</time></trkpt>
<trkpt lat="47.11223600" lon="7.07993200"><ele></ele><time>2014-8-17T8:45:7Z</time></trkpt>
<trkpt lat="47.11245000" lon="7.08026000"><ele></ele><time>2014-8-17T8:45:10Z</time></trkpt>
<trkpt lat="47.11274700" lon="7.08067800"><ele></ele><time>2014-8-17T8:45:13Z</time></trkpt>
<trkpt lat="47.11287700" lon="7.08084200"><ele></ele><time>2014-8-17T8:45:16Z</time></trkpt>
<trkpt lat="47.11298400" lon="7.08088400"><ele></ele><time>2014-8-17T8:45:19Z</time></trkpt>
<trkpt lat="47.11327700" lon="7.08082900"><ele></ele><time>2014-8-17T8:45:22Z</time></trkpt>
<trkpt lat="47.11357100" lon="7.08076300"><ele></ele><time>2014-8-17T8:45:25Z</time></trkpt>
<trkpt lat="47.11367800" lon="7.08066500"><ele></ele><time>2014-8-17T8:45:28Z</time></trkpt>
<trkpt lat="47.11368500" lon="7.08064500"><ele></ele><time>2014-8-17T8:45:31Z</time></trkpt>
<trkpt lat="47.11369100" lon="7.08062500"><ele></ele><time>2014-8-17T8:45:34Z</time></trkpt>
<trkpt lat="47.11369800" lon="7.08060500"><ele></ele><time>2014-8-17T8:45:37Z</time></trkpt>
<trkpt lat="47.11370500" lon="7.08058500"><ele></ele><time>2014-8-17T8:45:40Z</time></trkpt>
<trkpt lat="47.11370800" lon="7.08062300"><ele></ele><time>2014-8-17T8:45:43Z</time></trkpt>
<trkpt lat="47.11371600" lon="7.08066000"><ele></ele><time>2014-8-17T8:45:46Z</time></trkpt>
<trkpt lat="47.11375800" lon="7.08076000"><ele></ele><time>2014-8-17T8:45:49Z</time></trkpt>
<trkpt lat="47.11386900" lon="7.08081600"><ele></ele><time>2014-8-17T8:45:52Z</time></trkpt>
<trkpt lat="47.11397600" lon="7.08076300"><ele></ele><time>2014-8-17T8:45:55Z</time></trkpt>
<trkpt lat="47.11405200" lon="7.08069200"><ele></ele><time>2014-8-17T8:45:58Z</time></trkpt>
<trkpt lat="47.11411700" lon="7.08063200"><ele></ele><time>2014-8-17T8:46:1Z</time></trkpt>
<trkpt lat="47.11419700" lon="7.08056400"><ele></ele><time>2014-8-17T8:46:4Z</time></trkpt>
<trkpt lat="47.11429200" lon="7.08047600"><ele></ele><time>2014-8-17T8:46:7Z</time></trkpt>
<trkpt lat="47.11445600" lon="7.08039700"><ele></ele><time>2014-8-17T8:46:10Z</time></trkpt>
<trkpt lat="47.11460500" lon="7.08034700"><ele></ele><time>2014-8-17T8:46:13Z</time></trkpt>
<trkpt lat="47.11479900" lon="7.08028100"><ele></ele><time>2014-8-17T8:46:16Z</time></trkpt>
<trkpt lat="47.11501700" lon="7.08017500"><ele></ele><time>2014-8-17T8:46:19Z</time></trkpt>
<trkpt lat="47.11526100" lon="7.08005100"><ele></ele><time>2014-8-17T8:46:22Z</time></trkpt>
<trkpt lat="47.11546700" lon="7.07993600"><ele></ele><time>2014-8-17T8:46:25Z</time></trkpt>
<trkpt lat="47.11562700" lon="7.07983600"><ele></ele><time>2014-8-17T8:46:28Z</time></trkpt>
<trkpt lat="47.11582600" lon="7.07977600"><ele></ele><time>2014-8-17T8:46:31Z</time></trkpt>
<trkpt lat="47.11607400" lon="7.07971000"><ele></ele><time>2014-8-17T8:46:34Z</time></trkpt>
<trkpt lat="47.11629500" lon="7.07967900"><ele></ele><time>2014-8-17T8:46:37Z</time></trkpt>
<trkpt lat="47.11652000" lon="7.07967300"><ele></ele><time>2014-8-17T8:46:40Z</time></trkpt>
<trkpt lat="47.11665000" lon="7.07967400"><ele></ele><time>2014-8-17T8:46:43Z</time></trkpt>
<trkpt lat="47.11691700" lon="7.07971700"><ele></ele><time>2014-8-17T8:46:46Z</time></trkpt>
<trkpt lat="47.11716100" lon="7.07979500"><ele></ele><time>2014-8-17T8:46:49Z</time></trkpt>
<trkpt lat="47.11738200" lon="7.07991600"><ele></ele><time>2014-8-17T8:46:52Z</time></trkpt>
<trkpt lat="47.11753100" lon="7.08011700"><ele></ele><time>2014-8-17T8:46:55Z</time></trkpt>
<trkpt lat="47.11763400" lon="7.08037500"><ele></ele><time>2014-8-17T8:46:58Z</time></trkpt>
<trkpt lat="47.11774100" lon="7.08068400"><ele></ele><time>2014-8-17T8:47:1Z</time></trkpt>
<trkpt lat="47.11786700" lon="7.08095600"><ele></ele><time>2014-8-17T8:47:4Z</time></trkpt>
<trkpt lat="47.11807300" lon="7.08118000"><ele></ele><time>2014-8-17T8:47:7Z</time></trkpt>
<trkpt lat="47.11829800" lon="7.08140400"><ele></ele><time>2014-8-17T8:47:10Z</time></trkpt>
<trkpt lat="47.11851500" lon="7.08168100"><ele></ele><time>2014-8-17T8:47:13Z</time></trkpt>
<trkpt lat="47.11866800" lon="7.08190300"><ele></ele><time>2014-8-17T8:47:16Z</time></trkpt>
<trkpt lat="47.11883900" lon="7.08219100"><ele></ele><time>2014-8-17T8:47:19Z</time></trkpt>
<trkpt lat="47.11901900" lon="7.08253100"><ele></ele><time>2014-8-17T8:47:22Z</time></trkpt>
<trkpt lat="47.11920200" lon="7.08289400"><ele></ele><time>2014-8-17T8:47:25Z</time></trkpt>
<trkpt lat="47.11941500" lon="7.08329700"><ele></ele><time>2014-8-17T8:47:28Z</time></trkpt>
<trkpt lat="47.11974300" lon="7.08374700"><ele></ele><time>2014-8-17T8:47:31Z</time></trkpt>
<trkpt lat="47.12001400" lon="7.08410400"><ele></ele><time>2014-8-17T8:47:34Z</time></trkpt>
<trkpt lat="47.12020500" lon="7.08440700"><ele></ele><time>2014-8-17T8:47:37Z</time></trkpt>
<trkpt lat="47.12035000" lon="7.08441900"><ele></ele><time>2014-8-17T8:47:40Z</time></trkpt>
<trkpt lat="47.12041100" lon="7.08423400"><ele></ele><time>2014-8-17T8:47:43Z</time></trkpt>
<trkpt lat="47.12035000" lon="7.08396600"><ele></ele><time>2014-8-17T8:47:46Z</time></trkpt>
<trkpt lat="47.12022000" lon="7.08356000"><ele></ele><time>2014-8-17T8:47:49Z</time></trkpt>
<trkpt lat="47.12016300" lon="7.08307000"><ele></ele><time>2014-8-17T8:47:52Z</time></trkpt>
<trkpt lat="47.12006000" lon="7.08233400"><ele></ele><time>2014-8-17T8:47:55Z</time></trkpt>
<trkpt lat="47.12003300" lon="7.08148600"><ele></ele><time>2014-8-17T8:47:58Z</time></trkpt>
<trkpt lat="47.11996500" lon="7.08077300"><ele></ele><time>2014-8-17T8:48:1Z</time></trkpt>
<trkpt lat="47.11992300" lon="7.08035700"><ele></ele><time>2014-8-17T8:48:4Z</time></trkpt>
<trkpt lat="47.11993000" lon="7.08000700"><ele></ele><time>2014-8-17T8:48:7Z</time></trkpt>
<trkpt lat="47.11993800" lon="7.07962100"><ele></ele><time>2014-8-17T8:48:10Z</time></trkpt>
<trkpt lat="47.11996100" lon="7.07901700"><ele></ele><time>2014-8-17T8:48:13Z</time></trkpt>
<trkpt lat="47.11993800" lon="7.07831300"><ele></ele><time>2014-8-17T8:48:16Z</time></trkpt>
<trkpt lat="47.11991500" lon="7.07760900"><ele></ele><time>2014-8-17T8:48:19Z</time></trkpt>
<trkpt lat="47.11989600" lon="7.07695100"><ele></ele><time>2014-8-17T8:48:22Z</time></trkpt>
<trkpt lat="47.11981600" lon="7.07653300"><ele></ele><time>2014-8-17T8:48:25Z</time></trkpt>
<trkpt lat="47.11967800" lon="7.07594600"><ele></ele><time>2014-8-17T8:48:28Z</time></trkpt>
<trkpt lat="47.11956800" lon="7.07530700"><ele></ele><time>2014-8-17T8:48:31Z</time></trkpt>
<trkpt lat="47.11959500" lon="7.07484000"><ele></ele><time>2014-8-17T8:48:34Z</time></trkpt>
<trkpt lat="47.11961400" lon="7.07448700"><ele></ele><time>2014-8-17T8:48:37Z</time></trkpt>
<trkpt lat="47.11963300" lon="7.07419700"><ele></ele><time>2014-8-17T8:48:40Z</time></trkpt>
<trkpt lat="47.11963700" lon="7.07365200"><ele></ele><time>2014-8-17T8:48:43Z</time></trkpt>
<trkpt lat="47.11964400" lon="7.07309500"><ele></ele><time>2014-8-17T8:48:46Z</time></trkpt>
<trkpt lat="47.11967800" lon="7.07257400"><ele></ele><time>2014-8-17T8:48:49Z</time></trkpt>
<trkpt lat="47.11971300" lon="7.07192400"><ele></ele><time>2014-8-17T8:48:52Z</time></trkpt>
<trkpt lat="47.11977400" lon="7.07139400"><ele></ele><time>2014-8-17T8:48:55Z</time></trkpt>
<trkpt lat="47.11991100" lon="7.07083300"><ele></ele><time>2014-8-17T8:48:58Z</time></trkpt>
<trkpt lat="47.12000700" lon="7.07046100"><ele></ele><time>2014-8-17T8:49:1Z</time></trkpt>
<trkpt lat="47.12010200" lon="7.07008000"><ele></ele><time>2014-8-17T8:49:4Z</time></trkpt>
<trkpt lat="47.12014400" lon="7.06968800"><ele></ele><time>2014-8-17T8:49:7Z</time></trkpt>
<trkpt lat="47.12018600" lon="7.06929600"><ele></ele><time>2014-8-17T8:49:10Z</time></trkpt>
<trkpt lat="47.12013800" lon="7.06878300"><ele></ele><time>2014-8-17T8:49:13Z</time></trkpt>
<trkpt lat="47.12009000" lon="7.06826900"><ele></ele><time>2014-8-17T8:49:16Z</time></trkpt>
<trkpt lat="47.12005200" lon="7.06770000"><ele></ele><time>2014-8-17T8:49:19Z</time></trkpt>
<trkpt lat="47.12002900" lon="7.06723300"><ele></ele><time>2014-8-17T8:49:22Z</time></trkpt>
<trkpt lat="47.12005600" lon="7.06672300"><ele></ele><time>2014-8-17T8:49:25Z</time></trkpt>
<trkpt lat="47.11991900" lon="7.06615300"><ele></ele><time>2014-8-17T8:49:28Z</time></trkpt>
<trkpt lat="47.11974000" lon="7.06564900"><ele></ele><time>2014-8-17T8:49:31Z</time></trkpt>
<trkpt lat="47.11965200" lon="7.06508600"><ele></ele><time>2014-8-17T8:49:34Z</time></trkpt>
<trkpt lat="47.11954900" lon="7.06448200"><ele></ele><time>2014-8-17T8:49:37Z</time></trkpt>
<trkpt lat="47.11938100" lon="7.06373300"><ele></ele><time>2014-8-17T8:49:40Z</time></trkpt>
<trkpt lat="47.11929300" lon="7.06318600"><ele></ele><time>2014-8-17T8:49:43Z</time></trkpt>
<trkpt lat="47.11915200" lon="7.06268600"><ele></ele><time>2014-8-17T8:49:46Z</time></trkpt>
<trkpt lat="47.11904100" lon="7.06201500"><ele></ele><time>2014-8-17T8:49:49Z</time></trkpt>
<trkpt lat="47.11893100" lon="7.06134300"><ele></ele><time>2014-8-17T8:49:52Z</time></trkpt>
<trkpt lat="47.11870600" lon="7.06060600"><ele></ele><time>2014-8-17T8:49:55Z</time></trkpt>
<trkpt lat="47.11853800" lon="7.06001800"><ele></ele><time>2014-8-17T8:49:58Z</time></trkpt>
<trkpt lat="47.11825200" lon="7.05945400"><ele></ele><time>2014-8-17T8:50:1Z</time></trkpt>
<trkpt lat="47.11783000" lon="7.05861100"><ele></ele><time>2014-8-17T8:50:4Z</time></trkpt>
<trkpt lat="47.11740900" lon="7.05776900"><ele></ele><time>2014-8-17T8:50:7Z</time></trkpt>
<trkpt lat="47.11708100" lon="7.05680300"><ele></ele><time>2014-8-17T8:50:10Z</time></trkpt>
<trkpt lat="47.11681000" lon="7.05597400"><ele></ele><time>2014-8-17T8:50:13Z</time></trkpt>
<trkpt lat="47.11661300" lon="7.05518700"><ele></ele><time>2014-8-17T8:50:16Z</time></trkpt>
<trkpt lat="47.11641700" lon="7.05439900"><ele></ele><time>2014-8-17T8:50:19Z</time></trkpt>
<trkpt lat="47.11618400" lon="7.05344100"><ele></ele><time>2014-8-17T8:50:22Z</time></trkpt>
<trkpt lat="47.11581800" lon="7.05238500"><ele></ele><time>2014-8-17T8:50:25Z</time></trkpt>
<trkpt lat="47.11545200" lon="7.05133000"><ele></ele><time>2014-8-17T8:50:28Z</time></trkpt>
<trkpt lat="47.11501300" lon="7.05050700"><ele></ele><time>2014-8-17T8:50:31Z</time></trkpt>
<trkpt lat="47.11477300" lon="7.05004800"><ele></ele><time>2014-8-17T8:50:34Z</time></trkpt>
<trkpt lat="47.11425800" lon="7.04904600"><ele></ele><time>2014-8-17T8:50:37Z</time></trkpt>
<trkpt lat="47.11411100" lon="7.04861200"><ele></ele><time>2014-8-17T8:50:40Z</time></trkpt>
<trkpt lat="47.11396400" lon="7.04817800"><ele></ele><time>2014-8-17T8:50:43Z</time></trkpt>
<trkpt lat="47.11390300" lon="7.04782500"><ele></ele><time>2014-8-17T8:50:46Z</time></trkpt>
<trkpt lat="47.11387600" lon="7.04752900"><ele></ele><time>2014-8-17T8:50:49Z</time></trkpt>
<trkpt lat="47.11387100" lon="7.04722700"><ele></ele><time>2014-8-17T8:50:52Z</time></trkpt>
<trkpt lat="47.11386600" lon="7.04692600"><ele></ele><time>2014-8-17T8:50:55Z</time></trkpt>
<trkpt lat="47.11386100" lon="7.04662400"><ele></ele><time>2014-8-17T8:50:58Z</time></trkpt>
<trkpt lat="47.11378900" lon="7.04622400"><ele></ele><time>2014-8-17T8:51:1Z</time></trkpt>
<trkpt lat="47.11372000" lon="7.04564300"><ele></ele><time>2014-8-17T8:51:4Z</time></trkpt>
<trkpt lat="47.11359800" lon="7.04519700"><ele></ele><time>2014-8-17T8:51:7Z</time></trkpt>
<trkpt lat="47.11351800" lon="7.04468700"><ele></ele><time>2014-8-17T8:51:10Z</time></trkpt>
<trkpt lat="47.11344900" lon="7.04420200"><ele></ele><time>2014-8-17T8:51:13Z</time></trkpt>
<trkpt lat="47.11336100" lon="7.04376200"><ele></ele><time>2014-8-17T8:51:16Z</time></trkpt>
<trkpt lat="47.11323900" lon="7.04333400"><ele></ele><time>2014-8-17T8:51:19Z</time></trkpt>
<trkpt lat="47.11308300" lon="7.04293200"><ele></ele><time>2014-8-17T8:51:22Z</time></trkpt>
<trkpt lat="47.11304100" lon="7.04258500"><ele></ele><time>2014-8-17T8:51:25Z</time></trkpt>
<trkpt lat="47.11304900" lon="7.04203400"><ele></ele><time>2014-8-17T8:51:28Z</time></trkpt>
<trkpt lat="47.11298400" lon="7.04147200"><ele></ele><time>2014-8-17T8:51:31Z</time></trkpt>
<trkpt lat="47.11285600" lon="7.04095200"><ele></ele><time>2014-8-17T8:51:34Z</time></trkpt>
<trkpt lat="47.11272800" lon="7.04043200"><ele></ele><time>2014-8-17T8:51:37Z</time></trkpt>
<trkpt lat="47.11264000" lon="7.03990200"><ele></ele><time>2014-8-17T8:51:40Z</time></trkpt>
<trkpt lat="47.11248800" lon="7.03936200"><ele></ele><time>2014-8-17T8:51:43Z</time></trkpt>
<trkpt lat="47.11224000" lon="7.03868600"><ele></ele><time>2014-8-17T8:51:46Z</time></trkpt>
<trkpt lat="47.11208700" lon="7.03822200"><ele></ele><time>2014-8-17T8:51:49Z</time></trkpt>
<trkpt lat="47.11190000" lon="7.03771400"><ele></ele><time>2014-8-17T8:51:52Z</time></trkpt>
<trkpt lat="47.11174800" lon="7.03715500"><ele></ele><time>2014-8-17T8:51:55Z</time></trkpt>
<trkpt lat="47.11163300" lon="7.03654300"><ele></ele><time>2014-8-17T8:51:58Z</time></trkpt>
<trkpt lat="47.11155300" lon="7.03610600"><ele></ele><time>2014-8-17T8:52:1Z</time></trkpt>
<trkpt lat="47.11150700" lon="7.03556100"><ele></ele><time>2014-8-17T8:52:4Z</time></trkpt>
<trkpt lat="47.11150400" lon="7.03495800"><ele></ele><time>2014-8-17T8:52:7Z</time></trkpt>
<trkpt lat="47.11138000" lon="7.03422500"><ele></ele><time>2014-8-17T8:52:10Z</time></trkpt>
<trkpt lat="47.11125600" lon="7.03349100"><ele></ele><time>2014-8-17T8:52:13Z</time></trkpt>
<trkpt lat="47.11111800" lon="7.03287000"><ele></ele><time>2014-8-17T8:52:16Z</time></trkpt>
<trkpt lat="47.11101200" lon="7.03232800"><ele></ele><time>2014-8-17T8:52:19Z</time></trkpt>
<trkpt lat="47.11084400" lon="7.03189800"><ele></ele><time>2014-8-17T8:52:22Z</time></trkpt>
<trkpt lat="47.11080200" lon="7.03159300"><ele></ele><time>2014-8-17T8:52:25Z</time></trkpt>
<trkpt lat="47.11079500" lon="7.03153500"><ele></ele><time>2014-8-17T8:52:28Z</time></trkpt>
<trkpt lat="47.11078800" lon="7.03147700"><ele></ele><time>2014-8-17T8:52:31Z</time></trkpt>
<trkpt lat="47.11078200" lon="7.03141900"><ele></ele><time>2014-8-17T8:52:34Z</time></trkpt>
<trkpt lat="47.11077500" lon="7.03136100"><ele></ele><time>2014-8-17T8:52:37Z</time></trkpt>
<trkpt lat="47.11078100" lon="7.03136100"><ele></ele><time>2014-8-17T8:52:40Z</time></trkpt>
<trkpt lat="47.11078600" lon="7.03136200"><ele></ele><time>2014-8-17T8:52:43Z</time></trkpt>
<trkpt lat="47.11083600" lon="7.03141900"><ele></ele><time>2014-8-17T8:52:46Z</time></trkpt>
<trkpt lat="47.11088600" lon="7.03148600"><ele></ele><time>2014-8-17T8:52:49Z</time></trkpt>
<trkpt lat="47.11102300" lon="7.03177200"><ele></ele><time>2014-8-17T8:52:52Z</time></trkpt>
<trkpt lat="47.11109200" lon="7.03197100"><ele></ele><time>2014-8-17T8:52:55Z</time></trkpt>
<trkpt lat="47.11117600" lon="7.03214200"><ele></ele><time>2014-8-17T8:52:58Z</time></trkpt>
<trkpt lat="47.11129000" lon="7.03238200"><ele></ele><time>2014-8-17T8:53:1Z</time></trkpt>
<trkpt lat="47.11140400" lon="7.03262200"><ele></ele><time>2014-8-17T8:53:4Z</time></trkpt>
<trkpt lat="47.11158800" lon="7.03290300"><ele></ele><time>2014-8-17T8:53:7Z</time></trkpt>
<trkpt lat="47.11186200" lon="7.03334900"><ele></ele><time>2014-8-17T8:53:10Z</time></trkpt>
<trkpt lat="47.11212000" lon="7.03381800"><ele></ele><time>2014-8-17T8:53:13Z</time></trkpt>
<trkpt lat="47.11237700" lon="7.03428600"><ele></ele><time>2014-8-17T8:53:16Z</time></trkpt>
<trkpt lat="47.11264400" lon="7.03469700"><ele></ele><time>2014-8-17T8:53:19Z</time></trkpt>
<trkpt lat="47.11295700" lon="7.03508800"><ele></ele><time>2014-8-17T8:53:22Z</time></trkpt>
<trkpt lat="47.11319400" lon="7.03541800"><ele></ele><time>2014-8-17T8:53:25Z</time></trkpt>
<trkpt lat="47.11346100" lon="7.03577900"><ele></ele><time>2014-8-17T8:53:28Z</time></trkpt>
<trkpt lat="47.11372800" lon="7.03614100"><ele></ele><time>2014-8-17T8:53:31Z</time></trkpt>
<trkpt lat="47.11405900" lon="7.03646400"><ele></ele><time>2014-8-17T8:53:34Z</time></trkpt>
<trkpt lat="47.11432800" lon="7.03680700"><ele></ele><time>2014-8-17T8:53:37Z</time></trkpt>
<trkpt lat="47.11459700" lon="7.03715000"><ele></ele><time>2014-8-17T8:53:40Z</time></trkpt>
<trkpt lat="47.11493300" lon="7.03747600"><ele></ele><time>2014-8-17T8:53:43Z</time></trkpt>
<trkpt lat="47.11529000" lon="7.03781400"><ele></ele><time>2014-8-17T8:53:46Z</time></trkpt>
<trkpt lat="47.11564600" lon="7.03815200"><ele></ele><time>2014-8-17T8:53:49Z</time></trkpt>
<trkpt lat="47.11606200" lon="7.03851700"><ele></ele><time>2014-8-17T8:53:52Z</time></trkpt>
<trkpt lat="47.11637900" lon="7.03873900"><ele></ele><time>2014-8-17T8:53:55Z</time></trkpt>
<trkpt lat="47.11672200" lon="7.03898800"><ele></ele><time>2014-8-17T8:53:58Z</time></trkpt>
<trkpt lat="47.11710700" lon="7.03927600"><ele></ele><time>2014-8-17T8:54:1Z</time></trkpt>
<trkpt lat="47.11739700" lon="7.03954100"><ele></ele><time>2014-8-17T8:54:4Z</time></trkpt>
<trkpt lat="47.11767600" lon="7.03987300"><ele></ele><time>2014-8-17T8:54:7Z</time></trkpt>
<trkpt lat="47.11804600" lon="7.04020900"><ele></ele><time>2014-8-17T8:54:10Z</time></trkpt>
<trkpt lat="47.11838500" lon="7.04053400"><ele></ele><time>2014-8-17T8:54:13Z</time></trkpt>
<trkpt lat="47.11867100" lon="7.04092700"><ele></ele><time>2014-8-17T8:54:16Z</time></trkpt>
<trkpt lat="47.11899000" lon="7.04129200"><ele></ele><time>2014-8-17T8:54:19Z</time></trkpt>
<trkpt lat="47.11930800" lon="7.04165700"><ele></ele><time>2014-8-17T8:54:22Z</time></trkpt>
<trkpt lat="47.11961700" lon="7.04206900"><ele></ele><time>2014-8-17T8:54:25Z</time></trkpt>
<trkpt lat="47.11984600" lon="7.04236000"><ele></ele><time>2014-8-17T8:54:28Z</time></trkpt>
<trkpt lat="47.12006000" lon="7.04259900"><ele></ele><time>2014-8-17T8:54:31Z</time></trkpt>
<trkpt lat="47.12032700" lon="7.04290800"><ele></ele><time>2014-8-17T8:54:34Z</time></trkpt>
<trkpt lat="47.12052500" lon="7.04318600"><ele></ele><time>2014-8-17T8:54:37Z</time></trkpt>
<trkpt lat="47.12077300" lon="7.04350500"><ele></ele><time>2014-8-17T8:54:40Z</time></trkpt>
<trkpt lat="47.12095300" lon="7.04373900"><ele></ele><time>2014-8-17T8:54:43Z</time></trkpt>
<trkpt lat="47.12113200" lon="7.04390700"><ele></ele><time>2014-8-17T8:54:46Z</time></trkpt>
<trkpt lat="47.12130000" lon="7.04410800"><ele></ele><time>2014-8-17T8:54:49Z</time></trkpt>
<trkpt lat="47.12151000" lon="7.04436000"><ele></ele><time>2014-8-17T8:54:52Z</time></trkpt>
<trkpt lat="47.12168900" lon="7.04458000"><ele></ele><time>2014-8-17T8:54:55Z</time></trkpt>
<trkpt lat="47.12183800" lon="7.04476600"><ele></ele><time>2014-8-17T8:54:58Z</time></trkpt>
<trkpt lat="47.12205100" lon="7.04502700"><ele></ele><time>2014-8-17T8:55:1Z</time></trkpt>
<trkpt lat="47.12224200" lon="7.04523600"><ele></ele><time>2014-8-17T8:55:4Z</time></trkpt>
<trkpt lat="47.12236800" lon="7.04516000"><ele></ele><time>2014-8-17T8:55:7Z</time></trkpt>
<trkpt lat="47.12237900" lon="7.04496600"><ele></ele><time>2014-8-17T8:55:10Z</time></trkpt>
<trkpt lat="47.12223800" lon="7.04467300"><ele></ele><time>2014-8-17T8:55:13Z</time></trkpt>
<trkpt lat="47.12212000" lon="7.04432600"><ele></ele><time>2014-8-17T8:55:16Z</time></trkpt>
<trkpt lat="47.12198300" lon="7.04382100"><ele></ele><time>2014-8-17T8:55:19Z</time></trkpt>
<trkpt lat="47.12183000" lon="7.04346800"><ele></ele><time>2014-8-17T8:55:22Z</time></trkpt>
<trkpt lat="47.12172700" lon="7.04305100"><ele></ele><time>2014-8-17T8:55:25Z</time></trkpt>
<trkpt lat="47.12158600" lon="7.04255600"><ele></ele><time>2014-8-17T8:55:28Z</time></trkpt>
<trkpt lat="47.12147900" lon="7.04216500"><ele></ele><time>2014-8-17T8:55:31Z</time></trkpt>
<trkpt lat="47.12138400" lon="7.04175800"><ele></ele><time>2014-8-17T8:55:34Z</time></trkpt>
<trkpt lat="47.12127300" lon="7.04138500"><ele></ele><time>2014-8-17T8:55:37Z</time></trkpt>
<trkpt lat="47.12114300" lon="7.04090200"><ele></ele><time>2014-8-17T8:55:40Z</time></trkpt>
<trkpt lat="47.12105600" lon="7.04041300"><ele></ele><time>2014-8-17T8:55:43Z</time></trkpt>
<trkpt lat="47.12106700" lon="7.04003500"><ele></ele><time>2014-8-17T8:55:46Z</time></trkpt>
<trkpt lat="47.12096000" lon="7.03975100"><ele></ele><time>2014-8-17T8:55:49Z</time></trkpt>
<trkpt lat="47.12081900" lon="7.03939200"><ele></ele><time>2014-8-17T8:55:52Z</time></trkpt>
<trkpt lat="47.12076200" lon="7.03906600"><ele></ele><time>2014-8-17T8:55:55Z</time></trkpt>
<trkpt lat="47.12062800" lon="7.03866200"><ele></ele><time>2014-8-17T8:55:58Z</time></trkpt>
<trkpt lat="47.12044100" lon="7.03823000"><ele></ele><time>2014-8-17T8:56:1Z</time></trkpt>
<trkpt lat="47.12029300" lon="7.03792900"><ele></ele><time>2014-8-17T8:56:4Z</time></trkpt>
<trkpt lat="47.12004100" lon="7.03746600"><ele></ele><time>2014-8-17T8:56:7Z</time></trkpt>
<trkpt lat="47.11988400" lon="7.03709800"><ele></ele><time>2014-8-17T8:56:10Z</time></trkpt>
<trkpt lat="47.11975100" lon="7.03675100"><ele></ele><time>2014-8-17T8:56:13Z</time></trkpt>
<trkpt lat="47.11961400" lon="7.03632400"><ele></ele><time>2014-8-17T8:56:16Z</time></trkpt>
<trkpt lat="47.11942700" lon="7.03596500"><ele></ele><time>2014-8-17T8:56:19Z</time></trkpt>
<trkpt lat="47.11919800" lon="7.03555400"><ele></ele><time>2014-8-17T8:56:22Z</time></trkpt>
<trkpt lat="47.11898400" lon="7.03508700"><ele></ele><time>2014-8-17T8:56:25Z</time></trkpt>
<trkpt lat="47.11883200" lon="7.03475200"><ele></ele><time>2014-8-17T8:56:28Z</time></trkpt>
<trkpt lat="47.11873600" lon="7.03441400"><ele></ele><time>2014-8-17T8:56:31Z</time></trkpt>
<trkpt lat="47.11869800" lon="7.03405000"><ele></ele><time>2014-8-17T8:56:34Z</time></trkpt>
<trkpt lat="47.11866800" lon="7.03361500"><ele></ele><time>2014-8-17T8:56:37Z</time></trkpt>
<trkpt lat="47.11869800" lon="7.03323600"><ele></ele><time>2014-8-17T8:56:40Z</time></trkpt>
<trkpt lat="47.11886200" lon="7.03299400"><ele></ele><time>2014-8-17T8:56:43Z</time></trkpt>
<trkpt lat="47.11899900" lon="7.03270100"><ele></ele><time>2014-8-17T8:56:46Z</time></trkpt>
<trkpt lat="47.11905300" lon="7.03238900"><ele></ele><time>2014-8-17T8:56:49Z</time></trkpt>
<trkpt lat="47.11919800" lon="7.03215900"><ele></ele><time>2014-8-17T8:56:52Z</time></trkpt>
<trkpt lat="47.11940800" lon="7.03217400"><ele></ele><time>2014-8-17T8:56:55Z</time></trkpt>
<trkpt lat="47.11943400" lon="7.03216700"><ele></ele><time>2014-8-17T8:56:58Z</time></trkpt>
<trkpt lat="47.11943900" lon="7.03219800"><ele></ele><time>2014-8-17T8:57:1Z</time></trkpt>
<trkpt lat="47.11944500" lon="7.03222900"><ele></ele><time>2014-8-17T8:57:4Z</time></trkpt>
<trkpt lat="47.11945000" lon="7.03226000"><ele></ele><time>2014-8-17T8:57:7Z</time></trkpt>
<trkpt lat="47.11944200" lon="7.03228600"><ele></ele><time>2014-8-17T8:57:10Z</time></trkpt>
<trkpt lat="47.11936200" lon="7.03255100"><ele></ele><time>2014-8-17T8:57:13Z</time></trkpt>
<trkpt lat="47.11922800" lon="7.03275700"><ele></ele><time>2014-8-17T8:57:16Z</time></trkpt>
<trkpt lat="47.11909500" lon="7.03303200"><ele></ele><time>2014-8-17T8:57:19Z</time></trkpt>
<trkpt lat="47.11903800" lon="7.03318900"><ele></ele><time>2014-8-17T8:57:22Z</time></trkpt>
<trkpt lat="47.11902600" lon="7.03324700"><ele></ele><time>2014-8-17T8:57:25Z</time></trkpt>
<trkpt lat="47.11902200" lon="7.03337200"><ele></ele><time>2014-8-17T8:57:28Z</time></trkpt>
<trkpt lat="47.11912500" lon="7.03373700"><ele></ele><time>2014-8-17T8:57:31Z</time></trkpt>
<trkpt lat="47.11926300" lon="7.03404800"><ele></ele><time>2014-8-17T8:57:34Z</time></trkpt>
<trkpt lat="47.11947300" lon="7.03451300"><ele></ele><time>2014-8-17T8:57:37Z</time></trkpt>
<trkpt lat="47.11979300" lon="7.03497000"><ele></ele><time>2014-8-17T8:57:40Z</time></trkpt>
<trkpt lat="47.12016700" lon="7.03534200"><ele></ele><time>2014-8-17T8:57:43Z</time></trkpt>
<trkpt lat="47.12054100" lon="7.03575800"><ele></ele><time>2014-8-17T8:57:46Z</time></trkpt>
<trkpt lat="47.12073100" lon="7.03599800"><ele></ele><time>2014-8-17T8:57:49Z</time></trkpt>
<trkpt lat="47.12103700" lon="7.03635400"><ele></ele><time>2014-8-17T8:57:52Z</time></trkpt>
<trkpt lat="47.12130400" lon="7.03677100"><ele></ele><time>2014-8-17T8:57:55Z</time></trkpt>
<trkpt lat="47.12160900" lon="7.03720900"><ele></ele><time>2014-8-17T8:57:58Z</time></trkpt>
<trkpt lat="47.12198600" lon="7.03771300"><ele></ele><time>2014-8-17T8:58:1Z</time></trkpt>
<trkpt lat="47.12226100" lon="7.03796400"><ele></ele><time>2014-8-17T8:58:4Z</time></trkpt>
<trkpt lat="47.12261600" lon="7.03816800"><ele></ele><time>2014-8-17T8:58:7Z</time></trkpt>
<trkpt lat="47.12301300" lon="7.03837000"><ele></ele><time>2014-8-17T8:58:10Z</time></trkpt>
<trkpt lat="47.12326400" lon="7.03871300"><ele></ele><time>2014-8-17T8:58:13Z</time></trkpt>
<trkpt lat="47.12359200" lon="7.03914600"><ele></ele><time>2014-8-17T8:58:16Z</time></trkpt>
<trkpt lat="47.12387100" lon="7.03953400"><ele></ele><time>2014-8-17T8:58:19Z</time></trkpt>
<trkpt lat="47.12412300" lon="7.04003900"><ele></ele><time>2014-8-17T8:58:22Z</time></trkpt>
<trkpt lat="47.12439300" lon="7.04040100"><ele></ele><time>2014-8-17T8:58:25Z</time></trkpt>
<trkpt lat="47.12464900" lon="7.04079000"><ele></ele><time>2014-8-17T8:58:28Z</time></trkpt>
<trkpt lat="47.12484400" lon="7.04130400"><ele></ele><time>2014-8-17T8:58:31Z</time></trkpt>
<trkpt lat="47.12508400" lon="7.04190300"><ele></ele><time>2014-8-17T8:58:34Z</time></trkpt>
<trkpt lat="47.12537400" lon="7.04250800"><ele></ele><time>2014-8-17T8:58:37Z</time></trkpt>
<trkpt lat="47.12567500" lon="7.04309500"><ele></ele><time>2014-8-17T8:58:40Z</time></trkpt>
<trkpt lat="47.12594600" lon="7.04359400"><ele></ele><time>2014-8-17T8:58:43Z</time></trkpt>
<trkpt lat="47.12625900" lon="7.04405300"><ele></ele><time>2014-8-17T8:58:46Z</time></trkpt>
<trkpt lat="47.12655300" lon="7.04433400"><ele></ele><time>2014-8-17T8:58:49Z</time></trkpt>
<trkpt lat="47.12681200" lon="7.04461100"><ele></ele><time>2014-8-17T8:58:52Z</time></trkpt>
<trkpt lat="47.12690700" lon="7.04490200"><ele></ele><time>2014-8-17T8:58:55Z</time></trkpt>
<trkpt lat="47.12706400" lon="7.04545500"><ele></ele><time>2014-8-17T8:58:58Z</time></trkpt>
<trkpt lat="47.12714400" lon="7.04569800"><ele></ele><time>2014-8-17T8:59:1Z</time></trkpt>
<trkpt lat="47.12742200" lon="7.04611400"><ele></ele><time>2014-8-17T8:59:4Z</time></trkpt>
<trkpt lat="47.12767800" lon="7.04640900"><ele></ele><time>2014-8-17T8:59:7Z</time></trkpt>
<trkpt lat="47.12794100" lon="7.04669100"><ele></ele><time>2014-8-17T8:59:10Z</time></trkpt>
<trkpt lat="47.12825000" lon="7.04708100"><ele></ele><time>2014-8-17T8:59:13Z</time></trkpt>
<trkpt lat="47.12847500" lon="7.04746600"><ele></ele><time>2014-8-17T8:59:16Z</time></trkpt>
<trkpt lat="47.12863200" lon="7.04788700"><ele></ele><time>2014-8-17T8:59:19Z</time></trkpt>
<trkpt lat="47.12880300" lon="7.04848700"><ele></ele><time>2014-8-17T8:59:22Z</time></trkpt>
<trkpt lat="47.12890200" lon="7.04874900"><ele></ele><time>2014-8-17T8:59:25Z</time></trkpt>
<trkpt lat="47.12912800" lon="7.04944600"><ele></ele><time>2014-8-17T8:59:28Z</time></trkpt>
<trkpt lat="47.12928800" lon="7.04994300"><ele></ele><time>2014-8-17T8:59:31Z</time></trkpt>
<trkpt lat="47.12950500" lon="7.05038900"><ele></ele><time>2014-8-17T8:59:34Z</time></trkpt>
<trkpt lat="47.12968400" lon="7.05071500"><ele></ele><time>2014-8-17T8:59:37Z</time></trkpt>
<trkpt lat="47.12998200" lon="7.05120700"><ele></ele><time>2014-8-17T8:59:40Z</time></trkpt>
<trkpt lat="47.13024100" lon="7.05137500"><ele></ele><time>2014-8-17T8:59:43Z</time></trkpt>
<trkpt lat="47.13053500" lon="7.05148600"><ele></ele><time>2014-8-17T8:59:46Z</time></trkpt>
<trkpt lat="47.13090900" lon="7.05163600"><ele></ele><time>2014-8-17T8:59:49Z</time></trkpt>
<trkpt lat="47.13099300" lon="7.05182100"><ele></ele><time>2014-8-17T8:59:52Z</time></trkpt>
<trkpt lat="47.13108800" lon="7.05211600"><ele></ele><time>2014-8-17T8:59:55Z</time></trkpt>
<trkpt lat="47.13124100" lon="7.05248300"><ele></ele><time>2014-8-17T8:59:58Z</time></trkpt>
<trkpt lat="47.13145100" lon="7.05294700"><ele></ele><time>2014-8-17T9:0:1Z</time></trkpt>
<trkpt lat="47.13166400" lon="7.05354900"><ele></ele><time>2014-8-17T9:0:4Z</time></trkpt>
<trkpt lat="47.13184700" lon="7.05402300"><ele></ele><time>2014-8-17T9:0:7Z</time></trkpt>
<trkpt lat="47.13206100" lon="7.05449200"><ele></ele><time>2014-8-17T9:0:10Z</time></trkpt>
<trkpt lat="47.13223600" lon="7.05488400"><ele></ele><time>2014-8-17T9:0:13Z</time></trkpt>
<trkpt lat="47.13231700" lon="7.05529300"><ele></ele><time>2014-8-17T9:0:16Z</time></trkpt>
<trkpt lat="47.13234700" lon="7.05575900"><ele></ele><time>2014-8-17T9:0:19Z</time></trkpt>
<trkpt lat="47.13238000" lon="7.05596600"><ele></ele><time>2014-8-17T9:0:22Z</time></trkpt>
<trkpt lat="47.13241400" lon="7.05617200"><ele></ele><time>2014-8-17T9:0:25Z</time></trkpt>
<trkpt lat="47.13244700" lon="7.05637900"><ele></ele><time>2014-8-17T9:0:28Z</time></trkpt>
<trkpt lat="47.13248100" lon="7.05658500"><ele></ele><time>2014-8-17T9:0:31Z</time></trkpt>
<trkpt lat="47.13254900" lon="7.05691500"><ele></ele><time>2014-8-17T9:0:34Z</time></trkpt>
<trkpt lat="47.13264300" lon="7.05736400"><ele></ele><time>2014-8-17T9:0:37Z</time></trkpt>
<trkpt lat="47.13273700" lon="7.05781200"><ele></ele><time>2014-8-17T9:0:40Z</time></trkpt>
<trkpt lat="47.13283200" lon="7.05826000"><ele></ele><time>2014-8-17T9:0:43Z</time></trkpt>
<trkpt lat="47.13294600" lon="7.05886300"><ele></ele><time>2014-8-17T9:0:46Z</time></trkpt>
<trkpt lat="47.13301500" lon="7.05923500"><ele></ele><time>2014-8-17T9:0:49Z</time></trkpt>
<trkpt lat="47.13303000" lon="7.05929000"><ele></ele><time>2014-8-17T9:0:52Z</time></trkpt>
<trkpt lat="47.13308100" lon="7.05954900"><ele></ele><time>2014-8-17T9:0:55Z</time></trkpt>
<trkpt lat="47.13313200" lon="7.05980700"><ele></ele><time>2014-8-17T9:0:58Z</time></trkpt>
<trkpt lat="47.13318300" lon="7.06006600"><ele></ele><time>2014-8-17T9:1:1Z</time></trkpt>
<trkpt lat="47.13317500" lon="7.06004700"><ele></ele><time>2014-8-17T9:1:4Z</time></trkpt>
<trkpt lat="47.13313700" lon="7.05985100"><ele></ele><time>2014-8-17T9:1:7Z</time></trkpt>
<trkpt lat="47.13309900" lon="7.05983000"><ele></ele><time>2014-8-17T9:1:10Z</time></trkpt>
<trkpt lat="47.13303400" lon="7.05990600"><ele></ele><time>2014-8-17T9:1:13Z</time></trkpt>
<trkpt lat="47.13301100" lon="7.05995100"><ele></ele><time>2014-8-17T9:1:16Z</time></trkpt>
<trkpt lat="47.13291200" lon="7.06016700"><ele></ele><time>2014-8-17T9:1:19Z</time></trkpt>
<trkpt lat="47.13289600" lon="7.06037800"><ele></ele><time>2014-8-17T9:1:22Z</time></trkpt>
<trkpt lat="47.13293300" lon="7.06043700"><ele></ele><time>2014-8-17T9:1:25Z</time></trkpt>
<trkpt lat="47.13296900" lon="7.06049600"><ele></ele><time>2014-8-17T9:1:28Z</time></trkpt>
<trkpt lat="47.13298500" lon="7.06052100"><ele></ele><time>2014-8-17T9:1:31Z</time></trkpt>
<trkpt lat="47.13300100" lon="7.06054600"><ele></ele><time>2014-8-17T9:1:34Z</time></trkpt>
<trkpt lat="47.13301700" lon="7.06057100"><ele></ele><time>2014-8-17T9:1:37Z</time></trkpt>
<trkpt lat="47.13303300" lon="7.06059700"><ele></ele><time>2014-8-17T9:1:40Z</time></trkpt>
<trkpt lat="47.13304900" lon="7.06062200"><ele></ele><time>2014-8-17T9:1:43Z</time></trkpt>
<trkpt lat="47.13304900" lon="7.06062200"><ele></ele><time>2014-8-17T9:1:46Z</time></trkpt>
<trkpt lat="47.13309100" lon="7.06077700"><ele></ele><time>2014-8-17T9:1:49Z</time></trkpt>
<trkpt lat="47.13313300" lon="7.06093200"><ele></ele><time>2014-8-17T9:1:52Z</time></trkpt>
<trkpt lat="47.13317500" lon="7.06108800"><ele></ele><time>2014-8-17T9:1:55Z</time></trkpt>
<trkpt lat="47.13323600" lon="7.06123100"><ele></ele><time>2014-8-17T9:1:58Z</time></trkpt>
<trkpt lat="47.13333100" lon="7.06142600"><ele></ele><time>2014-8-17T9:2:1Z</time></trkpt>
<trkpt lat="47.13335800" lon="7.06163600"><ele></ele><time>2014-8-17T9:2:4Z</time></trkpt>
<trkpt lat="47.13335400" lon="7.06177200"><ele></ele><time>2014-8-17T9:2:7Z</time></trkpt>
<trkpt lat="47.13335400" lon="7.06178800"><ele></ele><time>2014-8-17T9:2:10Z</time></trkpt>
<trkpt lat="47.13336900" lon="7.06182400"><ele></ele><time>2014-8-17T9:2:13Z</time></trkpt>
<trkpt lat="47.13348800" lon="7.06219300"><ele></ele><time>2014-8-17T9:2:16Z</time></trkpt>
<trkpt lat="47.13360600" lon="7.06256200"><ele></ele><time>2014-8-17T9:2:19Z</time></trkpt>
<trkpt lat="47.13372400" lon="7.06293200"><ele></ele><time>2014-8-17T9:2:22Z</time></trkpt>
<trkpt lat="47.13372400" lon="7.06293200"><ele></ele><time>2014-8-17T9:2:25Z</time></trkpt>
<trkpt lat="47.13372400" lon="7.06293200"><ele></ele><time>2014-8-17T9:2:28Z</time></trkpt>
<trkpt lat="47.13377000" lon="7.06305000"><ele></ele><time>2014-8-17T9:2:31Z</time></trkpt>
<trkpt lat="47.13377800" lon="7.06307800"><ele></ele><time>2014-8-17T9:2:34Z</time></trkpt>
<trkpt lat="47.13380100" lon="7.06310700"><ele></ele><time>2014-8-17T9:2:37Z</time></trkpt>
<trkpt lat="47.13379300" lon="7.06316400"><ele></ele><time>2014-8-17T9:2:40Z</time></trkpt>
<trkpt lat="47.13383500" lon="7.06329000"><ele></ele><time>2014-8-17T9:2:43Z</time></trkpt>
<trkpt lat="47.13383900" lon="7.06341700"><ele></ele><time>2014-8-17T9:2:46Z</time></trkpt>
<trkpt lat="47.13383100" lon="7.06345700"><ele></ele><time>2014-8-17T9:2:49Z</time></trkpt>
<trkpt lat="47.13386800" lon="7.06370600"><ele></ele><time>2014-8-17T9:2:52Z</time></trkpt>
<trkpt lat="47.13390400" lon="7.06395400"><ele></ele><time>2014-8-17T9:2:55Z</time></trkpt>
<trkpt lat="47.13394100" lon="7.06420300"><ele></ele><time>2014-8-17T9:2:58Z</time></trkpt>
<trkpt lat="47.13397800" lon="7.06445200"><ele></ele><time>2014-8-17T9:3:1Z</time></trkpt>
<trkpt lat="47.13401400" lon="7.06470100"><ele></ele><time>2014-8-17T9:3:4Z</time></trkpt>
<trkpt lat="47.13406800" lon="7.06521400"><ele></ele><time>2014-8-17T9:3:7Z</time></trkpt>
<trkpt lat="47.13415100" lon="7.06570200"><ele></ele><time>2014-8-17T9:3:10Z</time></trkpt>
<trkpt lat="47.13431500" lon="7.06623000"><ele></ele><time>2014-8-17T9:3:13Z</time></trkpt>
<trkpt lat="47.13439600" lon="7.06648500"><ele></ele><time>2014-8-17T9:3:16Z</time></trkpt>
<trkpt lat="47.13448100" lon="7.06682600"><ele></ele><time>2014-8-17T9:3:19Z</time></trkpt>
<trkpt lat="47.13456700" lon="7.06716800"><ele></ele><time>2014-8-17T9:3:22Z</time></trkpt>
<trkpt lat="47.13468200" lon="7.06740300"><ele></ele><time>2014-8-17T9:3:25Z</time></trkpt>
<trkpt lat="47.13480000" lon="7.06769800"><ele></ele><time>2014-8-17T9:3:28Z</time></trkpt>
<trkpt lat="47.13493700" lon="7.06819100"><ele></ele><time>2014-8-17T9:3:31Z</time></trkpt>
<trkpt lat="47.13501400" lon="7.06847900"><ele></ele><time>2014-8-17T9:3:34Z</time></trkpt>
<trkpt lat="47.13507800" lon="7.06876700"><ele></ele><time>2014-8-17T9:3:37Z</time></trkpt>
<trkpt lat="47.13517800" lon="7.06905000"><ele></ele><time>2014-8-17T9:3:40Z</time></trkpt>
<trkpt lat="47.13522300" lon="7.06912600"><ele></ele><time>2014-8-17T9:3:43Z</time></trkpt>
<trkpt lat="47.13528100" lon="7.06917000"><ele></ele><time>2014-8-17T9:3:46Z</time></trkpt>
<trkpt lat="47.13531900" lon="7.06940500"><ele></ele><time>2014-8-17T9:3:49Z</time></trkpt>
<trkpt lat="47.13536500" lon="7.06961400"><ele></ele><time>2014-8-17T9:3:52Z</time></trkpt>
<trkpt lat="47.13539500" lon="7.06974700"><ele></ele><time>2014-8-17T9:3:55Z</time></trkpt>
<trkpt lat="47.13542600" lon="7.06988000"><ele></ele><time>2014-8-17T9:3:58Z</time></trkpt>
<trkpt lat="47.13545400" lon="7.06990100"><ele></ele><time>2014-8-17T9:4:1Z</time></trkpt>
<trkpt lat="47.13548300" lon="7.06992100"><ele></ele><time>2014-8-17T9:4:4Z</time></trkpt>
<trkpt lat="47.13555100" lon="7.07005400"><ele></ele><time>2014-8-17T9:4:7Z</time></trkpt>
<trkpt lat="47.13558800" lon="7.07014100"><ele></ele><time>2014-8-17T9:4:10Z</time></trkpt>
<trkpt lat="47.13562400" lon="7.07022900"><ele></ele><time>2014-8-17T9:4:13Z</time></trkpt>
<trkpt lat="47.13568500" lon="7.07029700"><ele></ele><time>2014-8-17T9:4:16Z</time></trkpt>
<trkpt lat="47.13571900" lon="7.07039800"><ele></ele><time>2014-8-17T9:4:19Z</time></trkpt>
<trkpt lat="47.13575400" lon="7.07047700"><ele></ele><time>2014-8-17T9:4:22Z</time></trkpt>
<trkpt lat="47.13578800" lon="7.07055500"><ele></ele><time>2014-8-17T9:4:25Z</time></trkpt>
<trkpt lat="47.13586400" lon="7.07072300"><ele></ele><time>2014-8-17T9:4:28Z</time></trkpt>
<trkpt lat="47.13591000" lon="7.07079000"><ele></ele><time>2014-8-17T9:4:31Z</time></trkpt>
<trkpt lat="47.13594100" lon="7.07085700"><ele></ele><time>2014-8-17T9:4:34Z</time></trkpt>
<trkpt lat="47.13597900" lon="7.07093600"><ele></ele><time>2014-8-17T9:4:37Z</time></trkpt>
<trkpt lat="47.13602100" lon="7.07104100"><ele></ele><time>2014-8-17T9:4:40Z</time></trkpt>
<trkpt lat="47.13611600" lon="7.07134600"><ele></ele><time>2014-8-17T9:4:43Z</time></trkpt>
<trkpt lat="47.13613300" lon="7.07141700"><ele></ele><time>2014-8-17T9:4:46Z</time></trkpt>
<trkpt lat="47.13614900" lon="7.07148700"><ele></ele><time>2014-8-17T9:4:49Z</time></trkpt>
<trkpt lat="47.13616600" lon="7.07155800"><ele></ele><time>2014-8-17T9:4:52Z</time></trkpt>
<trkpt lat="47.13617300" lon="7.07164100"><ele></ele><time>2014-8-17T9:4:55Z</time></trkpt>
<trkpt lat="47.13617700" lon="7.07177100"><ele></ele><time>2014-8-17T9:4:58Z</time></trkpt>
<trkpt lat="47.13616600" lon="7.07189600"><ele></ele><time>2014-8-17T9:5:1Z</time></trkpt>
<trkpt lat="47.13620000" lon="7.07199900"><ele></ele><time>2014-8-17T9:5:4Z</time></trkpt>
<trkpt lat="47.13621900" lon="7.07206600"><ele></ele><time>2014-8-17T9:5:7Z</time></trkpt>
<trkpt lat="47.13631100" lon="7.07277200"><ele></ele><time>2014-8-17T9:5:10Z</time></trkpt>
<trkpt lat="47.13632600" lon="7.07296600"><ele></ele><time>2014-8-17T9:5:13Z</time></trkpt>
<trkpt lat="47.13631400" lon="7.07315100"><ele></ele><time>2014-8-17T9:5:16Z</time></trkpt>
<trkpt lat="47.13632200" lon="7.07317800"><ele></ele><time>2014-8-17T9:5:19Z</time></trkpt>
<trkpt lat="47.13639800" lon="7.07343500"><ele></ele><time>2014-8-17T9:5:22Z</time></trkpt>
<trkpt lat="47.13649000" lon="7.07393400"><ele></ele><time>2014-8-17T9:5:25Z</time></trkpt>
<trkpt lat="47.13672300" lon="7.07490200"><ele></ele><time>2014-8-17T9:5:28Z</time></trkpt>
<trkpt lat="47.13678000" lon="7.07507100"><ele></ele><time>2014-8-17T9:5:31Z</time></trkpt>
<trkpt lat="47.13683700" lon="7.07524000"><ele></ele><time>2014-8-17T9:5:34Z</time></trkpt>
<trkpt lat="47.13686000" lon="7.07528900"><ele></ele><time>2014-8-17T9:5:37Z</time></trkpt>
<trkpt lat="47.13688300" lon="7.07533900"><ele></ele><time>2014-8-17T9:5:40Z</time></trkpt>
<trkpt lat="47.13687900" lon="7.07533800"><ele></ele><time>2014-8-17T9:5:43Z</time></trkpt>
<trkpt lat="47.13690300" lon="7.07550800"><ele></ele><time>2014-8-17T9:5:46Z</time></trkpt>
<trkpt lat="47.13692700" lon="7.07567800"><ele></ele><time>2014-8-17T9:5:49Z</time></trkpt>
<trkpt lat="47.13695000" lon="7.07584800"><ele></ele><time>2014-8-17T9:5:52Z</time></trkpt>
<trkpt lat="47.13697400" lon="7.07601800"><ele></ele><time>2014-8-17T9:5:55Z</time></trkpt>
<trkpt lat="47.13698600" lon="7.07609100"><ele></ele><time>2014-8-17T9:5:58Z</time></trkpt>
<trkpt lat="47.13700100" lon="7.07614500"><ele></ele><time>2014-8-17T9:6:1Z</time></trkpt>
<trkpt lat="47.13703900" lon="7.07622900"><ele></ele><time>2014-8-17T9:6:4Z</time></trkpt>
<trkpt lat="47.13707400" lon="7.07638500"><ele></ele><time>2014-8-17T9:6:7Z</time></trkpt>
<trkpt lat="47.13710800" lon="7.07654100"><ele></ele><time>2014-8-17T9:6:10Z</time></trkpt>
<trkpt lat="47.13717700" lon="7.07668400"><ele></ele><time>2014-8-17T9:6:13Z</time></trkpt>
<trkpt lat="47.13724500" lon="7.07682700"><ele></ele><time>2014-8-17T9:6:16Z</time></trkpt>
<trkpt lat="47.13729500" lon="7.07700100"><ele></ele><time>2014-8-17T9:6:19Z</time></trkpt>
<trkpt lat="47.13741300" lon="7.07744700"><ele></ele><time>2014-8-17T9:6:22Z</time></trkpt>
<trkpt lat="47.13750500" lon="7.07771700"><ele></ele><time>2014-8-17T9:6:25Z</time></trkpt>
<trkpt lat="47.13758900" lon="7.07798900"><ele></ele><time>2014-8-17T9:6:28Z</time></trkpt>
<trkpt lat="47.13760800" lon="7.07806500"><ele></ele><time>2014-8-17T9:6:31Z</time></trkpt>
<trkpt lat="47.13770700" lon="7.07821100"><ele></ele><time>2014-8-17T9:6:34Z</time></trkpt>
<trkpt lat="47.13782900" lon="7.07852400"><ele></ele><time>2014-8-17T9:6:37Z</time></trkpt>
<trkpt lat="47.13792400" lon="7.07871400"><ele></ele><time>2014-8-17T9:6:40Z</time></trkpt>
<trkpt lat="47.13800400" lon="7.07893100"><ele></ele><time>2014-8-17T9:6:43Z</time></trkpt>
<trkpt lat="47.13809200" lon="7.07915000"><ele></ele><time>2014-8-17T9:6:46Z</time></trkpt>
<trkpt lat="47.13818400" lon="7.07939900"><ele></ele><time>2014-8-17T9:6:49Z</time></trkpt>
<trkpt lat="47.13823700" lon="7.07963000"><ele></ele><time>2014-8-17T9:6:52Z</time></trkpt>
<trkpt lat="47.13828700" lon="7.07983700"><ele></ele><time>2014-8-17T9:6:55Z</time></trkpt>
<trkpt lat="47.13836300" lon="7.08016200"><ele></ele><time>2014-8-17T9:6:58Z</time></trkpt>
<trkpt lat="47.13840900" lon="7.08046100"><ele></ele><time>2014-8-17T9:7:1Z</time></trkpt>
<trkpt lat="47.13848100" lon="7.08078300"><ele></ele><time>2014-8-17T9:7:4Z</time></trkpt>
<trkpt lat="47.13855900" lon="7.08106300"><ele></ele><time>2014-8-17T9:7:7Z</time></trkpt>
<trkpt lat="47.13863600" lon="7.08134200"><ele></ele><time>2014-8-17T9:7:10Z</time></trkpt>
<trkpt lat="47.13871400" lon="7.08162200"><ele></ele><time>2014-8-17T9:7:13Z</time></trkpt>
<trkpt lat="47.13877500" lon="7.08178900"><ele></ele><time>2014-8-17T9:7:16Z</time></trkpt>
<trkpt lat="47.13877500" lon="7.08178700"><ele></ele><time>2014-8-17T9:7:19Z</time></trkpt>
<trkpt lat="47.13879800" lon="7.08187000"><ele></ele><time>2014-8-17T9:7:22Z</time></trkpt>
<trkpt lat="47.13879800" lon="7.08189600"><ele></ele><time>2014-8-17T9:7:25Z</time></trkpt>
<trkpt lat="47.13880200" lon="7.08191000"><ele></ele><time>2014-8-17T9:7:28Z</time></trkpt>
<trkpt lat="47.13884000" lon="7.08200300"><ele></ele><time>2014-8-17T9:7:31Z</time></trkpt>
<trkpt lat="47.13884400" lon="7.08206700"><ele></ele><time>2014-8-17T9:7:34Z</time></trkpt>
<trkpt lat="47.13890500" lon="7.08236900"><ele></ele><time>2014-8-17T9:7:37Z</time></trkpt>
<trkpt lat="47.13896600" lon="7.08267100"><ele></ele><time>2014-8-17T9:7:40Z</time></trkpt>
<trkpt lat="47.13902700" lon="7.08297300"><ele></ele><time>2014-8-17T9:7:43Z</time></trkpt>
<trkpt lat="47.13905100" lon="7.08308800"><ele></ele><time>2014-8-17T9:7:46Z</time></trkpt>
<trkpt lat="47.13907600" lon="7.08320300"><ele></ele><time>2014-8-17T9:7:49Z</time></trkpt>
<trkpt lat="47.13910300" lon="7.08327800"><ele></ele><time>2014-8-17T9:7:52Z</time></trkpt>
<trkpt lat="47.13911400" lon="7.08334300"><ele></ele><time>2014-8-17T9:7:55Z</time></trkpt>
<trkpt lat="47.13913000" lon="7.08339100"><ele></ele><time>2014-8-17T9:7:58Z</time></trkpt>
<trkpt lat="47.13917500" lon="7.08354600"><ele></ele><time>2014-8-17T9:8:1Z</time></trkpt>
<trkpt lat="47.13921400" lon="7.08369000"><ele></ele><time>2014-8-17T9:8:4Z</time></trkpt>
<trkpt lat="47.13925600" lon="7.08393800"><ele></ele><time>2014-8-17T9:8:7Z</time></trkpt>
<trkpt lat="47.13937000" lon="7.08441900"><ele></ele><time>2014-8-17T9:8:10Z</time></trkpt>
<trkpt lat="47.13939700" lon="7.08455600"><ele></ele><time>2014-8-17T9:8:13Z</time></trkpt>
<trkpt lat="47.13940000" lon="7.08459000"><ele></ele><time>2014-8-17T9:8:16Z</time></trkpt>
<trkpt lat="47.13946200" lon="7.08469100"><ele></ele><time>2014-8-17T9:8:19Z</time></trkpt>
<trkpt lat="47.13948400" lon="7.08477200"><ele></ele><time>2014-8-17T9:8:22Z</time></trkpt>
<trkpt lat="47.13947300" lon="7.08477600"><ele></ele><time>2014-8-17T9:8:25Z</time></trkpt>
<trkpt lat="47.13945800" lon="7.08481500"><ele></ele><time>2014-8-17T9:8:28Z</time></trkpt>
<trkpt lat="47.13945000" lon="7.08484600"><ele></ele><time>2014-8-17T9:8:31Z</time></trkpt>
<trkpt lat="47.13945000" lon="7.08490000"><ele></ele><time>2014-8-17T9:8:34Z</time></trkpt>
<trkpt lat="47.13949600" lon="7.08509300"><ele></ele><time>2014-8-17T9:8:37Z</time></trkpt>
<trkpt lat="47.13958400" lon="7.08540700"><ele></ele><time>2014-8-17T9:8:40Z</time></trkpt>
<trkpt lat="47.13967100" lon="7.08572100"><ele></ele><time>2014-8-17T9:8:43Z</time></trkpt>
<trkpt lat="47.13978200" lon="7.08593000"><ele></ele><time>2014-8-17T9:8:46Z</time></trkpt>
<trkpt lat="47.13989300" lon="7.08613900"><ele></ele><time>2014-8-17T9:8:49Z</time></trkpt>
<trkpt lat="47.14000300" lon="7.08634900"><ele></ele><time>2014-8-17T9:8:52Z</time></trkpt>
<trkpt lat="47.14006000" lon="7.08650000"><ele></ele><time>2014-8-17T9:8:55Z</time></trkpt>
<trkpt lat="47.14009900" lon="7.08662100"><ele></ele><time>2014-8-17T9:8:58Z</time></trkpt>
<trkpt lat="47.14013500" lon="7.08682500"><ele></ele><time>2014-8-17T9:9:1Z</time></trkpt>
<trkpt lat="47.14017100" lon="7.08702900"><ele></ele><time>2014-8-17T9:9:4Z</time></trkpt>
<trkpt lat="47.14025100" lon="7.08747300"><ele></ele><time>2014-8-17T9:9:7Z</time></trkpt>
<trkpt lat="47.14031600" lon="7.08777000"><ele></ele><time>2014-8-17T9:9:10Z</time></trkpt>
<trkpt lat="47.14037500" lon="7.08804600"><ele></ele><time>2014-8-17T9:9:13Z</time></trkpt>
<trkpt lat="47.14043400" lon="7.08832200"><ele></ele><time>2014-8-17T9:9:16Z</time></trkpt>
<trkpt lat="47.14048100" lon="7.08852300"><ele></ele><time>2014-8-17T9:9:19Z</time></trkpt>
<trkpt lat="47.14052800" lon="7.08872300"><ele></ele><time>2014-8-17T9:9:22Z</time></trkpt>
<trkpt lat="47.14057500" lon="7.08892400"><ele></ele><time>2014-8-17T9:9:25Z</time></trkpt>
<trkpt lat="47.14070500" lon="7.08952800"><ele></ele><time>2014-8-17T9:9:28Z</time></trkpt>
<trkpt lat="47.14086500" lon="7.08987300"><ele></ele><time>2014-8-17T9:9:31Z</time></trkpt>
<trkpt lat="47.14106400" lon="7.09006600"><ele></ele><time>2014-8-17T9:9:34Z</time></trkpt>
<trkpt lat="47.14114000" lon="7.09011200"><ele></ele><time>2014-8-17T9:9:37Z</time></trkpt>
<trkpt lat="47.14119000" lon="7.09021500"><ele></ele><time>2014-8-17T9:9:40Z</time></trkpt>
<trkpt lat="47.14122800" lon="7.09043400"><ele></ele><time>2014-8-17T9:9:43Z</time></trkpt>
<trkpt lat="47.14128500" lon="7.09061900"><ele></ele><time>2014-8-17T9:9:46Z</time></trkpt>
<trkpt lat="47.14128500" lon="7.09063800"><ele></ele><time>2014-8-17T9:9:49Z</time></trkpt>
<trkpt lat="47.14128100" lon="7.09063800"><ele></ele><time>2014-8-17T9:9:52Z</time></trkpt>
<trkpt lat="47.14128100" lon="7.09064700"><ele></ele><time>2014-8-17T9:9:55Z</time></trkpt>
<trkpt lat="47.14131500" lon="7.09087300"><ele></ele><time>2014-8-17T9:9:58Z</time></trkpt>
<trkpt lat="47.14135000" lon="7.09109900"><ele></ele><time>2014-8-17T9:10:1Z</time></trkpt>
<trkpt lat="47.14138400" lon="7.09132600"><ele></ele><time>2014-8-17T9:10:4Z</time></trkpt>
<trkpt lat="47.14141800" lon="7.09155200"><ele></ele><time>2014-8-17T9:10:7Z</time></trkpt>
<trkpt lat="47.14155600" lon="7.09192800"><ele></ele><time>2014-8-17T9:10:10Z</time></trkpt>
<trkpt lat="47.14170100" lon="7.09236300"><ele></ele><time>2014-8-17T9:10:13Z</time></trkpt>
<trkpt lat="47.14177700" lon="7.09253700"><ele></ele><time>2014-8-17T9:10:16Z</time></trkpt>
<trkpt lat="47.14183000" lon="7.09274600"><ele></ele><time>2014-8-17T9:10:19Z</time></trkpt>
<trkpt lat="47.14190300" lon="7.09298100"><ele></ele><time>2014-8-17T9:10:22Z</time></trkpt>
<trkpt lat="47.14199100" lon="7.09324000"><ele></ele><time>2014-8-17T9:10:25Z</time></trkpt>
<trkpt lat="47.14205900" lon="7.09350100"><ele></ele><time>2014-8-17T9:10:28Z</time></trkpt>
<trkpt lat="47.14209000" lon="7.09386900"><ele></ele><time>2014-8-17T9:10:31Z</time></trkpt>
<trkpt lat="47.14219300" lon="7.09425600"><ele></ele><time>2014-8-17T9:10:34Z</time></trkpt>
<trkpt lat="47.14225900" lon="7.09449100"><ele></ele><time>2014-8-17T9:10:37Z</time></trkpt>
<trkpt lat="47.14232500" lon="7.09472500"><ele></ele><time>2014-8-17T9:10:40Z</time></trkpt>
<trkpt lat="47.14239100" lon="7.09496000"><ele></ele><time>2014-8-17T9:10:43Z</time></trkpt>
<trkpt lat="47.14245100" lon="7.09523200"><ele></ele><time>2014-8-17T9:10:46Z</time></trkpt>
<trkpt lat="47.14251100" lon="7.09550500"><ele></ele><time>2014-8-17T9:10:49Z</time></trkpt>
<trkpt lat="47.14257000" lon="7.09577800"><ele></ele><time>2014-8-17T9:10:52Z</time></trkpt>
<trkpt lat="47.14265400" lon="7.09594600"><ele></ele><time>2014-8-17T9:10:55Z</time></trkpt>
<trkpt lat="47.14272300" lon="7.09608700"><ele></ele><time>2014-8-17T9:10:58Z</time></trkpt>
<trkpt lat="47.14283800" lon="7.09663600"><ele></ele><time>2014-8-17T9:11:1Z</time></trkpt>
<trkpt lat="47.14300200" lon="7.09735900"><ele></ele><time>2014-8-17T9:11:4Z</time></trkpt>
<trkpt lat="47.14320800" lon="7.09796600"><ele></ele><time>2014-8-17T9:11:7Z</time></trkpt>
<trkpt lat="47.14331100" lon="7.09833700"><ele></ele><time>2014-8-17T9:11:10Z</time></trkpt>
<trkpt lat="47.14334500" lon="7.09842100"><ele></ele><time>2014-8-17T9:11:13Z</time></trkpt>
<trkpt lat="47.14360000" lon="7.09942100"><ele></ele><time>2014-8-17T9:11:16Z</time></trkpt>
<trkpt lat="47.14371500" lon="7.10007700"><ele></ele><time>2014-8-17T9:11:19Z</time></trkpt>
<trkpt lat="47.14388800" lon="7.10079700"><ele></ele><time>2014-8-17T9:11:22Z</time></trkpt>
<trkpt lat="47.14406200" lon="7.10151700"><ele></ele><time>2014-8-17T9:11:25Z</time></trkpt>
<trkpt lat="47.14428700" lon="7.10208600"><ele></ele><time>2014-8-17T9:11:28Z</time></trkpt>
<trkpt lat="47.14441300" lon="7.10238200"><ele></ele><time>2014-8-17T9:11:31Z</time></trkpt>
<trkpt lat="47.14457700" lon="7.10284900"><ele></ele><time>2014-8-17T9:11:34Z</time></trkpt>
<trkpt lat="47.14467200" lon="7.10312600"><ele></ele><time>2014-8-17T9:11:37Z</time></trkpt>
<trkpt lat="47.14471100" lon="7.10319400"><ele></ele><time>2014-8-17T9:11:40Z</time></trkpt>
<trkpt lat="47.14481400" lon="7.10351600"><ele></ele><time>2014-8-17T9:11:43Z</time></trkpt>
<trkpt lat="47.14485200" lon="7.10366000"><ele></ele><time>2014-8-17T9:11:46Z</time></trkpt>
<trkpt lat="47.14512600" lon="7.10415400"><ele></ele><time>2014-8-17T9:11:49Z</time></trkpt>
<trkpt lat="47.14530200" lon="7.10480600"><ele></ele><time>2014-8-17T9:11:52Z</time></trkpt>
<trkpt lat="47.14548500" lon="7.10562500"><ele></ele><time>2014-8-17T9:11:55Z</time></trkpt>
<trkpt lat="47.14573700" lon="7.10653900"><ele></ele><time>2014-8-17T9:11:58Z</time></trkpt>
<trkpt lat="47.14594300" lon="7.10712300"><ele></ele><time>2014-8-17T9:12:1Z</time></trkpt>
<trkpt lat="47.14600400" lon="7.10732400"><ele></ele><time>2014-8-17T9:12:4Z</time></trkpt>
<trkpt lat="47.14612200" lon="7.10777900"><ele></ele><time>2014-8-17T9:12:7Z</time></trkpt>
<trkpt lat="47.14633900" lon="7.10855500"><ele></ele><time>2014-8-17T9:12:10Z</time></trkpt>
<trkpt lat="47.14665600" lon="7.10932500"><ele></ele><time>2014-8-17T9:12:13Z</time></trkpt>
<trkpt lat="47.14697300" lon="7.11009500"><ele></ele><time>2014-8-17T9:12:16Z</time></trkpt>
<trkpt lat="47.14714800" lon="7.11031200"><ele></ele><time>2014-8-17T9:12:19Z</time></trkpt>
<trkpt lat="47.14736600" lon="7.11063500"><ele></ele><time>2014-8-17T9:12:22Z</time></trkpt>
<trkpt lat="47.14744900" lon="7.11080200"><ele></ele><time>2014-8-17T9:12:25Z</time></trkpt>
<trkpt lat="47.14753300" lon="7.11096900"><ele></ele><time>2014-8-17T9:12:28Z</time></trkpt>
<trkpt lat="47.14772400" lon="7.11129700"><ele></ele><time>2014-8-17T9:12:31Z</time></trkpt>
<trkpt lat="47.14777100" lon="7.11141900"><ele></ele><time>2014-8-17T9:12:34Z</time></trkpt>
<trkpt lat="47.14781900" lon="7.11154200"><ele></ele><time>2014-8-17T9:12:37Z</time></trkpt>
<trkpt lat="47.14786600" lon="7.11166400"><ele></ele><time>2014-8-17T9:12:40Z</time></trkpt>
<trkpt lat="47.14791300" lon="7.11178700"><ele></ele><time>2014-8-17T9:12:43Z</time></trkpt>
<trkpt lat="47.14796100" lon="7.11190900"><ele></ele><time>2014-8-17T9:12:46Z</time></trkpt>
<trkpt lat="47.14791900" lon="7.11191800"><ele></ele><time>2014-8-17T9:12:49Z</time></trkpt>
<trkpt lat="47.14787700" lon="7.11192700"><ele></ele><time>2014-8-17T9:12:52Z</time></trkpt>
<trkpt lat="47.14783500" lon="7.11193500"><ele></ele><time>2014-8-17T9:12:55Z</time></trkpt>
<trkpt lat="47.14783100" lon="7.11193800"><ele></ele><time>2014-8-17T9:12:58Z</time></trkpt>
<trkpt lat="47.14783400" lon="7.11193200"><ele></ele><time>2014-8-17T9:13:1Z</time></trkpt>
<trkpt lat="47.14783600" lon="7.11192700"><ele></ele><time>2014-8-17T9:13:4Z</time></trkpt>
<trkpt lat="47.14783900" lon="7.11192200"><ele></ele><time>2014-8-17T9:13:7Z</time></trkpt>
<trkpt lat="47.14791000" lon="7.11211800"><ele></ele><time>2014-8-17T9:13:10Z</time></trkpt>
<trkpt lat="47.14798200" lon="7.11231400"><ele></ele><time>2014-8-17T9:13:13Z</time></trkpt>
<trkpt lat="47.14805400" lon="7.11251000"><ele></ele><time>2014-8-17T9:13:16Z</time></trkpt>
<trkpt lat="47.14812600" lon="7.11270600"><ele></ele><time>2014-8-17T9:13:19Z</time></trkpt>
<trkpt lat="47.14819800" lon="7.11290200"><ele></ele><time>2014-8-17T9:13:22Z</time></trkpt>
<trkpt lat="47.14827000" lon="7.11309900"><ele></ele><time>2014-8-17T9:13:25Z</time></trkpt>
<trkpt lat="47.14827000" lon="7.11317300"><ele></ele><time>2014-8-17T9:13:28Z</time></trkpt>
<trkpt lat="47.14827000" lon="7.11324700"><ele></ele><time>2014-8-17T9:13:31Z</time></trkpt>
<trkpt lat="47.14827000" lon="7.11332100"><ele></ele><time>2014-8-17T9:13:34Z</time></trkpt>
<trkpt lat="47.14825100" lon="7.11339900"><ele></ele><time>2014-8-17T9:13:37Z</time></trkpt>
<trkpt lat="47.14818200" lon="7.11362300"><ele></ele><time>2014-8-17T9:13:40Z</time></trkpt>
<trkpt lat="47.14814400" lon="7.11375000"><ele></ele><time>2014-8-17T9:13:43Z</time></trkpt>
<trkpt lat="47.14810600" lon="7.11391300"><ele></ele><time>2014-8-17T9:13:46Z</time></trkpt>
<trkpt lat="47.14809000" lon="7.11405200"><ele></ele><time>2014-8-17T9:13:49Z</time></trkpt>
<trkpt lat="47.14807500" lon="7.11419000"><ele></ele><time>2014-8-17T9:13:52Z</time></trkpt>
<trkpt lat="47.14813200" lon="7.11453100"><ele></ele><time>2014-8-17T9:13:55Z</time></trkpt>
<trkpt lat="47.14819000" lon="7.11487200"><ele></ele><time>2014-8-17T9:13:58Z</time></trkpt>
<trkpt lat="47.14839900" lon="7.11516400"><ele></ele><time>2014-8-17T9:14:1Z</time></trkpt>
<trkpt lat="47.14857900" lon="7.11551100"><ele></ele><time>2014-8-17T9:14:4Z</time></trkpt>
<trkpt lat="47.14877300" lon="7.11563900"><ele></ele><time>2014-8-17T9:14:7Z</time></trkpt>
<trkpt lat="47.14888600" lon="7.11567100"><ele></ele><time>2014-8-17T9:14:10Z</time></trkpt>
<trkpt lat="47.14900000" lon="7.11570300"><ele></ele><time>2014-8-17T9:14:13Z</time></trkpt>
<trkpt lat="47.14911300" lon="7.11573500"><ele></ele><time>2014-8-17T9:14:16Z</time></trkpt>
<trkpt lat="47.14917800" lon="7.11576800"><ele></ele><time>2014-8-17T9:14:19Z</time></trkpt>
<trkpt lat="47.14928100" lon="7.11592300"><ele></ele><time>2014-8-17T9:14:22Z</time></trkpt>
<trkpt lat="47.14932300" lon="7.11599300"><ele></ele><time>2014-8-17T9:14:25Z</time></trkpt>
<trkpt lat="47.14934300" lon="7.11599300"><ele></ele><time>2014-8-17T9:14:28Z</time></trkpt>
<trkpt lat="47.14936300" lon="7.11599200"><ele></ele><time>2014-8-17T9:14:31Z</time></trkpt>
<trkpt lat="47.14938400" lon="7.11599200"><ele></ele><time>2014-8-17T9:14:34Z</time></trkpt>
<trkpt lat="47.14937000" lon="7.11600700"><ele></ele><time>2014-8-17T9:14:37Z</time></trkpt>
<trkpt lat="47.14935700" lon="7.11602300"><ele></ele><time>2014-8-17T9:14:40Z</time></trkpt>
<trkpt lat="47.14946700" lon="7.11629600"><ele></ele><time>2014-8-17T9:14:43Z</time></trkpt>
<trkpt lat="47.14957700" lon="7.11657000"><ele></ele><time>2014-8-17T9:14:46Z</time></trkpt>
<trkpt lat="47.14968600" lon="7.11684300"><ele></ele><time>2014-8-17T9:14:49Z</time></trkpt>
<trkpt lat="47.14979600" lon="7.11711700"><ele></ele><time>2014-8-17T9:14:52Z</time></trkpt>
<trkpt lat="47.14990600" lon="7.11739000"><ele></ele><time>2014-8-17T9:14:55Z</time></trkpt>
<trkpt lat="47.15021500" lon="7.11791400"><ele></ele><time>2014-8-17T9:14:58Z</time></trkpt>
<trkpt lat="47.15026500" lon="7.11800800"><ele></ele><time>2014-8-17T9:15:1Z</time></trkpt>
<trkpt lat="47.15030300" lon="7.11816000"><ele></ele><time>2014-8-17T9:15:4Z</time></trkpt>
<trkpt lat="47.15031800" lon="7.11830300"><ele></ele><time>2014-8-17T9:15:7Z</time></trkpt>
<trkpt lat="47.15026500" lon="7.11847000"><ele></ele><time>2014-8-17T9:15:10Z</time></trkpt>
<trkpt lat="47.15025600" lon="7.11873600"><ele></ele><time>2014-8-17T9:15:13Z</time></trkpt>
<trkpt lat="47.15024800" lon="7.11900100"><ele></ele><time>2014-8-17T9:15:16Z</time></trkpt>
<trkpt lat="47.15024000" lon="7.11926700"><ele></ele><time>2014-8-17T9:15:19Z</time></trkpt>
<trkpt lat="47.15023200" lon="7.11953200"><ele></ele><time>2014-8-17T9:15:22Z</time></trkpt>
<trkpt lat="47.15022300" lon="7.11979700"><ele></ele><time>2014-8-17T9:15:25Z</time></trkpt>
<trkpt lat="47.15021500" lon="7.12006300"><ele></ele><time>2014-8-17T9:15:28Z</time></trkpt>
<trkpt lat="47.15062000" lon="7.12031300"><ele></ele><time>2014-8-17T9:15:31Z</time></trkpt>
<trkpt lat="47.15121800" lon="7.12073900"><ele></ele><time>2014-8-17T9:15:34Z</time></trkpt>
<trkpt lat="47.15104900" lon="7.12079700"><ele></ele><time>2014-8-17T9:15:37Z</time></trkpt>
<trkpt lat="47.15087900" lon="7.12085500"><ele></ele><time>2014-8-17T9:15:40Z</time></trkpt>
<trkpt lat="47.15108500" lon="7.12087200"><ele></ele><time>2014-8-17T9:15:43Z</time></trkpt>
<trkpt lat="47.15129100" lon="7.12088900"><ele></ele><time>2014-8-17T9:15:46Z</time></trkpt>
<trkpt lat="47.15130600" lon="7.12101100"><ele></ele><time>2014-8-17T9:15:49Z</time></trkpt>
<trkpt lat="47.15132100" lon="7.12113300"><ele></ele><time>2014-8-17T9:15:52Z</time></trkpt>
<trkpt lat="47.15140900" lon="7.12141600"><ele></ele><time>2014-8-17T9:15:55Z</time></trkpt>
<trkpt lat="47.15143200" lon="7.12181600"><ele></ele><time>2014-8-17T9:15:58Z</time></trkpt>
<trkpt lat="47.15143200" lon="7.12206000"><ele></ele><time>2014-8-17T9:16:1Z</time></trkpt>
<trkpt lat="47.15145100" lon="7.12221100"><ele></ele><time>2014-8-17T9:16:4Z</time></trkpt>
<trkpt lat="47.15147400" lon="7.12223600"><ele></ele><time>2014-8-17T9:16:7Z</time></trkpt>
<trkpt lat="47.15148200" lon="7.12223200"><ele></ele><time>2014-8-17T9:16:10Z</time></trkpt>
<trkpt lat="47.15150500" lon="7.12230100"><ele></ele><time>2014-8-17T9:16:13Z</time></trkpt>
<trkpt lat="47.15150500" lon="7.12230400"><ele></ele><time>2014-8-17T9:16:16Z</time></trkpt>
<trkpt lat="47.15150500" lon="7.12261300"><ele></ele><time>2014-8-17T9:16:19Z</time></trkpt>
<trkpt lat="47.15142400" lon="7.12282600"><ele></ele><time>2014-8-17T9:16:22Z</time></trkpt>
<trkpt lat="47.15134400" lon="7.12303900"><ele></ele><time>2014-8-17T9:16:25Z</time></trkpt>
<trkpt lat="47.15126400" lon="7.12325100"><ele></ele><time>2014-8-17T9:16:28Z</time></trkpt>
<trkpt lat="47.15118400" lon="7.12346400"><ele></ele><time>2014-8-17T9:16:31Z</time></trkpt>
<trkpt lat="47.15110400" lon="7.12367700"><ele></ele><time>2014-8-17T9:16:34Z</time></trkpt>
<trkpt lat="47.15102400" lon="7.12389000"><ele></ele><time>2014-8-17T9:16:37Z</time></trkpt>
<trkpt lat="47.15093200" lon="7.12412800"><ele></ele><time>2014-8-17T9:16:40Z</time></trkpt>
<trkpt lat="47.15082400" lon="7.12453300"><ele></ele><time>2014-8-17T9:16:43Z</time></trkpt>
<trkpt lat="47.15071500" lon="7.12493700"><ele></ele><time>2014-8-17T9:16:46Z</time></trkpt>
<trkpt lat="47.15054300" lon="7.12575800"><ele></ele><time>2014-8-17T9:16:49Z</time></trkpt>
<trkpt lat="47.15045000" lon="7.12608800"><ele></ele><time>2014-8-17T9:16:52Z</time></trkpt>
<trkpt lat="47.15035600" lon="7.12641800"><ele></ele><time>2014-8-17T9:16:55Z</time></trkpt>
<trkpt lat="47.15026300" lon="7.12674800"><ele></ele><time>2014-8-17T9:16:58Z</time></trkpt>
<trkpt lat="47.15016900" lon="7.12707800"><ele></ele><time>2014-8-17T9:17:1Z</time></trkpt>
<trkpt lat="47.15000900" lon="7.12739700"><ele></ele><time>2014-8-17T9:17:4Z</time></trkpt>
<trkpt lat="47.14984900" lon="7.12771600"><ele></ele><time>2014-8-17T9:17:7Z</time></trkpt>
<trkpt lat="47.14968900" lon="7.12803500"><ele></ele><time>2014-8-17T9:17:10Z</time></trkpt>
<trkpt lat="47.14952900" lon="7.12835400"><ele></ele><time>2014-8-17T9:17:13Z</time></trkpt>
<trkpt lat="47.14936400" lon="7.12856900"><ele></ele><time>2014-8-17T9:17:16Z</time></trkpt>
<trkpt lat="47.14921200" lon="7.12891100"><ele></ele><time>2014-8-17T9:17:19Z</time></trkpt>
<trkpt lat="47.14907500" lon="7.12926700"><ele></ele><time>2014-8-17T9:17:22Z</time></trkpt>
<trkpt lat="47.14893700" lon="7.12962200"><ele></ele><time>2014-8-17T9:17:25Z</time></trkpt>
<trkpt lat="47.14886300" lon="7.12977000"><ele></ele><time>2014-8-17T9:17:28Z</time></trkpt>
<trkpt lat="47.14879000" lon="7.12991800"><ele></ele><time>2014-8-17T9:17:31Z</time></trkpt>
<trkpt lat="47.14871600" lon="7.13006600"><ele></ele><time>2014-8-17T9:17:34Z</time></trkpt>
<trkpt lat="47.14868900" lon="7.13015000"><ele></ele><time>2014-8-17T9:17:37Z</time></trkpt>
<trkpt lat="47.14862400" lon="7.13041300"><ele></ele><time>2014-8-17T9:17:40Z</time></trkpt>
<trkpt lat="47.14859900" lon="7.13042500"><ele></ele><time>2014-8-17T9:17:43Z</time></trkpt>
<trkpt lat="47.14857400" lon="7.13043800"><ele></ele><time>2014-8-17T9:17:46Z</time></trkpt>
<trkpt lat="47.14854900" lon="7.13045000"><ele></ele><time>2014-8-17T9:17:49Z</time></trkpt>
<trkpt lat="47.14852400" lon="7.13046300"><ele></ele><time>2014-8-17T9:17:52Z</time></trkpt>
<trkpt lat="47.14849900" lon="7.13047600"><ele></ele><time>2014-8-17T9:17:55Z</time></trkpt>
<trkpt lat="47.14851000" lon="7.13040100"><ele></ele><time>2014-8-17T9:17:58Z</time></trkpt>
<trkpt lat="47.14840700" lon="7.13013600"><ele></ele><time>2014-8-17T9:18:1Z</time></trkpt>
<trkpt lat="47.14818600" lon="7.12967600"><ele></ele><time>2014-8-17T9:18:4Z</time></trkpt>
<trkpt lat="47.14805200" lon="7.12930600"><ele></ele><time>2014-8-17T9:18:7Z</time></trkpt>
<trkpt lat="47.14793000" lon="7.12902000"><ele></ele><time>2014-8-17T9:18:10Z</time></trkpt>
<trkpt lat="47.14780800" lon="7.12873300"><ele></ele><time>2014-8-17T9:18:13Z</time></trkpt>
<trkpt lat="47.14773900" lon="7.12858600"><ele></ele><time>2014-8-17T9:18:16Z</time></trkpt>
<trkpt lat="47.14755600" lon="7.12823500"><ele></ele><time>2014-8-17T9:18:19Z</time></trkpt>
<trkpt lat="47.14736600" lon="7.12777900"><ele></ele><time>2014-8-17T9:18:22Z</time></trkpt>
<trkpt lat="47.14704900" lon="7.12717200"><ele></ele><time>2014-8-17T9:18:25Z</time></trkpt>
<trkpt lat="47.14694200" lon="7.12691000"><ele></ele><time>2014-8-17T9:18:28Z</time></trkpt>
<trkpt lat="47.14691500" lon="7.12681100"><ele></ele><time>2014-8-17T9:18:31Z</time></trkpt>
<trkpt lat="47.14688900" lon="7.12619600"><ele></ele><time>2014-8-17T9:18:34Z</time></trkpt>
<trkpt lat="47.14689600" lon="7.12520600"><ele></ele><time>2014-8-17T9:18:37Z</time></trkpt>
<trkpt lat="47.14690400" lon="7.12450000"><ele></ele><time>2014-8-17T9:18:40Z</time></trkpt>
<trkpt lat="47.14691200" lon="7.12376700"><ele></ele><time>2014-8-17T9:18:43Z</time></trkpt>
<trkpt lat="47.14691900" lon="7.12328300"><ele></ele><time>2014-8-17T9:18:46Z</time></trkpt>
<trkpt lat="47.14692700" lon="7.12273100"><ele></ele><time>2014-8-17T9:18:49Z</time></trkpt>
<trkpt lat="47.14693100" lon="7.12245800"><ele></ele><time>2014-8-17T9:18:52Z</time></trkpt>
<trkpt lat="47.14691700" lon="7.12226900"><ele></ele><time>2014-8-17T9:18:55Z</time></trkpt>
<trkpt lat="47.14690300" lon="7.12208000"><ele></ele><time>2014-8-17T9:18:58Z</time></trkpt>
<trkpt lat="47.14688900" lon="7.12189100"><ele></ele><time>2014-8-17T9:19:1Z</time></trkpt>
<trkpt lat="47.14689600" lon="7.12186200"><ele></ele><time>2014-8-17T9:19:4Z</time></trkpt>
<trkpt lat="47.14682300" lon="7.12185400"><ele></ele><time>2014-8-17T9:19:7Z</time></trkpt>
<trkpt lat="47.14674900" lon="7.12184500"><ele></ele><time>2014-8-17T9:19:10Z</time></trkpt>
<trkpt lat="47.14667600" lon="7.12183700"><ele></ele><time>2014-8-17T9:19:13Z</time></trkpt>
<trkpt lat="47.14660300" lon="7.12182900"><ele></ele><time>2014-8-17T9:19:16Z</time></trkpt>
<trkpt lat="47.14629400" lon="7.12178400"><ele></ele><time>2014-8-17T9:19:19Z</time></trkpt>
<trkpt lat="47.14598500" lon="7.12173900"><ele></ele><time>2014-8-17T9:19:22Z</time></trkpt>
<trkpt lat="47.14586300" lon="7.12180000"><ele></ele><time>2014-8-17T9:19:25Z</time></trkpt>
<trkpt lat="47.14572500" lon="7.12201200"><ele></ele><time>2014-8-17T9:19:28Z</time></trkpt>
<trkpt lat="47.14563200" lon="7.12216600"><ele></ele><time>2014-8-17T9:19:31Z</time></trkpt>
<trkpt lat="47.14553800" lon="7.12232100"><ele></ele><time>2014-8-17T9:19:34Z</time></trkpt>
<trkpt lat="47.14506900" lon="7.12245900"><ele></ele><time>2014-8-17T9:19:37Z</time></trkpt>
<trkpt lat="47.14485500" lon="7.12246300"><ele></ele><time>2014-8-17T9:19:40Z</time></trkpt>
<trkpt lat="47.14464200" lon="7.12246800"><ele></ele><time>2014-8-17T9:19:43Z</time></trkpt>
<trkpt lat="47.14442800" lon="7.12247200"><ele></ele><time>2014-8-17T9:19:46Z</time></trkpt>
<trkpt lat="47.14420700" lon="7.12214800"><ele></ele><time>2014-8-17T9:19:49Z</time></trkpt>
<trkpt lat="47.14388200" lon="7.12164200"><ele></ele><time>2014-8-17T9:19:52Z</time></trkpt>
<trkpt lat="47.14355600" lon="7.12113700"><ele></ele><time>2014-8-17T9:19:55Z</time></trkpt>
<trkpt lat="47.14323100" lon="7.12063200"><ele></ele><time>2014-8-17T9:19:58Z</time></trkpt>
<trkpt lat="47.14290600" lon="7.12012700"><ele></ele><time>2014-8-17T9:20:1Z</time></trkpt>
<trkpt lat="47.14258000" lon="7.11962200"><ele></ele><time>2014-8-17T9:20:4Z</time></trkpt>
<trkpt lat="47.14225500" lon="7.11911700"><ele></ele><time>2014-8-17T9:20:7Z</time></trkpt>
<trkpt lat="47.14193000" lon="7.11861200"><ele></ele><time>2014-8-17T9:20:10Z</time></trkpt>
<trkpt lat="47.14125100" lon="7.11726800"><ele></ele><time>2014-8-17T9:20:13Z</time></trkpt>
<trkpt lat="47.14057200" lon="7.11592500"><ele></ele><time>2014-8-17T9:20:16Z</time></trkpt>
<trkpt lat="47.13989300" lon="7.11458100"><ele></ele><time>2014-8-17T9:20:19Z</time></trkpt>
<trkpt lat="47.13921400" lon="7.11323800"><ele></ele><time>2014-8-17T9:20:22Z</time></trkpt>
<trkpt lat="47.13853500" lon="7.11189500"><ele></ele><time>2014-8-17T9:20:25Z</time></trkpt>
<trkpt lat="47.13839000" lon="7.11175400"><ele></ele><time>2014-8-17T9:20:28Z</time></trkpt>
<trkpt lat="47.13798800" lon="7.11147500"><ele></ele><time>2014-8-17T9:20:31Z</time></trkpt>
<trkpt lat="47.13758600" lon="7.11119500"><ele></ele><time>2014-8-17T9:20:34Z</time></trkpt>
<trkpt lat="47.13718400" lon="7.11091500"><ele></ele><time>2014-8-17T9:20:37Z</time></trkpt>
<trkpt lat="47.13678200" lon="7.11063500"><ele></ele><time>2014-8-17T9:20:40Z</time></trkpt>
<trkpt lat="47.13638100" lon="7.11035500"><ele></ele><time>2014-8-17T9:20:43Z</time></trkpt>
<trkpt lat="47.13597900" lon="7.11007500"><ele></ele><time>2014-8-17T9:20:46Z</time></trkpt>
<trkpt lat="47.13557700" lon="7.10979500"><ele></ele><time>2014-8-17T9:20:49Z</time></trkpt>
<trkpt lat="47.13517500" lon="7.10951600"><ele></ele><time>2014-8-17T9:20:52Z</time></trkpt>
<trkpt lat="47.13477300" lon="7.10923600"><ele></ele><time>2014-8-17T9:20:55Z</time></trkpt>
<trkpt lat="47.13438800" lon="7.10936100"><ele></ele><time>2014-8-17T9:20:58Z</time></trkpt>
<trkpt lat="47.13400300" lon="7.10948700"><ele></ele><time>2014-8-17T9:21:1Z</time></trkpt>
<trkpt lat="47.13361700" lon="7.10961200"><ele></ele><time>2014-8-17T9:21:4Z</time></trkpt>
<trkpt lat="47.13279000" lon="7.10963900"><ele></ele><time>2014-8-17T9:21:7Z</time></trkpt>
<trkpt lat="47.13221700" lon="7.10967400"><ele></ele><time>2014-8-17T9:21:10Z</time></trkpt>
<trkpt lat="47.13222100" lon="7.10964900"><ele></ele><time>2014-8-17T9:21:13Z</time></trkpt>
<trkpt lat="47.13222500" lon="7.10962500"><ele></ele><time>2014-8-17T9:21:16Z</time></trkpt>
<trkpt lat="47.13222900" lon="7.10960000"><ele></ele><time>2014-8-17T9:21:19Z</time></trkpt>
<trkpt lat="47.13223300" lon="7.10957600"><ele></ele><time>2014-8-17T9:21:22Z</time></trkpt>
<trkpt lat="47.13223600" lon="7.10955100"><ele></ele><time>2014-8-17T9:21:25Z</time></trkpt>
<trkpt lat="47.13227500" lon="7.10954600"><ele></ele><time>2014-8-17T9:21:28Z</time></trkpt>
<trkpt lat="47.13239700" lon="7.10953200"><ele></ele><time>2014-8-17T9:21:31Z</time></trkpt>
<trkpt lat="47.13235600" lon="7.10953600"><ele></ele><time>2014-8-17T9:21:34Z</time></trkpt>
<trkpt lat="47.13231600" lon="7.10953900"><ele></ele><time>2014-8-17T9:21:37Z</time></trkpt>
<trkpt lat="47.13227500" lon="7.10954300"><ele></ele><time>2014-8-17T9:21:40Z</time></trkpt>
<trkpt lat="47.13223500" lon="7.10954600"><ele></ele><time>2014-8-17T9:21:43Z</time></trkpt>
<trkpt lat="47.13219500" lon="7.10955000"><ele></ele><time>2014-8-17T9:21:46Z</time></trkpt>
<trkpt lat="47.13209500" lon="7.10956700"><ele></ele><time>2014-8-17T9:21:49Z</time></trkpt>
<trkpt lat="47.13188600" lon="7.10957700"><ele></ele><time>2014-8-17T9:21:52Z</time></trkpt>
<trkpt lat="47.13161100" lon="7.10947600"><ele></ele><time>2014-8-17T9:21:55Z</time></trkpt>
<trkpt lat="47.13131700" lon="7.10936200"><ele></ele><time>2014-8-17T9:21:58Z</time></trkpt>
<trkpt lat="47.13099300" lon="7.10920600"><ele></ele><time>2014-8-17T9:22:1Z</time></trkpt>
<trkpt lat="47.13059200" lon="7.10897100"><ele></ele><time>2014-8-17T9:22:4Z</time></trkpt>
<trkpt lat="47.13019200" lon="7.10873600"><ele></ele><time>2014-8-17T9:22:7Z</time></trkpt>
<trkpt lat="47.12979100" lon="7.10850000"><ele></ele><time>2014-8-17T9:22:10Z</time></trkpt>
<trkpt lat="47.12976800" lon="7.10846900"><ele></ele><time>2014-8-17T9:22:13Z</time></trkpt>
<trkpt lat="47.12978700" lon="7.10784800"><ele></ele><time>2014-8-17T9:22:16Z</time></trkpt>
<trkpt lat="47.12980700" lon="7.10722800"><ele></ele><time>2014-8-17T9:22:19Z</time></trkpt>
<trkpt lat="47.12981000" lon="7.10711900"><ele></ele><time>2014-8-17T9:22:22Z</time></trkpt>
<trkpt lat="47.12979100" lon="7.10704500"><ele></ele><time>2014-8-17T9:22:25Z</time></trkpt>
<trkpt lat="47.12960800" lon="7.10678300"><ele></ele><time>2014-8-17T9:22:28Z</time></trkpt>
<trkpt lat="47.12949400" lon="7.10662700"><ele></ele><time>2014-8-17T9:22:31Z</time></trkpt>
<trkpt lat="47.12946300" lon="7.10651600"><ele></ele><time>2014-8-17T9:22:34Z</time></trkpt>
<trkpt lat="47.12951300" lon="7.10634900"><ele></ele><time>2014-8-17T9:22:37Z</time></trkpt>
<trkpt lat="47.12966200" lon="7.10620400"><ele></ele><time>2014-8-17T9:22:40Z</time></trkpt>
<trkpt lat="47.12969600" lon="7.10616800"><ele></ele><time>2014-8-17T9:22:43Z</time></trkpt>
<trkpt lat="47.12982200" lon="7.10581600"><ele></ele><time>2014-8-17T9:22:46Z</time></trkpt>
<trkpt lat="47.12997800" lon="7.10539400"><ele></ele><time>2014-8-17T9:22:49Z</time></trkpt>
<trkpt lat="47.13015000" lon="7.10498500"><ele></ele><time>2014-8-17T9:22:52Z</time></trkpt>
<trkpt lat="47.13031000" lon="7.10468000"><ele></ele><time>2014-8-17T9:22:55Z</time></trkpt>
<trkpt lat="47.13041300" lon="7.10448500"><ele></ele><time>2014-8-17T9:22:58Z</time></trkpt>
<trkpt lat="47.13060000" lon="7.10419300"><ele></ele><time>2014-8-17T9:23:1Z</time></trkpt>
<trkpt lat="47.13061900" lon="7.10410100"><ele></ele><time>2014-8-17T9:23:4Z</time></trkpt>
<trkpt lat="47.13049700" lon="7.10392600"><ele></ele><time>2014-8-17T9:23:7Z</time></trkpt>
<trkpt lat="47.13025300" lon="7.10359500"><ele></ele><time>2014-8-17T9:23:10Z</time></trkpt>
<trkpt lat="47.12987500" lon="7.10299500"><ele></ele><time>2014-8-17T9:23:13Z</time></trkpt>
<trkpt lat="47.12941000" lon="7.10234100"><ele></ele><time>2014-8-17T9:23:16Z</time></trkpt>
<trkpt lat="47.12895200" lon="7.10183400"><ele></ele><time>2014-8-17T9:23:19Z</time></trkpt>
<trkpt lat="47.12859300" lon="7.10136700"><ele></ele><time>2014-8-17T9:23:22Z</time></trkpt>
<trkpt lat="47.12802900" lon="7.10063300"><ele></ele><time>2014-8-17T9:23:25Z</time></trkpt>
<trkpt lat="47.12766300" lon="7.10023900"><ele></ele><time>2014-8-17T9:23:28Z</time></trkpt>
<trkpt lat="47.12716700" lon="7.09997300"><ele></ele><time>2014-8-17T9:23:31Z</time></trkpt>
<trkpt lat="47.12660600" lon="7.09960200"><ele></ele><time>2014-8-17T9:23:34Z</time></trkpt>
<trkpt lat="47.12612900" lon="7.09924900"><ele></ele><time>2014-8-17T9:23:37Z</time></trkpt>
<trkpt lat="47.12556500" lon="7.09893100"><ele></ele><time>2014-8-17T9:23:40Z</time></trkpt>
<trkpt lat="47.12535100" lon="7.09889100"><ele></ele><time>2014-8-17T9:23:43Z</time></trkpt>
<trkpt lat="47.12515300" lon="7.09881300"><ele></ele><time>2014-8-17T9:23:46Z</time></trkpt>
<trkpt lat="47.12493100" lon="7.09840200"><ele></ele><time>2014-8-17T9:23:49Z</time></trkpt>
<trkpt lat="47.12450000" lon="7.09760600"><ele></ele><time>2014-8-17T9:23:52Z</time></trkpt>
<trkpt lat="47.12393200" lon="7.09666600"><ele></ele><time>2014-8-17T9:23:55Z</time></trkpt>
<trkpt lat="47.12326000" lon="7.09563100"><ele></ele><time>2014-8-17T9:23:58Z</time></trkpt>
<trkpt lat="47.12258900" lon="7.09459500"><ele></ele><time>2014-8-17T9:24:1Z</time></trkpt>
<trkpt lat="47.12210800" lon="7.09355300"><ele></ele><time>2014-8-17T9:24:4Z</time></trkpt>
<trkpt lat="47.12187600" lon="7.09279000"><ele></ele><time>2014-8-17T9:24:7Z</time></trkpt>
<trkpt lat="47.12164300" lon="7.09202800"><ele></ele><time>2014-8-17T9:24:10Z</time></trkpt>
<trkpt lat="47.12137600" lon="7.09139300"><ele></ele><time>2014-8-17T9:24:13Z</time></trkpt>
<trkpt lat="47.12102500" lon="7.09050600"><ele></ele><time>2014-8-17T9:24:16Z</time></trkpt>
<trkpt lat="47.12022400" lon="7.08896100"><ele></ele><time>2014-8-17T9:24:19Z</time></trkpt>
<trkpt lat="47.12011000" lon="7.08870900"><ele></ele><time>2014-8-17T9:24:22Z</time></trkpt>
<trkpt lat="47.11991500" lon="7.08772800"><ele></ele><time>2014-8-17T9:24:25Z</time></trkpt>
<trkpt lat="47.11972000" lon="7.08674600"><ele></ele><time>2014-8-17T9:24:28Z</time></trkpt>
<trkpt lat="47.11954500" lon="7.08569600"><ele></ele><time>2014-8-17T9:24:31Z</time></trkpt>
<trkpt lat="47.11935800" lon="7.08518600"><ele></ele><time>2014-8-17T9:24:34Z</time></trkpt>
<trkpt lat="47.11893500" lon="7.08455700"><ele></ele><time>2014-8-17T9:24:37Z</time></trkpt>
<trkpt lat="47.11873600" lon="7.08420700"><ele></ele><time>2014-8-17T9:24:40Z</time></trkpt>
<trkpt lat="47.11856800" lon="7.08332300"><ele></ele><time>2014-8-17T9:24:43Z</time></trkpt>
<trkpt lat="47.11848800" lon="7.08254700"><ele></ele><time>2014-8-17T9:24:46Z</time></trkpt>
<trkpt lat="47.11838200" lon="7.08191900"><ele></ele><time>2014-8-17T9:24:49Z</time></trkpt>
<trkpt lat="47.11822900" lon="7.08149100"><ele></ele><time>2014-8-17T9:24:52Z</time></trkpt>
<trkpt lat="47.11816000" lon="7.08130100"><ele></ele><time>2014-8-17T9:24:55Z</time></trkpt>
<trkpt lat="47.11786300" lon="7.08089500"><ele></ele><time>2014-8-17T9:24:58Z</time></trkpt>
<trkpt lat="47.11766800" lon="7.08042800"><ele></ele><time>2014-8-17T9:25:1Z</time></trkpt>
<trkpt lat="47.11759200" lon="7.08019300"><ele></ele><time>2014-8-17T9:25:4Z</time></trkpt>
<trkpt lat="47.11747000" lon="7.07996700"><ele></ele><time>2014-8-17T9:25:7Z</time></trkpt>
<trkpt lat="47.11706900" lon="7.07970200"><ele></ele><time>2014-8-17T9:25:10Z</time></trkpt>
<trkpt lat="47.11682900" lon="7.07962800"><ele></ele><time>2014-8-17T9:25:13Z</time></trkpt>
<trkpt lat="47.11606600" lon="7.07964600"><ele></ele><time>2014-8-17T9:25:16Z</time></trkpt>
<trkpt lat="47.11527300" lon="7.08002700"><ele></ele><time>2014-8-17T9:25:19Z</time></trkpt>
<trkpt lat="47.11447900" lon="7.08040900"><ele></ele><time>2014-8-17T9:25:22Z</time></trkpt>
<trkpt lat="47.11437400" lon="7.08046000"><ele></ele><time>2014-8-17T9:25:25Z</time></trkpt>
<trkpt lat="47.11426900" lon="7.08051100"><ele></ele><time>2014-8-17T9:25:28Z</time></trkpt>
<trkpt lat="47.11416400" lon="7.08056200"><ele></ele><time>2014-8-17T9:25:31Z</time></trkpt>
<trkpt lat="47.11405900" lon="7.08061300"><ele></ele><time>2014-8-17T9:25:34Z</time></trkpt>
<trkpt lat="47.11395500" lon="7.08066400"><ele></ele><time>2014-8-17T9:25:37Z</time></trkpt>
<trkpt lat="47.11385000" lon="7.08071600"><ele></ele><time>2014-8-17T9:25:40Z</time></trkpt>
<trkpt lat="47.11374500" lon="7.08076700"><ele></ele><time>2014-8-17T9:25:43Z</time></trkpt>
<trkpt lat="47.11364000" lon="7.08081800"><ele></ele><time>2014-8-17T9:25:46Z</time></trkpt>
<trkpt lat="47.11360200" lon="7.08088100"><ele></ele><time>2014-8-17T9:25:49Z</time></trkpt>
<trkpt lat="47.11356700" lon="7.08092000"><ele></ele><time>2014-8-17T9:25:52Z</time></trkpt>
<trkpt lat="47.11339600" lon="7.08112900"><ele></ele><time>2014-8-17T9:25:55Z</time></trkpt>
<trkpt lat="47.11322400" lon="7.08133900"><ele></ele><time>2014-8-17T9:25:58Z</time></trkpt>
<trkpt lat="47.11312100" lon="7.08138400"><ele></ele><time>2014-8-17T9:26:1Z</time></trkpt>
<trkpt lat="47.11298000" lon="7.08103400"><ele></ele><time>2014-8-17T9:26:4Z</time></trkpt>
<trkpt lat="47.11285800" lon="7.08084400"><ele></ele><time>2014-8-17T9:26:7Z</time></trkpt>
<trkpt lat="47.11274300" lon="7.08066800"><ele></ele><time>2014-8-17T9:26:10Z</time></trkpt>
<trkpt lat="47.11262100" lon="7.08049300"><ele></ele><time>2014-8-17T9:26:13Z</time></trkpt>
<trkpt lat="47.11245000" lon="7.08020500"><ele></ele><time>2014-8-17T9:26:16Z</time></trkpt>
<trkpt lat="47.11238900" lon="7.08010700"><ele></ele><time>2014-8-17T9:26:19Z</time></trkpt>
<trkpt lat="47.11208300" lon="7.07961100"><ele></ele><time>2014-8-17T9:26:22Z</time></trkpt>
<trkpt lat="47.11187000" lon="7.07905100"><ele></ele><time>2014-8-17T9:26:25Z</time></trkpt>
<trkpt lat="47.11149600" lon="7.07804500"><ele></ele><time>2014-8-17T9:26:28Z</time></trkpt>
<trkpt lat="47.11116800" lon="7.07722800"><ele></ele><time>2014-8-17T9:26:31Z</time></trkpt>
<trkpt lat="47.11101200" lon="7.07679600"><ele></ele><time>2014-8-17T9:26:34Z</time></trkpt>
<trkpt lat="47.11093900" lon="7.07647700"><ele></ele><time>2014-8-17T9:26:37Z</time></trkpt>
<trkpt lat="47.11089300" lon="7.07596700"><ele></ele><time>2014-8-17T9:26:40Z</time></trkpt>
<trkpt lat="47.11087800" lon="7.07562700"><ele></ele><time>2014-8-17T9:26:43Z</time></trkpt>
<trkpt lat="47.11082100" lon="7.07529300"><ele></ele><time>2014-8-17T9:26:46Z</time></trkpt>
<trkpt lat="47.11069500" lon="7.07500500"><ele></ele><time>2014-8-17T9:26:49Z</time></trkpt>
<trkpt lat="47.11020300" lon="7.07444500"><ele></ele><time>2014-8-17T9:26:52Z</time></trkpt>
<trkpt lat="47.10974900" lon="7.07386100"><ele></ele><time>2014-8-17T9:26:55Z</time></trkpt>
<trkpt lat="47.10944000" lon="7.07318000"><ele></ele><time>2014-8-17T9:26:58Z</time></trkpt>
<trkpt lat="47.10922200" lon="7.07256900"><ele></ele><time>2014-8-17T9:27:1Z</time></trkpt>
<trkpt lat="47.10883300" lon="7.07144700"><ele></ele><time>2014-8-17T9:27:4Z</time></trkpt>
<trkpt lat="47.10851300" lon="7.07073300"><ele></ele><time>2014-8-17T9:27:7Z</time></trkpt>
<trkpt lat="47.10804000" lon="7.07002900"><ele></ele><time>2014-8-17T9:27:10Z</time></trkpt>
<trkpt lat="47.10747900" lon="7.06943600"><ele></ele><time>2014-8-17T9:27:13Z</time></trkpt>
<trkpt lat="47.10688800" lon="7.06886700"><ele></ele><time>2014-8-17T9:27:16Z</time></trkpt>
<trkpt lat="47.10646800" lon="7.06844900"><ele></ele><time>2014-8-17T9:27:19Z</time></trkpt>
<trkpt lat="47.10590400" lon="7.06784700"><ele></ele><time>2014-8-17T9:27:22Z</time></trkpt>
<trkpt lat="47.10526700" lon="7.06716600"><ele></ele><time>2014-8-17T9:27:25Z</time></trkpt>
<trkpt lat="47.10476300" lon="7.06661700"><ele></ele><time>2014-8-17T9:27:28Z</time></trkpt>
<trkpt lat="47.10424000" lon="7.06605500"><ele></ele><time>2014-8-17T9:27:31Z</time></trkpt>
<trkpt lat="47.10300400" lon="7.06472500"><ele></ele><time>2014-8-17T9:27:34Z</time></trkpt>
<trkpt lat="47.10239800" lon="7.06408700"><ele></ele><time>2014-8-17T9:27:37Z</time></trkpt>
<trkpt lat="47.10175700" lon="7.06353100"><ele></ele><time>2014-8-17T9:27:40Z</time></trkpt>
<trkpt lat="47.10107400" lon="7.06305400"><ele></ele><time>2014-8-17T9:27:43Z</time></trkpt>
<trkpt lat="47.10020800" lon="7.06248800"><ele></ele><time>2014-8-17T9:27:46Z</time></trkpt>
<trkpt lat="47.09981200" lon="7.06223900"><ele></ele><time>2014-8-17T9:27:49Z</time></trkpt>
<trkpt lat="47.09913300" lon="7.06189600"><ele></ele><time>2014-8-17T9:27:52Z</time></trkpt>
<trkpt lat="47.09846100" lon="7.06170200"><ele></ele><time>2014-8-17T9:27:55Z</time></trkpt>
<trkpt lat="47.09832800" lon="7.06159400"><ele></ele><time>2014-8-17T9:27:58Z</time></trkpt>
<trkpt lat="47.09827800" lon="7.06139900"><ele></ele><time>2014-8-17T9:28:1Z</time></trkpt>
<trkpt lat="47.09832000" lon="7.06072200"><ele></ele><time>2014-8-17T9:28:4Z</time></trkpt>
<trkpt lat="47.09833500" lon="7.06029700"><ele></ele><time>2014-8-17T9:28:7Z</time></trkpt>
<trkpt lat="47.09838500" lon="7.05967000"><ele></ele><time>2014-8-17T9:28:10Z</time></trkpt>
<trkpt lat="47.09842700" lon="7.05895200"><ele></ele><time>2014-8-17T9:28:13Z</time></trkpt>
<trkpt lat="47.09845000" lon="7.05858100"><ele></ele><time>2014-8-17T9:28:16Z</time></trkpt>
<trkpt lat="47.09851100" lon="7.05768800"><ele></ele><time>2014-8-17T9:28:19Z</time></trkpt>
<trkpt lat="47.09856000" lon="7.05694500"><ele></ele><time>2014-8-17T9:28:22Z</time></trkpt>
<trkpt lat="47.09861000" lon="7.05618000"><ele></ele><time>2014-8-17T9:28:25Z</time></trkpt>
<trkpt lat="47.09862900" lon="7.05571900"><ele></ele><time>2014-8-17T9:28:28Z</time></trkpt>
<trkpt lat="47.09869000" lon="7.05488300"><ele></ele><time>2014-8-17T9:28:31Z</time></trkpt>
<trkpt lat="47.09872800" lon="7.05423100"><ele></ele><time>2014-8-17T9:28:34Z</time></trkpt>
<trkpt lat="47.09875500" lon="7.05364400"><ele></ele><time>2014-8-17T9:28:37Z</time></trkpt>
<trkpt lat="47.09879700" lon="7.05260600"><ele></ele><time>2014-8-17T9:28:40Z</time></trkpt>
<trkpt lat="47.09879300" lon="7.05191500"><ele></ele><time>2014-8-17T9:28:43Z</time></trkpt>
<trkpt lat="47.09873600" lon="7.05133400"><ele></ele><time>2014-8-17T9:28:46Z</time></trkpt>
<trkpt lat="47.09868200" lon="7.05087000"><ele></ele><time>2014-8-17T9:28:49Z</time></trkpt>
<trkpt lat="47.09860600" lon="7.05047500"><ele></ele><time>2014-8-17T9:28:52Z</time></trkpt>
<trkpt lat="47.09851100" lon="7.04999800"><ele></ele><time>2014-8-17T9:28:55Z</time></trkpt>
<trkpt lat="47.09838500" lon="7.04954500"><ele></ele><time>2014-8-17T9:28:58Z</time></trkpt>
<trkpt lat="47.09822800" lon="7.04903000"><ele></ele><time>2014-8-17T9:29:1Z</time></trkpt>
<trkpt lat="47.09805300" lon="7.04853900"><ele></ele><time>2014-8-17T9:29:4Z</time></trkpt>
<trkpt lat="47.09789700" lon="7.04813100"><ele></ele><time>2014-8-17T9:29:7Z</time></trkpt>
<trkpt lat="47.09767200" lon="7.04758500"><ele></ele><time>2014-8-17T9:29:10Z</time></trkpt>
<trkpt lat="47.09748800" lon="7.04712400"><ele></ele><time>2014-8-17T9:29:13Z</time></trkpt>
<trkpt lat="47.09725200" lon="7.04654800"><ele></ele><time>2014-8-17T9:29:16Z</time></trkpt>
<trkpt lat="47.09695400" lon="7.04594700"><ele></ele><time>2014-8-17T9:29:19Z</time></trkpt>
<trkpt lat="47.09668000" lon="7.04546500"><ele></ele><time>2014-8-17T9:29:22Z</time></trkpt>
<trkpt lat="47.09647400" lon="7.04513100"><ele></ele><time>2014-8-17T9:29:25Z</time></trkpt>
<trkpt lat="47.09612300" lon="7.04455800"><ele></ele><time>2014-8-17T9:29:28Z</time></trkpt>
<trkpt lat="47.09577900" lon="7.04401000"><ele></ele><time>2014-8-17T9:29:31Z</time></trkpt>
<trkpt lat="47.09550500" lon="7.04356600"><ele></ele><time>2014-8-17T9:29:34Z</time></trkpt>
<trkpt lat="47.09522600" lon="7.04310800"><ele></ele><time>2014-8-17T9:29:37Z</time></trkpt>
<trkpt lat="47.09494000" lon="7.04257300"><ele></ele><time>2014-8-17T9:29:40Z</time></trkpt>
<trkpt lat="47.09458500" lon="7.04188400"><ele></ele><time>2014-8-17T9:29:43Z</time></trkpt>
<trkpt lat="47.09427300" lon="7.04128600"><ele></ele><time>2014-8-17T9:29:46Z</time></trkpt>
<trkpt lat="47.09396000" lon="7.04067000"><ele></ele><time>2014-8-17T9:29:49Z</time></trkpt>
<trkpt lat="47.09361300" lon="7.03999100"><ele></ele><time>2014-8-17T9:29:52Z</time></trkpt>
<trkpt lat="47.09317800" lon="7.03916200"><ele></ele><time>2014-8-17T9:29:55Z</time></trkpt>
<trkpt lat="47.09289900" lon="7.03860300"><ele></ele><time>2014-8-17T9:29:58Z</time></trkpt>
<trkpt lat="47.09259800" lon="7.03801600"><ele></ele><time>2014-8-17T9:30:1Z</time></trkpt>
<trkpt lat="47.09234200" lon="7.03752100"><ele></ele><time>2014-8-17T9:30:4Z</time></trkpt>
<trkpt lat="47.09201400" lon="7.03687000"><ele></ele><time>2014-8-17T9:30:7Z</time></trkpt>
<trkpt lat="47.09173600" lon="7.03634000"><ele></ele><time>2014-8-17T9:30:10Z</time></trkpt>
<trkpt lat="47.09143400" lon="7.03576100"><ele></ele><time>2014-8-17T9:30:13Z</time></trkpt>
<trkpt lat="47.09106100" lon="7.03502600"><ele></ele><time>2014-8-17T9:30:16Z</time></trkpt>
<trkpt lat="47.09078200" lon="7.03447900"><ele></ele><time>2014-8-17T9:30:19Z</time></trkpt>
<trkpt lat="47.09039700" lon="7.03378500"><ele></ele><time>2014-8-17T9:30:22Z</time></trkpt>
<trkpt lat="47.08992800" lon="7.03310900"><ele></ele><time>2014-8-17T9:30:25Z</time></trkpt>
<trkpt lat="47.08940100" lon="7.03252400"><ele></ele><time>2014-8-17T9:30:28Z</time></trkpt>
<trkpt lat="47.08883300" lon="7.03204700"><ele></ele><time>2014-8-17T9:30:31Z</time></trkpt>
<trkpt lat="47.08845500" lon="7.03179000"><ele></ele><time>2014-8-17T9:30:34Z</time></trkpt>
<trkpt lat="47.08806200" lon="7.03156800"><ele></ele><time>2014-8-17T9:30:37Z</time></trkpt>
<trkpt lat="47.08744000" lon="7.03132200"><ele></ele><time>2014-8-17T9:30:40Z</time></trkpt>
<trkpt lat="47.08678400" lon="7.03119600"><ele></ele><time>2014-8-17T9:30:43Z</time></trkpt>
<trkpt lat="47.08625400" lon="7.03115800"><ele></ele><time>2014-8-17T9:30:46Z</time></trkpt>
<trkpt lat="47.08570100" lon="7.03112300"><ele></ele><time>2014-8-17T9:30:49Z</time></trkpt>
<trkpt lat="47.08533500" lon="7.03096300"><ele></ele><time>2014-8-17T9:30:52Z</time></trkpt>
<trkpt lat="47.08504900" lon="7.03069400"><ele></ele><time>2014-8-17T9:30:55Z</time></trkpt>
<trkpt lat="47.08478200" lon="7.03032600"><ele></ele><time>2014-8-17T9:30:58Z</time></trkpt>
<trkpt lat="47.08449200" lon="7.02991000"><ele></ele><time>2014-8-17T9:31:1Z</time></trkpt>
<trkpt lat="47.08411000" lon="7.02945600"><ele></ele><time>2014-8-17T9:31:4Z</time></trkpt>
<trkpt lat="47.08374000" lon="7.02914300"><ele></ele><time>2014-8-17T9:31:7Z</time></trkpt>
<trkpt lat="47.08317900" lon="7.02877700"><ele></ele><time>2014-8-17T9:31:10Z</time></trkpt>
<trkpt lat="47.08286700" lon="7.02869400"><ele></ele><time>2014-8-17T9:31:13Z</time></trkpt>
<trkpt lat="47.08278300" lon="7.02865300"><ele></ele><time>2014-8-17T9:31:16Z</time></trkpt>
<trkpt lat="47.08248100" lon="7.02833600"><ele></ele><time>2014-8-17T9:31:19Z</time></trkpt>
<trkpt lat="47.08229800" lon="7.02805600"><ele></ele><time>2014-8-17T9:31:22Z</time></trkpt>
<trkpt lat="47.08227200" lon="7.02804300"><ele></ele><time>2014-8-17T9:31:25Z</time></trkpt>
<trkpt lat="47.08224500" lon="7.02803000"><ele></ele><time>2014-8-17T9:31:28Z</time></trkpt>
<trkpt lat="47.08221800" lon="7.02801700"><ele></ele><time>2014-8-17T9:31:31Z</time></trkpt>
<trkpt lat="47.08219900" lon="7.02800600"><ele></ele><time>2014-8-17T9:31:34Z</time></trkpt>
<trkpt lat="47.08217600" lon="7.02798500"><ele></ele><time>2014-8-17T9:31:37Z</time></trkpt>
<trkpt lat="47.08214600" lon="7.02795700"><ele></ele><time>2014-8-17T9:31:40Z</time></trkpt>
<trkpt lat="47.08180200" lon="7.02771900"><ele></ele><time>2014-8-17T9:31:43Z</time></trkpt>
<trkpt lat="47.08130300" lon="7.02739900"><ele></ele><time>2014-8-17T9:31:46Z</time></trkpt>
<trkpt lat="47.08059700" lon="7.02681100"><ele></ele><time>2014-8-17T9:31:49Z</time></trkpt>
<trkpt lat="47.07991400" lon="7.02634000"><ele></ele><time>2014-8-17T9:31:52Z</time></trkpt>
<trkpt lat="47.07916300" lon="7.02603000"><ele></ele><time>2014-8-17T9:31:55Z</time></trkpt>
<trkpt lat="47.07840000" lon="7.02573400"><ele></ele><time>2014-8-17T9:31:58Z</time></trkpt>
<trkpt lat="47.07728600" lon="7.02519400"><ele></ele><time>2014-8-17T9:32:1Z</time></trkpt>
<trkpt lat="47.07659500" lon="7.02472800"><ele></ele><time>2014-8-17T9:32:4Z</time></trkpt>
<trkpt lat="47.07588600" lon="7.02410400"><ele></ele><time>2014-8-17T9:32:7Z</time></trkpt>
<trkpt lat="47.07522600" lon="7.02332100"><ele></ele><time>2014-8-17T9:32:10Z</time></trkpt>
<trkpt lat="47.07461500" lon="7.02272400"><ele></ele><time>2014-8-17T9:32:13Z</time></trkpt>
<trkpt lat="47.07412300" lon="7.02244600"><ele></ele><time>2014-8-17T9:32:16Z</time></trkpt>
<trkpt lat="47.07366600" lon="7.02229900"><ele></ele><time>2014-8-17T9:32:19Z</time></trkpt>
<trkpt lat="47.07309000" lon="7.02220900"><ele></ele><time>2014-8-17T9:32:22Z</time></trkpt>
<trkpt lat="47.07259800" lon="7.02209500"><ele></ele><time>2014-8-17T9:32:25Z</time></trkpt>
<trkpt lat="47.07231100" lon="7.02192200"><ele></ele><time>2014-8-17T9:32:28Z</time></trkpt>
<trkpt lat="47.07166300" lon="7.02133100"><ele></ele><time>2014-8-17T9:32:31Z</time></trkpt>
<trkpt lat="47.07121700" lon="7.02091400"><ele></ele><time>2014-8-17T9:32:34Z</time></trkpt>
<trkpt lat="47.07062100" lon="7.02050800"><ele></ele><time>2014-8-17T9:32:37Z</time></trkpt>
<trkpt lat="47.06990800" lon="7.02023600"><ele></ele><time>2014-8-17T9:32:40Z</time></trkpt>
<trkpt lat="47.06929400" lon="7.01989300"><ele></ele><time>2014-8-17T9:32:43Z</time></trkpt>
<trkpt lat="47.06887800" lon="7.01953900"><ele></ele><time>2014-8-17T9:32:46Z</time></trkpt>
<trkpt lat="47.06825300" lon="7.01905700"><ele></ele><time>2014-8-17T9:32:49Z</time></trkpt>
<trkpt lat="47.06771100" lon="7.01883100"><ele></ele><time>2014-8-17T9:32:52Z</time></trkpt>
<trkpt lat="47.06720700" lon="7.01857900"><ele></ele><time>2014-8-17T9:32:55Z</time></trkpt>
<trkpt lat="47.06684500" lon="7.01817800"><ele></ele><time>2014-8-17T9:32:58Z</time></trkpt>
<trkpt lat="47.06649800" lon="7.01770200"><ele></ele><time>2014-8-17T9:33:1Z</time></trkpt>
<trkpt lat="47.06594500" lon="7.01713100"><ele></ele><time>2014-8-17T9:33:4Z</time></trkpt>
<trkpt lat="47.06557800" lon="7.01687200"><ele></ele><time>2014-8-17T9:33:7Z</time></trkpt>
<trkpt lat="47.06556000" lon="7.01684300"><ele></ele><time>2014-8-17T9:33:10Z</time></trkpt>
<trkpt lat="47.06554200" lon="7.01681400"><ele></ele><time>2014-8-17T9:33:13Z</time></trkpt>
<trkpt lat="47.06552400" lon="7.01678500"><ele></ele><time>2014-8-17T9:33:16Z</time></trkpt>
<trkpt lat="47.06550500" lon="7.01675600"><ele></ele><time>2014-8-17T9:33:19Z</time></trkpt>
<trkpt lat="47.06548700" lon="7.01672700"><ele></ele><time>2014-8-17T9:33:22Z</time></trkpt>
<trkpt lat="47.06526900" lon="7.01656200"><ele></ele><time>2014-8-17T9:33:25Z</time></trkpt>
<trkpt lat="47.06489900" lon="7.01616300"><ele></ele><time>2014-8-17T9:33:28Z</time></trkpt>
<trkpt lat="47.06472000" lon="7.01606100"><ele></ele><time>2014-8-17T9:33:31Z</time></trkpt>
<trkpt lat="47.06428900" lon="7.01595000"><ele></ele><time>2014-8-17T9:33:34Z</time></trkpt>
<trkpt lat="47.06383900" lon="7.01576800"><ele></ele><time>2014-8-17T9:33:37Z</time></trkpt>
<trkpt lat="47.06323600" lon="7.01521800"><ele></ele><time>2014-8-17T9:33:40Z</time></trkpt>
<trkpt lat="47.06301500" lon="7.01509400"><ele></ele><time>2014-8-17T9:33:43Z</time></trkpt>
<trkpt lat="47.06237400" lon="7.01493200"><ele></ele><time>2014-8-17T9:33:46Z</time></trkpt>
<trkpt lat="47.06221000" lon="7.01492300"><ele></ele><time>2014-8-17T9:33:49Z</time></trkpt>
<trkpt lat="47.06127500" lon="7.01475300"><ele></ele><time>2014-8-17T9:33:52Z</time></trkpt>
<trkpt lat="47.06077200" lon="7.01466700"><ele></ele><time>2014-8-17T9:33:55Z</time></trkpt>
<trkpt lat="47.06042500" lon="7.01458200"><ele></ele><time>2014-8-17T9:33:58Z</time></trkpt>
<trkpt lat="47.05959700" lon="7.01400700"><ele></ele><time>2014-8-17T9:34:1Z</time></trkpt>
<trkpt lat="47.05810900" lon="7.01285000"><ele></ele><time>2014-8-17T9:34:4Z</time></trkpt>
<trkpt lat="47.05776200" lon="7.01265000"><ele></ele><time>2014-8-17T9:34:7Z</time></trkpt>
<trkpt lat="47.05759000" lon="7.01256200"><ele></ele><time>2014-8-17T9:34:10Z</time></trkpt>
<trkpt lat="47.05699200" lon="7.01211700"><ele></ele><time>2014-8-17T9:34:13Z</time></trkpt>
<trkpt lat="47.05686200" lon="7.01207200"><ele></ele><time>2014-8-17T9:34:16Z</time></trkpt>
<trkpt lat="47.05647700" lon="7.01198700"><ele></ele><time>2014-8-17T9:34:19Z</time></trkpt>
<trkpt lat="47.05614500" lon="7.01179800"><ele></ele><time>2014-8-17T9:34:22Z</time></trkpt>
<trkpt lat="47.05604600" lon="7.01170800"><ele></ele><time>2014-8-17T9:34:25Z</time></trkpt>
<trkpt lat="47.05588200" lon="7.01147400"><ele></ele><time>2014-8-17T9:34:28Z</time></trkpt>
<trkpt lat="47.05558400" lon="7.01051900"><ele></ele><time>2014-8-17T9:34:31Z</time></trkpt>
<trkpt lat="47.05523700" lon="7.00963100"><ele></ele><time>2014-8-17T9:34:34Z</time></trkpt>
<trkpt lat="47.05516100" lon="7.00945300"><ele></ele><time>2014-8-17T9:34:37Z</time></trkpt>
<trkpt lat="47.05492400" lon="7.00916500"><ele></ele><time>2014-8-17T9:34:40Z</time></trkpt>
<trkpt lat="47.05434400" lon="7.00880400"><ele></ele><time>2014-8-17T9:34:43Z</time></trkpt>
<trkpt lat="47.05368800" lon="7.00845500"><ele></ele><time>2014-8-17T9:34:46Z</time></trkpt>
<trkpt lat="47.05332200" lon="7.00805000"><ele></ele><time>2014-8-17T9:34:49Z</time></trkpt>
<trkpt lat="47.05325700" lon="7.00796100"><ele></ele><time>2014-8-17T9:34:52Z</time></trkpt>
<trkpt lat="47.05309500" lon="7.00742100"><ele></ele><time>2014-8-17T9:34:55Z</time></trkpt>
<trkpt lat="47.05293300" lon="7.00688000"><ele></ele><time>2014-8-17T9:34:58Z</time></trkpt>
<trkpt lat="47.05281400" lon="7.00675400"><ele></ele><time>2014-8-17T9:35:1Z</time></trkpt>
<trkpt lat="47.05254200" lon="7.00637100"><ele></ele><time>2014-8-17T9:35:4Z</time></trkpt>
<trkpt lat="47.05226900" lon="7.00598800"><ele></ele><time>2014-8-17T9:35:7Z</time></trkpt>
<trkpt lat="47.05154700" lon="7.00521900"><ele></ele><time>2014-8-17T9:35:10Z</time></trkpt>
<trkpt lat="47.05082500" lon="7.00445000"><ele></ele><time>2014-8-17T9:35:13Z</time></trkpt>
<trkpt lat="47.05010300" lon="7.00368100"><ele></ele><time>2014-8-17T9:35:16Z</time></trkpt>
<trkpt lat="47.04938100" lon="7.00291200"><ele></ele><time>2014-8-17T9:35:19Z</time></trkpt>
<trkpt lat="47.04798900" lon="7.00126400"><ele></ele><time>2014-8-17T9:35:22Z</time></trkpt>
<trkpt lat="47.04659700" lon="6.99961700"><ele></ele><time>2014-8-17T9:35:25Z</time></trkpt>
<trkpt lat="47.04638300" lon="6.99957900"><ele></ele><time>2014-8-17T9:35:28Z</time></trkpt>
<trkpt lat="47.04616900" lon="6.99954000"><ele></ele><time>2014-8-17T9:35:31Z</time></trkpt>
<trkpt lat="47.04587400" lon="6.99952700"><ele></ele><time>2014-8-17T9:35:34Z</time></trkpt>
<trkpt lat="47.04557800" lon="6.99951400"><ele></ele><time>2014-8-17T9:35:37Z</time></trkpt>
<trkpt lat="47.04523500" lon="6.99927300"><ele></ele><time>2014-8-17T9:35:40Z</time></trkpt>
<trkpt lat="47.04462400" lon="6.99885300"><ele></ele><time>2014-8-17T9:35:43Z</time></trkpt>
<trkpt lat="47.04432300" lon="6.99862800"><ele></ele><time>2014-8-17T9:35:46Z</time></trkpt>
<trkpt lat="47.04381600" lon="6.99803400"><ele></ele><time>2014-8-17T9:35:49Z</time></trkpt>
<trkpt lat="47.04321300" lon="6.99746100"><ele></ele><time>2014-8-17T9:35:52Z</time></trkpt>
<trkpt lat="47.04245000" lon="6.99702100"><ele></ele><time>2014-8-17T9:35:55Z</time></trkpt>
<trkpt lat="47.04185100" lon="6.99668700"><ele></ele><time>2014-8-17T9:35:58Z</time></trkpt>
<trkpt lat="47.04148100" lon="6.99659900"><ele></ele><time>2014-8-17T9:36:1Z</time></trkpt>
<trkpt lat="47.04115700" lon="6.99660000"><ele></ele><time>2014-8-17T9:36:4Z</time></trkpt>
<trkpt lat="47.04103500" lon="6.99659100"><ele></ele><time>2014-8-17T9:36:7Z</time></trkpt>
<trkpt lat="47.04079100" lon="6.99648800"><ele></ele><time>2014-8-17T9:36:10Z</time></trkpt>
<trkpt lat="47.04021600" lon="6.99586600"><ele></ele><time>2014-8-17T9:36:13Z</time></trkpt>
<trkpt lat="47.03964200" lon="6.99524300"><ele></ele><time>2014-8-17T9:36:16Z</time></trkpt>
<trkpt lat="47.03918800" lon="6.99492800"><ele></ele><time>2014-8-17T9:36:19Z</time></trkpt>
<trkpt lat="47.03900900" lon="6.99480200"><ele></ele><time>2014-8-17T9:36:22Z</time></trkpt>
<trkpt lat="47.03886800" lon="6.99469100"><ele></ele><time>2014-8-17T9:36:25Z</time></trkpt>
<trkpt lat="47.03879500" lon="6.99452500"><ele></ele><time>2014-8-17T9:36:28Z</time></trkpt>
<trkpt lat="47.03859300" lon="6.99375800"><ele></ele><time>2014-8-17T9:36:31Z</time></trkpt>
<trkpt lat="47.03839100" lon="6.99299100"><ele></ele><time>2014-8-17T9:36:34Z</time></trkpt>
<trkpt lat="47.03818900" lon="6.99222400"><ele></ele><time>2014-8-17T9:36:37Z</time></trkpt>
<trkpt lat="47.03788400" lon="6.99169400"><ele></ele><time>2014-8-17T9:36:40Z</time></trkpt>
<trkpt lat="47.03760100" lon="6.99130900"><ele></ele><time>2014-8-17T9:36:43Z</time></trkpt>
<trkpt lat="47.03666700" lon="6.99149100"><ele></ele><time>2014-8-17T9:36:46Z</time></trkpt>
<trkpt lat="47.03573200" lon="6.99167300"><ele></ele><time>2014-8-17T9:36:49Z</time></trkpt>
<trkpt lat="47.03533900" lon="6.99192400"><ele></ele><time>2014-8-17T9:36:52Z</time></trkpt>
<trkpt lat="47.03494600" lon="6.99217600"><ele></ele><time>2014-8-17T9:36:55Z</time></trkpt>
<trkpt lat="47.03472100" lon="6.99184800"><ele></ele><time>2014-8-17T9:36:58Z</time></trkpt>
<trkpt lat="47.03449600" lon="6.99152000"><ele></ele><time>2014-8-17T9:37:1Z</time></trkpt>
<trkpt lat="47.03427100" lon="6.99119200"><ele></ele><time>2014-8-17T9:37:4Z</time></trkpt>
<trkpt lat="47.03371300" lon="6.99065000"><ele></ele><time>2014-8-17T9:37:7Z</time></trkpt>
<trkpt lat="47.03315500" lon="6.99010700"><ele></ele><time>2014-8-17T9:37:10Z</time></trkpt>
<trkpt lat="47.03259700" lon="6.98956500"><ele></ele><time>2014-8-17T9:37:13Z</time></trkpt>
<trkpt lat="47.03169600" lon="6.98913800"><ele></ele><time>2014-8-17T9:37:16Z</time></trkpt>
<trkpt lat="47.03079600" lon="6.98871100"><ele></ele><time>2014-8-17T9:37:19Z</time></trkpt>
<trkpt lat="47.03031200" lon="6.98846100"><ele></ele><time>2014-8-17T9:37:22Z</time></trkpt>
<trkpt lat="47.02962500" lon="6.98826600"><ele></ele><time>2014-8-17T9:37:25Z</time></trkpt>
<trkpt lat="47.02894200" lon="6.98817400"><ele></ele><time>2014-8-17T9:37:28Z</time></trkpt>
<trkpt lat="47.02886600" lon="6.98815600"><ele></ele><time>2014-8-17T9:37:31Z</time></trkpt>
<trkpt lat="47.02837400" lon="6.98768000"><ele></ele><time>2014-8-17T9:37:34Z</time></trkpt>
<trkpt lat="47.02802300" lon="6.98720000"><ele></ele><time>2014-8-17T9:37:37Z</time></trkpt>
<trkpt lat="47.02758400" lon="6.98659300"><ele></ele><time>2014-8-17T9:37:40Z</time></trkpt>
<trkpt lat="47.02734000" lon="6.98626400"><ele></ele><time>2014-8-17T9:37:43Z</time></trkpt>
<trkpt lat="47.02698500" lon="6.98587400"><ele></ele><time>2014-8-17T9:37:46Z</time></trkpt>
<trkpt lat="47.02662700" lon="6.98552300"><ele></ele><time>2014-8-17T9:37:49Z</time></trkpt>
<trkpt lat="47.02642800" lon="6.98531600"><ele></ele><time>2014-8-17T9:37:52Z</time></trkpt>
<trkpt lat="47.02614200" lon="6.98498100"><ele></ele><time>2014-8-17T9:37:55Z</time></trkpt>
<trkpt lat="47.02564600" lon="6.98438600"><ele></ele><time>2014-8-17T9:37:58Z</time></trkpt>
<trkpt lat="47.02524200" lon="6.98396200"><ele></ele><time>2014-8-17T9:38:1Z</time></trkpt>
<trkpt lat="47.02483700" lon="6.98342200"><ele></ele><time>2014-8-17T9:38:4Z</time></trkpt>
<trkpt lat="47.02442600" lon="6.98289800"><ele></ele><time>2014-8-17T9:38:7Z</time></trkpt>
<trkpt lat="47.02388000" lon="6.98240500"><ele></ele><time>2014-8-17T9:38:10Z</time></trkpt>
<trkpt lat="47.02338800" lon="6.98180800"><ele></ele><time>2014-8-17T9:38:13Z</time></trkpt>
<trkpt lat="47.02313200" lon="6.98118200"><ele></ele><time>2014-8-17T9:38:16Z</time></trkpt>
<trkpt lat="47.02291900" lon="6.98091900"><ele></ele><time>2014-8-17T9:38:19Z</time></trkpt>
<trkpt lat="47.02237700" lon="6.98066600"><ele></ele><time>2014-8-17T9:38:22Z</time></trkpt>
<trkpt lat="47.02178200" lon="6.98034000"><ele></ele><time>2014-8-17T9:38:25Z</time></trkpt>
<trkpt lat="47.02148800" lon="6.98008800"><ele></ele><time>2014-8-17T9:38:28Z</time></trkpt>
<trkpt lat="47.02124800" lon="6.97985600"><ele></ele><time>2014-8-17T9:38:31Z</time></trkpt>
<trkpt lat="47.02071000" lon="6.97903000"><ele></ele><time>2014-8-17T9:38:34Z</time></trkpt>
<trkpt lat="47.01998100" lon="6.97814200"><ele></ele><time>2014-8-17T9:38:37Z</time></trkpt>
<trkpt lat="47.01947000" lon="6.97795500"><ele></ele><time>2014-8-17T9:38:40Z</time></trkpt>
<trkpt lat="47.01891300" lon="6.97765800"><ele></ele><time>2014-8-17T9:38:43Z</time></trkpt>
<trkpt lat="47.01806300" lon="6.97715100"><ele></ele><time>2014-8-17T9:38:46Z</time></trkpt>
<trkpt lat="47.01764100" lon="6.97668900"><ele></ele><time>2014-8-17T9:38:49Z</time></trkpt>
<trkpt lat="47.01722000" lon="6.97622700"><ele></ele><time>2014-8-17T9:38:52Z</time></trkpt>
<trkpt lat="47.01717000" lon="6.97600900"><ele></ele><time>2014-8-17T9:38:55Z</time></trkpt>
<trkpt lat="47.01710500" lon="6.97559300"><ele></ele><time>2014-8-17T9:38:58Z</time></trkpt>
<trkpt lat="47.01647600" lon="6.97441300"><ele></ele><time>2014-8-17T9:39:1Z</time></trkpt>
<trkpt lat="47.01601000" lon="6.97348300"><ele></ele><time>2014-8-17T9:39:4Z</time></trkpt>
<trkpt lat="47.01578900" lon="6.97297500"><ele></ele><time>2014-8-17T9:39:7Z</time></trkpt>
<trkpt lat="47.01560200" lon="6.97261300"><ele></ele><time>2014-8-17T9:39:10Z</time></trkpt>
<trkpt lat="47.01554900" lon="6.97257300"><ele></ele><time>2014-8-17T9:39:13Z</time></trkpt>
<trkpt lat="47.01522400" lon="6.97264900"><ele></ele><time>2014-8-17T9:39:16Z</time></trkpt>
<trkpt lat="47.01483900" lon="6.97271100"><ele></ele><time>2014-8-17T9:39:19Z</time></trkpt>
<trkpt lat="47.01473200" lon="6.97270800"><ele></ele><time>2014-8-17T9:39:22Z</time></trkpt>
<trkpt lat="47.01462900" lon="6.97269900"><ele></ele><time>2014-8-17T9:39:25Z</time></trkpt>
<trkpt lat="47.01448100" lon="6.97261000"><ele></ele><time>2014-8-17T9:39:28Z</time></trkpt>
<trkpt lat="47.01422500" lon="6.97214700"><ele></ele><time>2014-8-17T9:39:31Z</time></trkpt>
<trkpt lat="47.01413700" lon="6.97195700"><ele></ele><time>2014-8-17T9:39:34Z</time></trkpt>
<trkpt lat="47.01408800" lon="6.97186200"><ele></ele><time>2014-8-17T9:39:37Z</time></trkpt>
<trkpt lat="47.01336700" lon="6.97135100"><ele></ele><time>2014-8-17T9:39:40Z</time></trkpt>
<trkpt lat="47.01330600" lon="6.97128100"><ele></ele><time>2014-8-17T9:39:43Z</time></trkpt>
<trkpt lat="47.01296200" lon="6.97098800"><ele></ele><time>2014-8-17T9:39:46Z</time></trkpt>
<trkpt lat="47.01260400" lon="6.97079200"><ele></ele><time>2014-8-17T9:39:49Z</time></trkpt>
<trkpt lat="47.01249700" lon="6.97075900"><ele></ele><time>2014-8-17T9:39:52Z</time></trkpt>
<trkpt lat="47.01233700" lon="6.97076200"><ele></ele><time>2014-8-17T9:39:55Z</time></trkpt>
<trkpt lat="47.01206600" lon="6.97096400"><ele></ele><time>2014-8-17T9:39:58Z</time></trkpt>
<trkpt lat="47.01201200" lon="6.97100800"><ele></ele><time>2014-8-17T9:40:1Z</time></trkpt>
<trkpt lat="47.01190900" lon="6.97095700"><ele></ele><time>2014-8-17T9:40:4Z</time></trkpt>
<trkpt lat="47.01177200" lon="6.97057500"><ele></ele><time>2014-8-17T9:40:7Z</time></trkpt>
<trkpt lat="47.01171100" lon="6.97035100"><ele></ele><time>2014-8-17T9:40:10Z</time></trkpt>
<trkpt lat="47.01163900" lon="6.97012200"><ele></ele><time>2014-8-17T9:40:13Z</time></trkpt>
<trkpt lat="47.01152800" lon="6.96977900"><ele></ele><time>2014-8-17T9:40:16Z</time></trkpt>
<trkpt lat="47.01133300" lon="6.96913800"><ele></ele><time>2014-8-17T9:40:19Z</time></trkpt>
<trkpt lat="47.01107000" lon="6.96826200"><ele></ele><time>2014-8-17T9:40:22Z</time></trkpt>
<trkpt lat="47.01088300" lon="6.96767700"><ele></ele><time>2014-8-17T9:40:25Z</time></trkpt>
<trkpt lat="47.01071500" lon="6.96703700"><ele></ele><time>2014-8-17T9:40:28Z</time></trkpt>
<trkpt lat="47.01057800" lon="6.96646200"><ele></ele><time>2014-8-17T9:40:31Z</time></trkpt>
<trkpt lat="47.01039900" lon="6.96568600"><ele></ele><time>2014-8-17T9:40:34Z</time></trkpt>
<trkpt lat="47.01005200" lon="6.96469300"><ele></ele><time>2014-8-17T9:40:37Z</time></trkpt>
<trkpt lat="47.00970800" lon="6.96398900"><ele></ele><time>2014-8-17T9:40:40Z</time></trkpt>
<trkpt lat="47.00931200" lon="6.96320300"><ele></ele><time>2014-8-17T9:40:43Z</time></trkpt>
<trkpt lat="47.00893400" lon="6.96235100"><ele></ele><time>2014-8-17T9:40:46Z</time></trkpt>
<trkpt lat="47.00868200" lon="6.96184100"><ele></ele><time>2014-8-17T9:40:49Z</time></trkpt>
<trkpt lat="47.00865600" lon="6.96177700"><ele></ele><time>2014-8-17T9:40:52Z</time></trkpt>
<trkpt lat="47.00838100" lon="6.96118800"><ele></ele><time>2014-8-17T9:40:55Z</time></trkpt>
<trkpt lat="47.00811800" lon="6.96062900"><ele></ele><time>2014-8-17T9:40:58Z</time></trkpt>
<trkpt lat="47.00779000" lon="6.96000300"><ele></ele><time>2014-8-17T9:41:1Z</time></trkpt>
<trkpt lat="47.00745400" lon="6.95947800"><ele></ele><time>2014-8-17T9:41:4Z</time></trkpt>
<trkpt lat="47.00702300" lon="6.95890600"><ele></ele><time>2014-8-17T9:41:7Z</time></trkpt>
<trkpt lat="47.00640500" lon="6.95809000"><ele></ele><time>2014-8-17T9:41:10Z</time></trkpt>
<trkpt lat="47.00574100" lon="6.95721200"><ele></ele><time>2014-8-17T9:41:13Z</time></trkpt>
<trkpt lat="47.00540500" lon="6.95677400"><ele></ele><time>2014-8-17T9:41:16Z</time></trkpt>
<trkpt lat="47.00479500" lon="6.95596300"><ele></ele><time>2014-8-17T9:41:19Z</time></trkpt>
<trkpt lat="47.00419200" lon="6.95520200"><ele></ele><time>2014-8-17T9:41:22Z</time></trkpt>
<trkpt lat="47.00371600" lon="6.95442500"><ele></ele><time>2014-8-17T9:41:25Z</time></trkpt>
<trkpt lat="47.00352500" lon="6.95408000"><ele></ele><time>2014-8-17T9:41:28Z</time></trkpt>
<trkpt lat="47.00321200" lon="6.95313800"><ele></ele><time>2014-8-17T9:41:31Z</time></trkpt>
<trkpt lat="47.00296000" lon="6.95223300"><ele></ele><time>2014-8-17T9:41:34Z</time></trkpt>
<trkpt lat="47.00276900" lon="6.95156800"><ele></ele><time>2014-8-17T9:41:37Z</time></trkpt>
<trkpt lat="47.00259000" lon="6.95099000"><ele></ele><time>2014-8-17T9:41:40Z</time></trkpt>
<trkpt lat="47.00254100" lon="6.95078200"><ele></ele><time>2014-8-17T9:41:43Z</time></trkpt>
<trkpt lat="47.00253700" lon="6.95077300"><ele></ele><time>2014-8-17T9:41:46Z</time></trkpt>
<trkpt lat="47.00253300" lon="6.95076400"><ele></ele><time>2014-8-17T9:41:49Z</time></trkpt>
<trkpt lat="47.00252900" lon="6.95075000"><ele></ele><time>2014-8-17T9:41:52Z</time></trkpt>
<trkpt lat="47.00252500" lon="6.95073700"><ele></ele><time>2014-8-17T9:41:55Z</time></trkpt>
<trkpt lat="47.00252200" lon="6.95072300"><ele></ele><time>2014-8-17T9:41:58Z</time></trkpt>
<trkpt lat="47.00251800" lon="6.95069500"><ele></ele><time>2014-8-17T9:42:1Z</time></trkpt>
<trkpt lat="47.00243800" lon="6.95044100"><ele></ele><time>2014-8-17T9:42:4Z</time></trkpt>
<trkpt lat="47.00235000" lon="6.95018500"><ele></ele><time>2014-8-17T9:42:7Z</time></trkpt>
<trkpt lat="47.00213600" lon="6.94946700"><ele></ele><time>2014-8-17T9:42:10Z</time></trkpt>
<trkpt lat="47.00181600" lon="6.94842600"><ele></ele><time>2014-8-17T9:42:13Z</time></trkpt>
<trkpt lat="47.00150300" lon="6.94752100"><ele></ele><time>2014-8-17T9:42:16Z</time></trkpt>
<trkpt lat="47.00106400" lon="6.94630100"><ele></ele><time>2014-8-17T9:42:19Z</time></trkpt>
<trkpt lat="47.00074000" lon="6.94532000"><ele></ele><time>2014-8-17T9:42:22Z</time></trkpt>
<trkpt lat="47.00041600" lon="6.94443000"><ele></ele><time>2014-8-17T9:42:25Z</time></trkpt>
<trkpt lat="47.00018600" lon="6.94378500"><ele></ele><time>2014-8-17T9:42:28Z</time></trkpt>
<trkpt lat="46.99995600" lon="6.94314000"><ele></ele><time>2014-8-17T9:42:31Z</time></trkpt>
<trkpt lat="46.99972600" lon="6.94249500"><ele></ele><time>2014-8-17T9:42:34Z</time></trkpt>
<trkpt lat="46.99949600" lon="6.94185000"><ele></ele><time>2014-8-17T9:42:37Z</time></trkpt>
<trkpt lat="46.99940100" lon="6.94159300"><ele></ele><time>2014-8-17T9:42:40Z</time></trkpt>
<trkpt lat="46.99912600" lon="6.94076000"><ele></ele><time>2014-8-17T9:42:43Z</time></trkpt>
<trkpt lat="46.99882500" lon="6.93973000"><ele></ele><time>2014-8-17T9:42:46Z</time></trkpt>
<trkpt lat="46.99861100" lon="6.93897100"><ele></ele><time>2014-8-17T9:42:49Z</time></trkpt>
<trkpt lat="46.99840900" lon="6.93832600"><ele></ele><time>2014-8-17T9:42:52Z</time></trkpt>
<trkpt lat="46.99818000" lon="6.93767400"><ele></ele><time>2014-8-17T9:42:55Z</time></trkpt>
<trkpt lat="46.99777600" lon="6.93675500"><ele></ele><time>2014-8-17T9:42:58Z</time></trkpt>
<trkpt lat="46.99755100" lon="6.93617700"><ele></ele><time>2014-8-17T9:43:1Z</time></trkpt>
<trkpt lat="46.99724600" lon="6.93538500"><ele></ele><time>2014-8-17T9:43:4Z</time></trkpt>
<trkpt lat="46.99701300" lon="6.93474300"><ele></ele><time>2014-8-17T9:43:7Z</time></trkpt>
<trkpt lat="46.99665800" lon="6.93392600"><ele></ele><time>2014-8-17T9:43:10Z</time></trkpt>
<trkpt lat="46.99644500" lon="6.93343700"><ele></ele><time>2014-8-17T9:43:13Z</time></trkpt>
<trkpt lat="46.99638000" lon="6.93332500"><ele></ele><time>2014-8-17T9:43:16Z</time></trkpt>
<trkpt lat="46.99591100" lon="6.93281700"><ele></ele><time>2014-8-17T9:43:19Z</time></trkpt>
<trkpt lat="46.99519300" lon="6.93261700"><ele></ele><time>2014-8-17T9:43:22Z</time></trkpt>
<trkpt lat="46.99485600" lon="6.93252600"><ele></ele><time>2014-8-17T9:43:25Z</time></trkpt>
<trkpt lat="46.99451800" lon="6.93243500"><ele></ele><time>2014-8-17T9:43:28Z</time></trkpt>
<trkpt lat="46.99403800" lon="6.93193100"><ele></ele><time>2014-8-17T9:43:31Z</time></trkpt>
<trkpt lat="46.99348100" lon="6.93121400"><ele></ele><time>2014-8-17T9:43:34Z</time></trkpt>
<trkpt lat="46.99296200" lon="6.93047400"><ele></ele><time>2014-8-17T9:43:37Z</time></trkpt>
<trkpt lat="46.99295300" lon="6.93041800"><ele></ele><time>2014-8-17T9:43:40Z</time></trkpt>
<trkpt lat="46.99294500" lon="6.93036200"><ele></ele><time>2014-8-17T9:43:43Z</time></trkpt>
<trkpt lat="46.99293700" lon="6.93030600"><ele></ele><time>2014-8-17T9:43:46Z</time></trkpt>
<trkpt lat="46.99292800" lon="6.93025000"><ele></ele><time>2014-8-17T9:43:49Z</time></trkpt>
<trkpt lat="46.99292000" lon="6.93019300"><ele></ele><time>2014-8-17T9:43:52Z</time></trkpt>
<trkpt lat="46.99292400" lon="6.93019400"><ele></ele><time>2014-8-17T9:43:55Z</time></trkpt>
<trkpt lat="46.99292400" lon="6.93019400"><ele></ele><time>2014-8-17T9:43:58Z</time></trkpt>
<trkpt lat="46.99292400" lon="6.93019400"><ele></ele><time>2014-8-17T9:44:1Z</time></trkpt>
<trkpt lat="46.99292400" lon="6.93019400"><ele></ele><time>2014-8-17T9:44:4Z</time></trkpt>
<trkpt lat="46.99292400" lon="6.93019400"><ele></ele><time>2014-8-17T9:44:7Z</time></trkpt>
<trkpt lat="46.99292400" lon="6.93019400"><ele></ele><time>2014-8-17T9:44:10Z</time></trkpt>
<trkpt lat="46.99292400" lon="6.93019400"><ele></ele><time>2014-8-17T9:44:13Z</time></trkpt>
<trkpt lat="46.99292400" lon="6.93019400"><ele></ele><time>2014-8-17T9:44:16Z</time></trkpt>
<trkpt lat="46.99292400" lon="6.93019400"><ele></ele><time>2014-8-17T9:44:19Z</time></trkpt>
<trkpt lat="46.99292400" lon="6.93019400"><ele></ele><time>2014-8-17T9:44:22Z</time></trkpt>
<trkpt lat="46.99292400" lon="6.93019400"><ele></ele><time>2014-8-17T9:44:25Z</time></trkpt>
<trkpt lat="46.99292400" lon="6.93019400"><ele></ele><time>2014-8-17T9:44:28Z</time></trkpt>
<trkpt lat="46.99292400" lon="6.93019400"><ele></ele><time>2014-8-17T9:44:31Z</time></trkpt>
</trkseg></trk></gpx>